Darstellungsparameter: Aktuell verwendete Einstellungen:
Skalierung der Graphiken ... ?
xyx+y,   Skalierungsfaktor:      Skalierung: Modus: x, Faktor: 1
Darstellungszeitraum ... ?
Vom - - bis: - -   Zeitraum: 11.08.2008 - 10.11.2008
Min/Max/Avg-Anzeige ... ?
Zeige MMA aktuell
Zeige MMA Monat
Zeige MMA alles
Zeige --A aktuell
Zeige --A Monat
Zeige --A alles
Keine MMA-Anzeige
MMA:
Average (ber die Originaldaten)
MMA-Basis: 17.04.2019 - 19.05.2019
Quicknavigation für Darstellung... ?
Tage:      1T, 2T, 3T, 5T -1T -2T -3T -5T +1T +2T +3T +5T
Wochen: 1W, 2W, 3W -1W -2W -3W +1W +2W +3W
Monate: 1M, 3M, 6M -1M -3M -6M +1M +3M +6M
Jahre:    1J, 3J, 5J, 10J -1J -3J -5J -10J +1J +3J +5J +10J
Nutze für die Darstellung ... ?
Originaldaten oder ...
Mittelwerte Minima Maxima auf...
Stundenbasis Tagesbasis Wochenbasis
Monatsbasis Jahresbasis      Datenbasis: Mittelwerte auf Stundenbasis
Darstellen als:
Statistik (Auto) Statistik J:M      Darstellung:
Zur Graphik,    zurück zur Übersicht aller Sensoren.
 
Tabellarische Datenbersicht: ?
 
Sensor: Nr:Datum:Temp:Abs-Feuchte:Windchill:Wind:
Aussen-T/F 1 11-08-2008 00:00:00 18.12 C 9.25 g/m*3 18.12 C 0 km/h
2 11-08-2008 01:00:00 18.5 C 9.49 g/m*3 18.5 C 0 km/h
3 11-08-2008 02:00:00 17.56 C 10.05 g/m*3 17.56 C 0 km/h
4 11-08-2008 03:00:00 17.58 C 10.55 g/m*3 17.58 C 0 km/h
5 11-08-2008 04:00:00 16.78 C 10.08 g/m*3 16.78 C 0 km/h
6 11-08-2008 05:00:00 15.68 C 9.65 g/m*3 15.68 C 0 km/h
7 11-08-2008 06:00:00 15.02 C 9.96 g/m*3 15.02 C 0 km/h
8 11-08-2008 07:00:00 15.16 C 10.31 g/m*3 15.16 C 0 km/h
9 11-08-2008 08:00:00 16.38 C 10.37 g/m*3 16.38 C 0 km/h
10 11-08-2008 09:00:00 19.58 C 10.12 g/m*3 19.58 C 0 km/h
11 11-08-2008 10:00:00 21.34 C 9.08 g/m*3 21.34 C 0 km/h
12 11-08-2008 11:00:00 22.32 C 8.38 g/m*3 22.32 C 0 km/h
13 11-08-2008 12:00:00 23.62 C 7.84 g/m*3 23.62 C 0 km/h
14 11-08-2008 13:00:00 25.86 C 6.62 g/m*3 25.86 C 0 km/h
15 11-08-2008 14:00:00 26.8 C 6.11 g/m*3 26.8 C 0 km/h
16 11-08-2008 15:00:00 27.08 C 5.79 g/m*3 27.08 C 0 km/h
17 11-08-2008 16:00:00 25.98 C 6.13 g/m*3 25.98 C 0 km/h
18 11-08-2008 17:00:00 24.32 C 6.56 g/m*3 24.32 C 0 km/h
19 11-08-2008 18:00:00 23.18 C 7.93 g/m*3 23.18 C 0 km/h
20 11-08-2008 19:00:00 22.62 C 8.81 g/m*3 22.62 C 0 km/h
21 11-08-2008 20:00:00 21.26 C 9.52 g/m*3 21.26 C 0 km/h
22 11-08-2008 21:00:00 19.94 C 10.13 g/m*3 19.94 C 0 km/h
23 11-08-2008 22:00:00 19.925 C 10.62 g/m*3 19.93 C 0 km/h
24 11-08-2008 23:00:00 19.6 C 11.21 g/m*3 19.6 C 0 km/h
25 12-08-2008 00:00:00 18.14 C 12.14 g/m*3 18.14 C 0 km/h
Sensor: Nr:Datum:Temp:Abs-Feuchte:Windchill:Wind:
Aussen-T/F 26 12-08-2008 01:00:00 17.24 C 12.54 g/m*3 17.24 C 0 km/h
27 12-08-2008 02:00:00 16.86 C 12.63 g/m*3 16.86 C 0 km/h
28 12-08-2008 03:00:00 16.72 C 12.61 g/m*3 16.72 C 0 km/h
29 12-08-2008 04:00:00 15.96 C 11.96 g/m*3 15.96 C 0 km/h
30 12-08-2008 05:00:00 16.18 C 12.07 g/m*3 16.18 C 0 km/h
31 12-08-2008 06:00:00 16.04 C 11.91 g/m*3 16.04 C 0 km/h
32 12-08-2008 07:00:00 16.14 C 12.12 g/m*3 16.14 C 0 km/h
33 12-08-2008 08:00:00 16.66 C 12.67 g/m*3 16.66 C 0 km/h
34 12-08-2008 09:00:00 16.86 C 12.83 g/m*3 16.86 C 0 km/h
35 12-08-2008 10:00:00 17.42 C 13.12 g/m*3 17.42 C 0 km/h
36 12-08-2008 11:00:00 18.28 C 13.77 g/m*3 18.28 C 0 km/h
37 12-08-2008 12:00:00 20.54 C 14.23 g/m*3 20.54 C 0 km/h
38 12-08-2008 13:00:00 22 C 13.39 g/m*3 22 C 0 km/h
39 12-08-2008 14:00:00 22.2 C 13.59 g/m*3 22.2 C 0 km/h
40 12-08-2008 15:00:00 21.98 C 12.6 g/m*3 21.98 C 0 km/h
41 12-08-2008 16:00:00 20.64 C 14.24 g/m*3 20.64 C 0 km/h
42 12-08-2008 17:00:00 21.46 C 12.45 g/m*3 21.46 C 0 km/h
43 12-08-2008 18:00:00 21.58 C 11.93 g/m*3 21.58 C 0 km/h
44 12-08-2008 19:00:00 22.38 C 11.11 g/m*3 22.38 C 0 km/h
45 12-08-2008 20:00:00 22.16 C 10.46 g/m*3 22.16 C 0 km/h
46 12-08-2008 21:00:00 20 C 11.13 g/m*3 20 C 0 km/h
47 12-08-2008 22:00:00 18.8 C 11.66 g/m*3 18.8 C 0 km/h
48 12-08-2008 23:00:00 17.8 C 10.72 g/m*3 17.8 C 0 km/h
49 13-08-2008 00:00:00 14.7 C 10.15 g/m*3 14.7 C 0 km/h
50 13-08-2008 01:00:00 14.34 C 10.52 g/m*3 14.34 C 0 km/h
Sensor: Nr:Datum:Temp:Abs-Feuchte:Windchill:Wind:
Aussen-T/F 51 13-08-2008 02:00:00 14.46 C 10.67 g/m*3 14.46 C 0 km/h
52 13-08-2008 03:00:00 14.26 C 10.71 g/m*3 14.26 C 0 km/h
53 13-08-2008 04:00:00 14.72 C 9.96 g/m*3 14.72 C 0 km/h
54 13-08-2008 05:00:00 15.48 C 8.87 g/m*3 15.48 C 0 km/h
55 13-08-2008 06:00:00 15.84 C 8.53 g/m*3 15.84 C 0 km/h
56 13-08-2008 07:00:00 16.12 C 8.48 g/m*3 16.12 C 0 km/h
57 13-08-2008 08:00:00 16.72 C 8.31 g/m*3 16.72 C 0 km/h
58 13-08-2008 09:00:00 17.48 C 8.04 g/m*3 17.48 C 0 km/h
59 13-08-2008 10:00:00 18.04 C 8.04 g/m*3 18.04 C 0 km/h
60 13-08-2008 11:00:00 18.52 C 8.71 g/m*3 18.52 C 0 km/h
61 13-08-2008 12:00:00 20.34 C 7.72 g/m*3 20.34 C 0 km/h
62 13-08-2008 13:00:00 21.16 C 7.4 g/m*3 21.16 C 0 km/h
63 13-08-2008 14:00:00 21.88 C 7.59 g/m*3 21.88 C 0 km/h
64 13-08-2008 15:00:00 20.26 C 9.23 g/m*3 20.26 C 0 km/h
65 13-08-2008 16:00:00 23.56 C 7.38 g/m*3 23.56 C 0 km/h
66 13-08-2008 17:00:00 23.82 C 6.5 g/m*3 23.82 C 0 km/h
67 13-08-2008 18:00:00 23 C 6.62 g/m*3 23 C 0 km/h
68 13-08-2008 19:00:00 21.48 C 7.12 g/m*3 21.48 C 0 km/h
69 13-08-2008 20:00:00 19.5 C 8.36 g/m*3 19.5 C 0 km/h
70 13-08-2008 21:00:00 19.3 C 7.13 g/m*3 19.3 C 0 km/h
71 13-08-2008 22:00:00 18.16 C 7.69 g/m*3 18.16 C 0 km/h
72 13-08-2008 23:00:00 17.32 C 7.96 g/m*3 17.32 C 0 km/h
73 14-08-2008 00:00:00 16.58 C 8.32 g/m*3 16.58 C 0 km/h
74 14-08-2008 01:00:00 16.12 C 8.59 g/m*3 16.12 C 0 km/h
75 14-08-2008 02:00:00 15.7 C 8.67 g/m*3 15.7 C 0 km/h
Sensor: Nr:Datum:Temp:Abs-Feuchte:Windchill:Wind:
Aussen-T/F 76 14-08-2008 03:00:00 14.9 C 8.9 g/m*3 14.9 C 0 km/h
77 14-08-2008 04:00:00 14.26 C 9 g/m*3 14.26 C 0 km/h
78 14-08-2008 05:00:00 13.68 C 9.11 g/m*3 13.68 C 0 km/h
79 14-08-2008 06:00:00 13.66 C 9.1 g/m*3 13.66 C 0 km/h
80 14-08-2008 07:00:00 13.9 C 9.06 g/m*3 13.9 C 0 km/h
81 14-08-2008 08:00:00 14.74 C 8.94 g/m*3 14.74 C 0 km/h
82 14-08-2008 09:00:00 16.44 C 7.67 g/m*3 16.44 C 0 km/h
83 14-08-2008 10:00:00 18.08 C 7.07 g/m*3 18.08 C 0 km/h
84 14-08-2008 11:00:00 19.82 C 6.98 g/m*3 19.82 C 0 km/h
85 14-08-2008 12:00:00 21.58 C 5.95 g/m*3 21.58 C 0 km/h
86 14-08-2008 13:00:00 23.38 C 6.18 g/m*3 23.38 C 0 km/h
87 14-08-2008 14:00:00 23.4 C 5.85 g/m*3 23.4 C 0 km/h
88 14-08-2008 15:00:00 24.44 C 5.53 g/m*3 24.44 C 0 km/h
89 14-08-2008 16:00:00 25.52 C 5.26 g/m*3 25.52 C 0 km/h
90 14-08-2008 17:00:00 26.32 C 5.06 g/m*3 26.32 C 0 km/h
91 14-08-2008 18:00:00 26.58 C 5.03 g/m*3 26.58 C 0 km/h
92 14-08-2008 19:00:00 24.4 C 5.43 g/m*3 24.4 C 0 km/h
93 14-08-2008 20:00:00 21.72 C 6.03 g/m*3 21.72 C 0 km/h
94 14-08-2008 21:00:00 19.14 C 6.34 g/m*3 19.14 C 0 km/h
95 14-08-2008 22:00:00 17.98 C 6.84 g/m*3 17.98 C 0 km/h
96 14-08-2008 23:00:00 17.24 C 7.34 g/m*3 17.24 C 0 km/h
97 15-08-2008 00:00:00 16.86 C 7.58 g/m*3 16.86 C 0 km/h
98 15-08-2008 01:00:00 16.44 C 7.7 g/m*3 16.44 C 0 km/h
99 15-08-2008 02:00:00 15.86 C 7.84 g/m*3 15.86 C 0 km/h
100 15-08-2008 03:00:00 15.4 C 8.07 g/m*3 15.4 C 0 km/h
Sensor: Nr:Datum:Temp:Abs-Feuchte:Windchill:Wind:
Aussen-T/F 101 15-08-2008 04:00:00 14.66 C 8.34 g/m*3 14.66 C 0 km/h
102 15-08-2008 05:00:00 14.08 C 8.39 g/m*3 14.08 C 0 km/h
103 15-08-2008 06:00:00 13.58 C 8.51 g/m*3 13.58 C 0 km/h
104 15-08-2008 07:00:00 13.06 C 8.61 g/m*3 13.06 C 0 km/h
105 15-08-2008 08:00:00 13.3 C 8.8 g/m*3 13.3 C 0 km/h
106 15-08-2008 09:00:00 15.26 C 8.83 g/m*3 15.26 C 0 km/h
107 15-08-2008 10:00:00 18.06 C 8.08 g/m*3 18.06 C 0 km/h
108 15-08-2008 11:00:00 20.22 C 7.42 g/m*3 20.22 C 0 km/h
109 15-08-2008 12:00:00 22.36 C 7.21 g/m*3 22.36 C 0 km/h
110 15-08-2008 13:00:00 22.02 C 6.88 g/m*3 22.02 C 0 km/h
111 15-08-2008 14:00:00 20.26 C 8.14 g/m*3 20.26 C 0 km/h
112 15-08-2008 15:00:00 21.72 C 7.72 g/m*3 21.72 C 0 km/h
113 15-08-2008 16:00:00 24.44 C 6.78 g/m*3 24.44 C 0 km/h
114 15-08-2008 17:00:00 24.28 C 6.94 g/m*3 24.28 C 0 km/h
115 15-08-2008 18:00:00 23.86 C 6.91 g/m*3 23.86 C 0 km/h
116 15-08-2008 19:00:00 24.02 C 7.1 g/m*3 24.02 C 0 km/h
117 15-08-2008 20:00:00 19.58 C 7.59 g/m*3 19.58 C 0 km/h
118 15-08-2008 21:00:00 18.08 C 8.02 g/m*3 18.08 C 0 km/h
119 15-08-2008 22:00:00 16.94 C 8.71 g/m*3 16.94 C 0 km/h
120 15-08-2008 23:00:00 16.36 C 8.33 g/m*3 16.36 C 0 km/h
121 16-08-2008 00:00:00 15.08 C 8.45 g/m*3 15.08 C 0 km/h
122 16-08-2008 01:00:00 14.08 C 8.63 g/m*3 14.08 C 0 km/h
123 16-08-2008 02:00:00 13.38 C 8.59 g/m*3 13.38 C 0 km/h
124 16-08-2008 03:00:00 12.58 C 8.6 g/m*3 12.58 C 0 km/h
125 16-08-2008 04:00:00 11.8 C 8.59 g/m*3 11.8 C 0 km/h
Sensor: Nr:Datum:Temp:Abs-Feuchte:Windchill:Wind:
Aussen-T/F 126 16-08-2008 05:00:00 11.1 C 8.4 g/m*3 11.1 C 0 km/h
127 16-08-2008 06:00:00 10.62 C 8.25 g/m*3 10.62 C 0 km/h
128 16-08-2008 07:00:00 10.8 C 8.32 g/m*3 10.8 C 0 km/h
129 16-08-2008 08:00:00 11.66 C 8.64 g/m*3 11.66 C 0 km/h
130 16-08-2008 09:00:00 13.58 C 8.72 g/m*3 13.58 C 0 km/h
131 16-08-2008 10:00:00 16.72 C 8.74 g/m*3 16.72 C 0 km/h
132 16-08-2008 11:00:00 20.16 C 8.27 g/m*3 20.16 C 0 km/h
133 16-08-2008 12:00:00 22.18 C 6.63 g/m*3 22.18 C 0 km/h
134 16-08-2008 13:00:00 24.26 C 5.48 g/m*3 24.26 C 0 km/h
135 16-08-2008 14:00:00 26.24 C 5.18 g/m*3 26.24 C 0 km/h
136 16-08-2008 15:00:00 28.84 C 5.69 g/m*3 28.84 C 0 km/h
137 16-08-2008 16:00:00 30.12 C 6.1 g/m*3 30.12 C 0 km/h
138 16-08-2008 17:00:00 29.44 C 5.88 g/m*3 29.44 C 0 km/h
139 16-08-2008 18:00:00 30.14 C 6.11 g/m*3 30.14 C 0 km/h
140 16-08-2008 19:00:00 25.24 C 6.21 g/m*3 25.24 C 0 km/h
141 16-08-2008 20:00:00 20.86 C 6.69 g/m*3 20.86 C 0 km/h
142 16-08-2008 21:00:00 18.88 C 6.96 g/m*3 18.88 C 0 km/h
143 16-08-2008 22:00:00 18.28 C 7.18 g/m*3 18.28 C 0 km/h
144 16-08-2008 23:00:00 17.32 C 7.46 g/m*3 17.32 C 0 km/h
145 17-08-2008 00:00:00 16.12 C 7.22 g/m*3 16.12 C 0 km/h
146 17-08-2008 01:00:00 15.14 C 7.5 g/m*3 15.14 C 0 km/h
147 17-08-2008 02:00:00 14.38 C 7.61 g/m*3 14.38 C 0 km/h
148 17-08-2008 03:00:00 13.66 C 7.8 g/m*3 13.66 C 0 km/h
149 17-08-2008 04:00:00 13.08 C 7.84 g/m*3 13.08 C 0 km/h
150 17-08-2008 05:00:00 12.54 C 7.91 g/m*3 12.54 C 0 km/h
Sensor: Nr:Datum:Temp:Abs-Feuchte:Windchill:Wind:
Aussen-T/F 151 17-08-2008 06:00:00 12.02 C 7.98 g/m*3 12.02 C 0 km/h
152 17-08-2008 07:00:00 12.12 C 8.14 g/m*3 12.12 C 0 km/h
153 17-08-2008 08:00:00 12.96 C 8.39 g/m*3 12.96 C 0 km/h
154 17-08-2008 09:00:00 15.06 C 8.52 g/m*3 15.06 C 0 km/h
155 17-08-2008 10:00:00 18.68 C 8.99 g/m*3 18.68 C 0 km/h
156 17-08-2008 11:00:00 22.26 C 8.16 g/m*3 22.26 C 0 km/h
157 17-08-2008 12:00:00 24.22 C 5.9 g/m*3 24.22 C 0 km/h
158 17-08-2008 13:00:00 25.92 C 4.9 g/m*3 25.92 C 0 km/h
159 17-08-2008 14:00:00 26.4 C 5.33 g/m*3 26.4 C 0 km/h
160 17-08-2008 15:00:00 26.44 C 5.74 g/m*3 26.44 C 0 km/h
161 17-08-2008 16:00:00 27 C 5.56 g/m*3 27 C 0 km/h
162 17-08-2008 17:00:00 25.8 C 6.21 g/m*3 25.8 C 0 km/h
163 17-08-2008 18:00:00 24.9 C 6.82 g/m*3 24.9 C 0 km/h
164 17-08-2008 19:00:00 24.38 C 7.56 g/m*3 24.38 C 0 km/h
165 17-08-2008 20:00:00 21.74 C 8.03 g/m*3 21.74 C 0 km/h
166 17-08-2008 21:00:00 19.38 C 10 g/m*3 19.38 C 0 km/h
167 17-08-2008 22:00:00 17.375 C 12.21 g/m*3 17.38 C 0 km/h
168 17-08-2008 23:00:00 16.54 C 11.46 g/m*3 16.54 C 0 km/h
169 18-08-2008 00:00:00 16.14 C 11.27 g/m*3 16.14 C 0 km/h
170 18-08-2008 01:00:00 16.54 C 11.4 g/m*3 16.54 C 0 km/h
171 18-08-2008 02:00:00 16.58 C 11.43 g/m*3 16.58 C 0 km/h
172 18-08-2008 03:00:00 15.96 C 11.25 g/m*3 15.96 C 0 km/h
173 18-08-2008 04:00:00 15.42 C 11.15 g/m*3 15.42 C 0 km/h
174 18-08-2008 05:00:00 15.7 C 11.37 g/m*3 15.7 C 0 km/h
175 18-08-2008 06:00:00 15.56 C 11.17 g/m*3 15.56 C 0 km/h
Sensor: Nr:Datum:Temp:Abs-Feuchte:Windchill:Wind:
Aussen-T/F 176 18-08-2008 07:00:00 15.22 C 11.2 g/m*3 15.22 C 0 km/h
177 18-08-2008 08:00:00 16.34 C 11.63 g/m*3 16.34 C 0 km/h
178 18-08-2008 09:00:00 18.92 C 11.55 g/m*3 18.92 C 0 km/h
179 18-08-2008 10:00:00 20.68 C 10.79 g/m*3 20.68 C 0 km/h
180 18-08-2008 11:00:00 22.4 C 10.13 g/m*3 22.4 C 0 km/h
181 18-08-2008 12:00:00 23.66 C 9.43 g/m*3 23.66 C 0 km/h
182 18-08-2008 13:00:00 24.8 C 9.15 g/m*3 24.8 C 0 km/h
183 18-08-2008 14:00:00 24.64 C 8.89 g/m*3 24.64 C 0 km/h
184 18-08-2008 15:00:00 25.3 C 8.24 g/m*3 25.3 C 0 km/h
185 18-08-2008 16:00:00 26.32 C 8.62 g/m*3 26.32 C 0 km/h
186 18-08-2008 17:00:00 29.3 C 7.24 g/m*3 29.3 C 0 km/h
187 18-08-2008 18:00:00 29 C 7.01 g/m*3 29 C 0 km/h
188 18-08-2008 19:00:00 27.86 C 7.66 g/m*3 27.86 C 0 km/h
189 18-08-2008 20:00:00 25.56 C 8.88 g/m*3 25.56 C 0 km/h
190 18-08-2008 21:00:00 23.1 C 9.47 g/m*3 23.1 C 0 km/h
191 18-08-2008 22:00:00 22.24 C 9.41 g/m*3 22.24 C 0 km/h
192 18-08-2008 23:00:00 21.8 C 9.63 g/m*3 21.8 C 0 km/h
193 19-08-2008 00:00:00 21.1 C 11.09 g/m*3 21.1 C 0 km/h
194 19-08-2008 01:00:00 19.96 C 11.86 g/m*3 19.96 C 0 km/h
195 19-08-2008 02:00:00 19.2 C 11.71 g/m*3 19.2 C 0 km/h
196 19-08-2008 03:00:00 18.82 C 11.8 g/m*3 18.82 C 0 km/h
197 19-08-2008 04:00:00 18.72 C 11.44 g/m*3 18.72 C 0 km/h
198 19-08-2008 05:00:00 18.78 C 10.75 g/m*3 18.78 C 0 km/h
199 19-08-2008 06:00:00 18.46 C 10.1 g/m*3 18.46 C 0 km/h
200 19-08-2008 07:00:00 18.32 C 9.58 g/m*3 18.32 C 0 km/h
Sensor: Nr:Datum:Temp:Abs-Feuchte:Windchill:Wind:
Aussen-T/F 201 19-08-2008 08:00:00 19.5 C 8.89 g/m*3 19.5 C 0 km/h
202 19-08-2008 09:00:00 20.1 C 8.55 g/m*3 20.1 C 0 km/h
203 19-08-2008 10:00:00 20.8 C 8.76 g/m*3 20.8 C 0 km/h
204 19-08-2008 11:00:00 21.7 C 8.85 g/m*3 21.7 C 0 km/h
205 19-08-2008 12:00:00 22.66 C 8.43 g/m*3 22.66 C 0 km/h
206 19-08-2008 13:00:00 23.56 C 8.06 g/m*3 23.56 C 0 km/h
207 19-08-2008 14:00:00 23.94 C 7.85 g/m*3 23.94 C 0 km/h
208 19-08-2008 15:00:00 24 C 8.01 g/m*3 24 C 0 km/h
209 19-08-2008 16:00:00 23.76 C 8.03 g/m*3 23.76 C 0 km/h
210 19-08-2008 17:00:00 23.4 C 8.2 g/m*3 23.4 C 0 km/h
211 19-08-2008 18:00:00 22.62 C 8.57 g/m*3 22.62 C 0 km/h
212 19-08-2008 19:00:00 21.64 C 8.97 g/m*3 21.64 C 0 km/h
213 19-08-2008 20:00:00 21.04 C 9.33 g/m*3 21.04 C 0 km/h
214 19-08-2008 21:00:00 19.58 C 9.44 g/m*3 19.58 C 0 km/h
215 19-08-2008 22:00:00 18.96 C 9.66 g/m*3 18.96 C 0 km/h
216 19-08-2008 23:00:00 18.4 C 10 g/m*3 18.4 C 0 km/h
217 20-08-2008 00:00:00 18 C 10.32 g/m*3 18 C 0 km/h
218 20-08-2008 01:00:00 17.24 C 11.16 g/m*3 17.24 C 0 km/h
219 20-08-2008 02:00:00 16.78 C 11.37 g/m*3 16.78 C 0 km/h
220 20-08-2008 03:00:00 16.5 C 10.78 g/m*3 16.5 C 0 km/h
221 20-08-2008 04:00:00 16.46 C 10.67 g/m*3 16.46 C 0 km/h
222 20-08-2008 05:00:00 16.26 C 10.49 g/m*3 16.26 C 0 km/h
223 20-08-2008 06:00:00 15.94 C 10.34 g/m*3 15.94 C 0 km/h
224 20-08-2008 07:00:00 16.08 C 10.13 g/m*3 16.08 C 0 km/h
225 20-08-2008 08:00:00 16.46 C 9.72 g/m*3 16.46 C 0 km/h
Sensor: Nr:Datum:Temp:Abs-Feuchte:Windchill:Wind:
Aussen-T/F 226 20-08-2008 09:00:00 17.52 C 9.16 g/m*3 17.52 C 0 km/h
227 20-08-2008 10:00:00 19.04 C 9.11 g/m*3 19.04 C 0 km/h
228 20-08-2008 11:00:00 19.78 C 8.77 g/m*3 19.78 C 0 km/h
229 20-08-2008 12:00:00 20.82 C 8.34 g/m*3 20.82 C 0 km/h
230 20-08-2008 13:00:00 20.78 C 8.39 g/m*3 20.78 C 0 km/h
231 20-08-2008 14:00:00 22.06 C 7.98 g/m*3 22.06 C 0 km/h
232 20-08-2008 15:00:00 22.3 C 7.78 g/m*3 22.3 C 0 km/h
233 20-08-2008 16:00:00 21.26 C 7.85 g/m*3 21.26 C 0 km/h
234 20-08-2008 17:00:00 23.26 C 7.59 g/m*3 23.26 C 0 km/h
235 20-08-2008 18:00:00 21.68 C 7.24 g/m*3 21.68 C 0 km/h
236 20-08-2008 19:00:00 20.3 C 7.56 g/m*3 20.3 C 0 km/h
237 20-08-2008 20:00:00 19.4 C 7.94 g/m*3 19.4 C 0 km/h
238 20-08-2008 21:00:00 18.34 C 8.75 g/m*3 18.34 C 0 km/h
239 20-08-2008 22:00:00 17.76 C 9.02 g/m*3 17.76 C 0 km/h
240 20-08-2008 23:00:00 17.66 C 9.03 g/m*3 17.66 C 0 km/h
241 21-08-2008 00:00:00 17.3 C 9.05 g/m*3 17.3 C 0 km/h
242 21-08-2008 01:00:00 16.62 C 8.97 g/m*3 16.62 C 0 km/h
243 21-08-2008 02:00:00 15.54 C 9.04 g/m*3 15.54 C 0 km/h
244 21-08-2008 03:00:00 14.4 C 9.1 g/m*3 14.4 C 0 km/h
245 21-08-2008 04:00:00 13.58 C 9.03 g/m*3 13.58 C 0 km/h
246 21-08-2008 05:00:00 13.12 C 9.05 g/m*3 13.12 C 0 km/h
247 21-08-2008 06:00:00 13.08 C 9.12 g/m*3 13.08 C 0 km/h
248 21-08-2008 07:00:00 14.02 C 9.4 g/m*3 14.02 C 0 km/h
249 21-08-2008 08:00:00 15.06 C 9.29 g/m*3 15.06 C 0 km/h
250 21-08-2008 09:00:00 16.14 C 9.29 g/m*3 16.14 C 0 km/h
Sensor: Nr:Datum:Temp:Abs-Feuchte:Windchill:Wind:
Aussen-T/F 251 21-08-2008 10:00:00 18.64 C 9.16 g/m*3 18.64 C 0 km/h
252 21-08-2008 11:00:00 20.92 C 8.13 g/m*3 20.92 C 0 km/h
253 21-08-2008 12:00:00 22.7 C 7.88 g/m*3 22.7 C 0 km/h
254 21-08-2008 13:00:00 24.28 C 7.21 g/m*3 24.28 C 0 km/h
255 21-08-2008 14:00:00 25.3 C 6.88 g/m*3 25.3 C 0 km/h
256 21-08-2008 15:00:00 25.74 C 6.96 g/m*3 25.74 C 0 km/h
257 21-08-2008 16:00:00 25.56 C 7.27 g/m*3 25.56 C 0 km/h
258 21-08-2008 17:00:00 25.44 C 7.36 g/m*3 25.44 C 0 km/h
259 21-08-2008 18:00:00 25.04 C 7.66 g/m*3 25.04 C 0 km/h
260 21-08-2008 19:00:00 23.12 C 8.2 g/m*3 23.12 C 0 km/h
261 21-08-2008 20:00:00 22.48 C 8.5 g/m*3 22.48 C 0 km/h
262 21-08-2008 21:00:00 21.82 C 8.68 g/m*3 21.82 C 0 km/h
263 21-08-2008 22:00:00 20.96 C 8.85 g/m*3 20.96 C 0 km/h
264 21-08-2008 23:00:00 20.44 C 9.18 g/m*3 20.44 C 0 km/h
265 22-08-2008 00:00:00 20.02 C 9.27 g/m*3 20.02 C 0 km/h
266 22-08-2008 01:00:00 19.74 C 9.53 g/m*3 19.74 C 0 km/h
267 22-08-2008 02:00:00 18.72 C 9.46 g/m*3 18.72 C 0 km/h
268 22-08-2008 03:00:00 18.48 C 9.45 g/m*3 18.48 C 0 km/h
269 22-08-2008 04:00:00 18.36 C 9.54 g/m*3 18.36 C 0 km/h
270 22-08-2008 05:00:00 18.12 C 9.65 g/m*3 18.12 C 0 km/h
271 22-08-2008 06:00:00 17.3 C 9.75 g/m*3 17.3 C 0 km/h
272 22-08-2008 07:00:00 17.1 C 10.1 g/m*3 17.1 C 0 km/h
273 22-08-2008 08:00:00 17.82 C 10.09 g/m*3 17.82 C 0 km/h
274 22-08-2008 09:00:00 18.78 C 10.04 g/m*3 18.78 C 0 km/h
275 22-08-2008 10:00:00 22.04 C 9.77 g/m*3 22.04 C 0 km/h
Sensor: Nr:Datum:Temp:Abs-Feuchte:Windchill:Wind:
Aussen-T/F 276 22-08-2008 11:00:00 24.46 C 9.2 g/m*3 24.46 C 0 km/h
277 22-08-2008 12:00:00 24.68 C 9 g/m*3 24.68 C 0 km/h
278 22-08-2008 13:00:00 23.26 C 9.93 g/m*3 23.26 C 0 km/h
279 22-08-2008 14:00:00 18.28 C 12.37 g/m*3 18.28 C 0 km/h
280 22-08-2008 15:00:00 18.22 C 13.38 g/m*3 18.22 C 0 km/h
281 22-08-2008 16:00:00 18.28 C 13.77 g/m*3 18.28 C 0 km/h
282 22-08-2008 17:00:00 17.66 C 13.25 g/m*3 17.66 C 0 km/h
283 22-08-2008 18:00:00 16.08 C 11.94 g/m*3 16.08 C 0 km/h
284 22-08-2008 19:00:00 15.32 C 11.85 g/m*3 15.32 C 0 km/h
285 22-08-2008 20:00:00 15.36 C 12.11 g/m*3 15.36 C 0 km/h
286 22-08-2008 21:00:00 15.24 C 12.13 g/m*3 15.24 C 0 km/h
287 22-08-2008 22:00:00 14.88 C 11.97 g/m*3 14.88 C 0 km/h
288 22-08-2008 23:00:00 14.68 C 11.85 g/m*3 14.68 C 0 km/h
289 23-08-2008 00:00:00 14.18 C 11.49 g/m*3 14.18 C 0 km/h
290 23-08-2008 01:00:00 13.82 C 11.26 g/m*3 13.82 C 0 km/h
291 23-08-2008 02:00:00 13.7 C 11.06 g/m*3 13.7 C 0 km/h
292 23-08-2008 03:00:00 12.94 C 9.94 g/m*3 12.94 C 0 km/h
293 23-08-2008 04:00:00 11.54 C 9.3 g/m*3 11.54 C 0 km/h
294 23-08-2008 05:00:00 10.92 C 9.14 g/m*3 10.92 C 0 km/h
295 23-08-2008 06:00:00 10.92 C 9.24 g/m*3 10.92 C 0 km/h
296 23-08-2008 07:00:00 10.98 C 9.26 g/m*3 10.98 C 0 km/h
297 23-08-2008 08:00:00 12.38 C 9.49 g/m*3 12.38 C 0 km/h
298 23-08-2008 09:00:00 13.44 C 9.07 g/m*3 13.44 C 0 km/h
299 23-08-2008 10:00:00 15.2 C 8.83 g/m*3 15.2 C 0 km/h
300 23-08-2008 11:00:00 17.02 C 8.46 g/m*3 17.02 C 0 km/h
Sensor: Nr:Datum:Temp:Abs-Feuchte:Windchill:Wind:
Aussen-T/F 301 23-08-2008 12:00:00 17.82 C 7.81 g/m*3 17.82 C 0 km/h
302 23-08-2008 13:00:00 17.92 C 7.55 g/m*3 17.92 C 0 km/h
303 23-08-2008 14:00:00 17.74 C 6.47 g/m*3 17.74 C 0 km/h
304 23-08-2008 15:00:00 17.14 C 6.48 g/m*3 17.14 C 0 km/h
305 23-08-2008 16:00:00 17.84 C 7.39 g/m*3 17.84 C 0 km/h
306 23-08-2008 17:00:00 19.52 C 7.53 g/m*3 19.52 C 0 km/h
307 23-08-2008 18:00:00 18.68 C 6.94 g/m*3 18.68 C 0 km/h
308 23-08-2008 19:00:00 16.78 C 8.88 g/m*3 16.78 C 0 km/h
309 23-08-2008 20:00:00 15.76 C 8.84 g/m*3 15.76 C 0 km/h
310 23-08-2008 21:00:00 14.2 C 9.92 g/m*3 14.2 C 0 km/h
311 23-08-2008 22:00:00 14.36 C 9.69 g/m*3 14.36 C 0 km/h
312 23-08-2008 23:00:00 14.02 C 9.3 g/m*3 14.02 C 0 km/h
313 24-08-2008 00:00:00 13.68 C 9.08 g/m*3 13.68 C 0 km/h
314 24-08-2008 01:00:00 13.3 C 8.92 g/m*3 13.3 C 0 km/h
315 24-08-2008 02:00:00 12.8 C 8.92 g/m*3 12.8 C 0 km/h
316 24-08-2008 03:00:00 12.34 C 8.9 g/m*3 12.34 C 0 km/h
317 24-08-2008 04:00:00 11.92 C 8.82 g/m*3 11.92 C 0 km/h
318 24-08-2008 05:00:00 11.22 C 8.77 g/m*3 11.22 C 0 km/h
319 24-08-2008 06:00:00 11.58 C 8.93 g/m*3 11.58 C 0 km/h
320 24-08-2008 07:00:00 11.7 C 8.89 g/m*3 11.7 C 0 km/h
321 24-08-2008 08:00:00 11.94 C 9.02 g/m*3 11.94 C 0 km/h
322 24-08-2008 09:00:00 13.4 C 9.28 g/m*3 13.4 C 0 km/h
323 24-08-2008 10:00:00 15.82 C 9.19 g/m*3 15.82 C 0 km/h
324 24-08-2008 11:00:00 17.7 C 8.48 g/m*3 17.7 C 0 km/h
325 24-08-2008 12:00:00 19.42 C 7.25 g/m*3 19.42 C 0 km/h
Sensor: Nr:Datum:Temp:Abs-Feuchte:Windchill:Wind:
Aussen-T/F 326 24-08-2008 13:00:00 20.94 C 6.72 g/m*3 20.94 C 0 km/h
327 24-08-2008 14:00:00 21.78 C 6.13 g/m*3 21.78 C 0 km/h
328 24-08-2008 15:00:00 22.6 C 6.15 g/m*3 22.6 C 0 km/h
329 24-08-2008 16:00:00 22.62 C 6.15 g/m*3 22.62 C 0 km/h
330 24-08-2008 17:00:00 22.78 C 6.05 g/m*3 22.78 C 0 km/h
331 24-08-2008 18:00:00 21.52 C 7.17 g/m*3 21.52 C 0 km/h
332 24-08-2008 19:00:00 20.28 C 7.66 g/m*3 20.28 C 0 km/h
333 24-08-2008 20:00:00 18.58 C 8.01 g/m*3 18.58 C 0 km/h
334 24-08-2008 21:00:00 17.9 C 8.24 g/m*3 17.9 C 0 km/h
335 24-08-2008 22:00:00 17.12 C 8.69 g/m*3 17.12 C 0 km/h
336 24-08-2008 23:00:00 15.3 C 10.34 g/m*3 15.3 C 0 km/h
337 25-08-2008 00:00:00 14.46 C 10.97 g/m*3 14.46 C 0 km/h
338 25-08-2008 01:00:00 14.44 C 11.15 g/m*3 14.44 C 0 km/h
339 25-08-2008 02:00:00 14.66 C 11.33 g/m*3 14.66 C 0 km/h
340 25-08-2008 03:00:00 14.44 C 11.08 g/m*3 14.44 C 0 km/h
341 25-08-2008 04:00:00 14.3 C 11.03 g/m*3 14.3 C 0 km/h
342 25-08-2008 05:00:00 14.22 C 11.1 g/m*3 14.22 C 0 km/h
343 25-08-2008 06:00:00 14.48 C 10.96 g/m*3 14.48 C 0 km/h
344 25-08-2008 07:00:00 14.72 C 11.04 g/m*3 14.72 C 0 km/h
345 25-08-2008 08:00:00 14.96 C 11.18 g/m*3 14.96 C 0 km/h
346 25-08-2008 09:00:00 15.72 C 11.57 g/m*3 15.72 C 0 km/h
347 25-08-2008 10:00:00 16.88 C 11.69 g/m*3 16.88 C 0 km/h
348 25-08-2008 11:00:00 17.8 C 11.44 g/m*3 17.8 C 0 km/h
349 25-08-2008 12:00:00 19.7 C 10.8 g/m*3 19.7 C 0 km/h
350 25-08-2008 13:00:00 19.92 C 10.39 g/m*3 19.92 C 0 km/h
Sensor: Nr:Datum:Temp:Abs-Feuchte:Windchill:Wind:
Aussen-T/F 351 25-08-2008 14:00:00 20.68 C 10.25 g/m*3 20.68 C 0 km/h
352 25-08-2008 15:00:00 21.22 C 10.28 g/m*3 21.22 C 0 km/h
353 25-08-2008 16:00:00 22.64 C 9.95 g/m*3 22.64 C 0 km/h
354 25-08-2008 17:00:00 23.2 C 9.85 g/m*3 23.2 C 0 km/h
355 25-08-2008 18:00:00 21.24 C 10.36 g/m*3 21.24 C 0 km/h
356 25-08-2008 19:00:00 20.72 C 10.49 g/m*3 20.72 C 0 km/h
357 25-08-2008 20:00:00 18.86 C 9.76 g/m*3 18.86 C 0 km/h
358 25-08-2008 21:00:00 17.24 C 9.98 g/m*3 17.24 C 0 km/h
359 25-08-2008 22:00:00 16.48 C 9.82 g/m*3 16.48 C 0 km/h
360 25-08-2008 23:00:00 15.48 C 9.93 g/m*3 15.48 C 0 km/h
361 26-08-2008 00:00:00 14.56 C 10.14 g/m*3 14.56 C 0 km/h
362 26-08-2008 01:00:00 13.94 C 9.93 g/m*3 13.94 C 0 km/h
363 26-08-2008 02:00:00 13.92 C 9.99 g/m*3 13.92 C 0 km/h
364 26-08-2008 03:00:00 14.08 C 9.87 g/m*3 14.08 C 0 km/h
365 26-08-2008 04:00:00 14.2 C 9.96 g/m*3 14.2 C 0 km/h
366 26-08-2008 05:00:00 14.6 C 10.06 g/m*3 14.6 C 0 km/h
367 26-08-2008 06:00:00 14.78 C 9.84 g/m*3 14.78 C 0 km/h
368 26-08-2008 07:00:00 15.16 C 9.74 g/m*3 15.16 C 0 km/h
369 26-08-2008 08:00:00 15.82 C 9.78 g/m*3 15.82 C 0 km/h
370 26-08-2008 09:00:00 16.82 C 9.65 g/m*3 16.82 C 0 km/h
371 26-08-2008 10:00:00 18.22 C 9.52 g/m*3 18.22 C 0 km/h
372 26-08-2008 11:00:00 20.56 C 9.25 g/m*3 20.56 C 0 km/h
373 26-08-2008 12:00:00 22.68 C 8.88 g/m*3 22.68 C 0 km/h
374 26-08-2008 13:00:00 23.52 C 9.1 g/m*3 23.52 C 0 km/h
375 26-08-2008 14:00:00 23.78 C 8.94 g/m*3 23.78 C 0 km/h
Sensor: Nr:Datum:Temp:Abs-Feuchte:Windchill:Wind:
Aussen-T/F 376 26-08-2008 15:00:00 24.82 C 8.8 g/m*3 24.82 C 0 km/h
377 26-08-2008 16:00:00 25.78 C 8.71 g/m*3 25.78 C 0 km/h
378 26-08-2008 17:00:00 26.36 C 8.49 g/m*3 26.36 C 0 km/h
379 26-08-2008 18:00:00 25.84 C 8.93 g/m*3 25.84 C 0 km/h
380 26-08-2008 19:00:00 24.04 C 9.55 g/m*3 24.04 C 0 km/h
381 26-08-2008 20:00:00 22.04 C 10 g/m*3 22.04 C 0 km/h
382 26-08-2008 21:00:00 20.46 C 10.51 g/m*3 20.46 C 0 km/h
383 26-08-2008 22:00:00 18.82 C 11 g/m*3 18.82 C 0 km/h
384 26-08-2008 23:00:00 17.74 C 11.19 g/m*3 17.74 C 0 km/h
385 27-08-2008 00:00:00 16.8 C 11.27 g/m*3 16.8 C 0 km/h
386 27-08-2008 01:00:00 16.06 C 11.19 g/m*3 16.06 C 0 km/h
387 27-08-2008 02:00:00 15.68 C 11.17 g/m*3 15.68 C 0 km/h
388 27-08-2008 03:00:00 15.74 C 11.13 g/m*3 15.74 C 0 km/h
389 27-08-2008 04:00:00 15.36 C 10.88 g/m*3 15.36 C 0 km/h
390 27-08-2008 05:00:00 14.34 C 10.62 g/m*3 14.34 C 0 km/h
391 27-08-2008 06:00:00 14.16 C 10.74 g/m*3 14.16 C 0 km/h
392 27-08-2008 07:00:00 14.42 C 10.82 g/m*3 14.42 C 0 km/h
393 27-08-2008 08:00:00 14.88 C 10.59 g/m*3 14.88 C 0 km/h
394 27-08-2008 09:00:00 16.3 C 10.74 g/m*3 16.3 C 0 km/h
395 27-08-2008 10:00:00 18.12 C 10.8 g/m*3 18.12 C 0 km/h
396 27-08-2008 11:00:00 20.58 C 9.65 g/m*3 20.58 C 0 km/h
397 27-08-2008 12:00:00 21.84 C 9.38 g/m*3 21.84 C 0 km/h
398 27-08-2008 13:00:00 23.42 C 9.26 g/m*3 23.42 C 0 km/h
399 27-08-2008 14:00:00 25.38 C 8.94 g/m*3 25.38 C 0 km/h
400 27-08-2008 15:00:00 27.12 C 8.76 g/m*3 27.12 C 0 km/h
Sensor: Nr:Datum:Temp:Abs-Feuchte:Windchill:Wind:
Aussen-T/F 401 27-08-2008 16:00:00 28.84 C 8.6 g/m*3 28.84 C 0 km/h
402 27-08-2008 17:00:00 27.4 C 8.84 g/m*3 27.4 C 0 km/h
403 27-08-2008 18:00:00 26.1 C 9.25 g/m*3 26.1 C 0 km/h
404 27-08-2008 19:00:00 23.36 C 9.69 g/m*3 23.36 C 0 km/h
405 27-08-2008 20:00:00 21.56 C 9.69 g/m*3 21.56 C 0 km/h
406 27-08-2008 21:00:00 20.56 C 9.46 g/m*3 20.56 C 0 km/h
407 27-08-2008 22:00:00 19.94 C 9.3 g/m*3 19.94 C 0 km/h
408 27-08-2008 23:00:00 19.6 C 9.59 g/m*3 19.6 C 0 km/h
409 28-08-2008 00:00:00 19.24 C 9.65 g/m*3 19.24 C 0 km/h
410 28-08-2008 01:00:00 19 C 9.75 g/m*3 19 C 0 km/h
411 28-08-2008 02:00:00 18.78 C 10.01 g/m*3 18.78 C 0 km/h
412 28-08-2008 03:00:00 18.54 C 10.09 g/m*3 18.54 C 0 km/h
413 28-08-2008 04:00:00 18.36 C 10.23 g/m*3 18.36 C 0 km/h
414 28-08-2008 05:00:00 18.14 C 10.16 g/m*3 18.14 C 0 km/h
415 28-08-2008 06:00:00 17.9 C 10.26 g/m*3 17.9 C 0 km/h
416 28-08-2008 07:00:00 17.88 C 10.4 g/m*3 17.88 C 0 km/h
417 28-08-2008 08:00:00 18.4 C 10.7 g/m*3 18.4 C 0 km/h
418 28-08-2008 09:00:00 19.16 C 10.13 g/m*3 19.16 C 0 km/h
419 28-08-2008 10:00:00 19.92 C 9.43 g/m*3 19.92 C 0 km/h
420 28-08-2008 11:00:00 21.8 C 8.13 g/m*3 21.8 C 0 km/h
421 28-08-2008 12:00:00 23.16 C 7.47 g/m*3 23.16 C 0 km/h
422 28-08-2008 13:00:00 23.42 C 7.49 g/m*3 23.42 C 0 km/h
423 28-08-2008 14:00:00 23.34 C 7.75 g/m*3 23.34 C 0 km/h
424 28-08-2008 15:00:00 23.82 C 7.71 g/m*3 23.82 C 0 km/h
425 28-08-2008 16:00:00 23.08 C 8.01 g/m*3 23.08 C 0 km/h
Sensor: Nr:Datum:Temp:Abs-Feuchte:Windchill:Wind:
Aussen-T/F 426 28-08-2008 17:00:00 22.46 C 8.05 g/m*3 22.46 C 0 km/h
427 28-08-2008 18:00:00 21.84 C 8.19 g/m*3 21.84 C 0 km/h
428 28-08-2008 19:00:00 21.42 C 8.6 g/m*3 21.42 C 0 km/h
429 28-08-2008 20:00:00 20.46 C 9.2 g/m*3 20.46 C 0 km/h
430 28-08-2008 21:00:00 19.9 C 9.38 g/m*3 19.9 C 0 km/h
431 28-08-2008 22:00:00 19.34 C 9.74 g/m*3 19.34 C 0 km/h
432 28-08-2008 23:00:00 19.14 C 9.89 g/m*3 19.14 C 0 km/h
433 29-08-2008 00:00:00 18.9 C 10.01 g/m*3 18.9 C 0 km/h
434 29-08-2008 01:00:00 18.72 C 9.87 g/m*3 18.72 C 0 km/h
435 29-08-2008 02:00:00 18.5 C 9.65 g/m*3 18.5 C 0 km/h
436 29-08-2008 03:00:00 18.24 C 9.69 g/m*3 18.24 C 0 km/h
437 29-08-2008 04:00:00 18.1 C 9.46 g/m*3 18.1 C 0 km/h
438 29-08-2008 05:00:00 17.94 C 9.31 g/m*3 17.94 C 0 km/h
439 29-08-2008 06:00:00 17.8 C 9.41 g/m*3 17.8 C 0 km/h
440 29-08-2008 07:00:00 17.84 C 9.55 g/m*3 17.84 C 0 km/h
441 29-08-2008 08:00:00 18.08 C 9.54 g/m*3 18.08 C 0 km/h
442 29-08-2008 09:00:00 18.54 C 9.8 g/m*3 18.54 C 0 km/h
443 29-08-2008 10:00:00 19.92 C 9.39 g/m*3 19.92 C 0 km/h
444 29-08-2008 11:00:00 20.74 C 9.38 g/m*3 20.74 C 0 km/h
445 29-08-2008 12:00:00 21.54 C 9.41 g/m*3 21.54 C 0 km/h
446 29-08-2008 13:00:00 23.36 C 8.85 g/m*3 23.36 C 0 km/h
447 29-08-2008 14:00:00 24.14 C 8.95 g/m*3 24.14 C 0 km/h
448 29-08-2008 15:00:00 24.76 C 8.63 g/m*3 24.76 C 0 km/h
449 29-08-2008 16:00:00 25.3 C 8.71 g/m*3 25.3 C 0 km/h
450 29-08-2008 17:00:00 27.22 C 8.6 g/m*3 27.22 C 0 km/h
Sensor: Nr:Datum:Temp:Abs-Feuchte:Windchill:Wind:
Aussen-T/F 451 29-08-2008 18:00:00 27.74 C 8.63 g/m*3 27.74 C 0 km/h
452 29-08-2008 19:00:00 24.98 C 9.06 g/m*3 24.98 C 0 km/h
453 29-08-2008 20:00:00 21.52 C 10.01 g/m*3 21.52 C 0 km/h
454 29-08-2008 21:00:00 19.38 C 10.43 g/m*3 19.38 C 0 km/h
455 29-08-2008 22:00:00 18.7 C 10.77 g/m*3 18.7 C 0 km/h
456 29-08-2008 23:00:00 17.88 C 10.92 g/m*3 17.88 C 0 km/h
457 30-08-2008 00:00:00 16.92 C 10.92 g/m*3 16.92 C 0 km/h
458 30-08-2008 01:00:00 16.18 C 10.85 g/m*3 16.18 C 0 km/h
459 30-08-2008 02:00:00 15.54 C 10.68 g/m*3 15.54 C 0 km/h
460 30-08-2008 03:00:00 14.9 C 10.45 g/m*3 14.9 C 0 km/h
461 30-08-2008 04:00:00 14.44 C 10.29 g/m*3 14.44 C 0 km/h
462 30-08-2008 05:00:00 14.4 C 10.41 g/m*3 14.4 C 0 km/h
463 30-08-2008 06:00:00 14.38 C 10.64 g/m*3 14.38 C 0 km/h
464 30-08-2008 07:00:00 14.8 C 11.05 g/m*3 14.8 C 0 km/h
465 30-08-2008 08:00:00 15.52 C 11.04 g/m*3 15.52 C 0 km/h
466 30-08-2008 09:00:00 16.44 C 11.16 g/m*3 16.44 C 0 km/h
467 30-08-2008 10:00:00 17.98 C 11.66 g/m*3 17.98 C 0 km/h
468 30-08-2008 11:00:00 20.7 C 11.23 g/m*3 20.7 C 0 km/h
469 30-08-2008 12:00:00 23.34 C 10.6 g/m*3 23.34 C 0 km/h
470 30-08-2008 13:00:00 25.52 C 9.81 g/m*3 25.52 C 0 km/h
471 30-08-2008 14:00:00 28.24 C 9.31 g/m*3 28.24 C 0 km/h
472 30-08-2008 15:00:00 30.28 C 8.62 g/m*3 30.28 C 0 km/h
473 30-08-2008 16:00:00 31.38 C 7.84 g/m*3 31.38 C 0 km/h
474 30-08-2008 17:00:00 31.88 C 7.04 g/m*3 31.88 C 0 km/h
475 30-08-2008 18:00:00 32 C 6.89 g/m*3 32 C 0 km/h
Sensor: Nr:Datum:Temp:Abs-Feuchte:Windchill:Wind:
Aussen-T/F 476 30-08-2008 19:00:00 30.04 C 8.14 g/m*3 30.04 C 0 km/h
477 30-08-2008 20:00:00 24.5 C 9.09 g/m*3 24.5 C 0 km/h
478 30-08-2008 21:00:00 22.22 C 9.63 g/m*3 22.22 C 0 km/h
479 30-08-2008 22:00:00 20.94 C 9.75 g/m*3 20.94 C 0 km/h
480 30-08-2008 23:00:00 19.9 C 9.69 g/m*3 19.9 C 0 km/h
481 31-08-2008 00:00:00 18.82 C 9.8 g/m*3 18.82 C 0 km/h
482 31-08-2008 01:00:00 17.88 C 9.79 g/m*3 17.88 C 0 km/h
483 31-08-2008 02:00:00 16.96 C 10.13 g/m*3 16.96 C 0 km/h
484 31-08-2008 03:00:00 16.04 C 9.83 g/m*3 16.04 C 0 km/h
485 31-08-2008 04:00:00 15.38 C 10.03 g/m*3 15.38 C 0 km/h
486 31-08-2008 05:00:00 14.68 C 9.71 g/m*3 14.68 C 0 km/h
487 31-08-2008 06:00:00 14.1 C 9.47 g/m*3 14.1 C 0 km/h
488 31-08-2008 07:00:00 14.02 C 9.61 g/m*3 14.02 C 0 km/h
489 31-08-2008 08:00:00 14.48 C 9.84 g/m*3 14.48 C 0 km/h
490 31-08-2008 09:00:00 15.96 C 10.22 g/m*3 15.96 C 0 km/h
491 31-08-2008 10:00:00 18.88 C 10.03 g/m*3 18.88 C 0 km/h
492 31-08-2008 11:00:00 22.1 C 9.88 g/m*3 22.1 C 0 km/h
493 31-08-2008 12:00:00 25.18 C 8.65 g/m*3 25.18 C 0 km/h
494 31-08-2008 13:00:00 27.14 C 8.3 g/m*3 27.14 C 0 km/h
495 31-08-2008 14:00:00 29.5 C 8.5 g/m*3 29.5 C 0 km/h
496 31-08-2008 15:00:00 30.98 C 7.86 g/m*3 30.98 C 0 km/h
497 31-08-2008 16:00:00 31.92 C 7.46 g/m*3 31.92 C 0 km/h
498 31-08-2008 17:00:00 31.62 C 8.07 g/m*3 31.62 C 0 km/h
499 31-08-2008 18:00:00 32.22 C 7.79 g/m*3 32.22 C 0 km/h
500 31-08-2008 19:00:00 30.08 C 9.56 g/m*3 30.08 C 0 km/h
Sensor: Nr:Datum:Temp:Abs-Feuchte:Windchill:Wind:
Aussen-T/F 501 31-08-2008 20:00:00 25.74 C 10.61 g/m*3 25.74 C 0 km/h
502 31-08-2008 21:00:00 24.5 C 11.28 g/m*3 24.5 C 0 km/h
503 31-08-2008 22:00:00 23.42 C 11.7 g/m*3 23.42 C 0 km/h
504 31-08-2008 23:00:00 22.62 C 11.87 g/m*3 22.62 C 0 km/h
505 01-09-2008 00:00:00 22.08 C 11.97 g/m*3 22.08 C 0 km/h
506 01-09-2008 01:00:00 21.84 C 12.04 g/m*3 21.84 C 0 km/h
507 01-09-2008 02:00:00 21.42 C 12.16 g/m*3 21.42 C 0 km/h
508 01-09-2008 03:00:00 20.8 C 11.84 g/m*3 20.8 C 0 km/h
509 01-09-2008 04:00:00 20.68 C 11.72 g/m*3 20.68 C 0 km/h
510 01-09-2008 05:00:00 19.24 C 12.89 g/m*3 19.24 C 0 km/h
511 01-09-2008 06:00:00 19.14 C 13.28 g/m*3 19.14 C 0 km/h
512 01-09-2008 07:00:00 18.74 C 13.61 g/m*3 18.74 C 0 km/h
513 01-09-2008 08:00:00 19.12 C 13.36 g/m*3 19.12 C 0 km/h
514 01-09-2008 09:00:00 19.98 C 13.12 g/m*3 19.98 C 0 km/h
515 01-09-2008 10:00:00 21.42 C 11.71 g/m*3 21.42 C 0 km/h
516 01-09-2008 11:00:00 22.42 C 10.46 g/m*3 22.42 C 0 km/h
517 01-09-2008 12:00:00 21.9 C 9.8 g/m*3 21.9 C 0 km/h
518 01-09-2008 13:00:00 23.36 C 8.98 g/m*3 23.36 C 0 km/h
519 01-09-2008 14:00:00 24.4 C 7.43 g/m*3 24.4 C 0 km/h
520 01-09-2008 15:00:00 23.56 C 7.6 g/m*3 23.56 C 0 km/h
521 01-09-2008 16:00:00 23.32 C 7.08 g/m*3 23.32 C 0 km/h
522 01-09-2008 17:00:00 22.9 C 6.95 g/m*3 22.9 C 0 km/h
523 01-09-2008 18:00:00 22.34 C 7.01 g/m*3 22.34 C 0 km/h
524 01-09-2008 19:00:00 21.18 C 7.55 g/m*3 21.18 C 0 km/h
525 01-09-2008 20:00:00 19.58 C 8.06 g/m*3 19.58 C 0 km/h
Sensor: Nr:Datum:Temp:Abs-Feuchte:Windchill:Wind:
Aussen-T/F 526 01-09-2008 21:00:00 18.6 C 8.4 g/m*3 18.6 C 0 km/h
527 01-09-2008 22:00:00 17.54 C 8.64 g/m*3 17.54 C 0 km/h
528 01-09-2008 23:00:00 16.98 C 8.93 g/m*3 16.98 C 0 km/h
529 02-09-2008 00:00:00 16.58 C 9.17 g/m*3 16.58 C 0 km/h
530 02-09-2008 01:00:00 15.78 C 9.44 g/m*3 15.78 C 0 km/h
531 02-09-2008 02:00:00 15.14 C 9.39 g/m*3 15.14 C 0 km/h
532 02-09-2008 03:00:00 14.14 C 9.37 g/m*3 14.14 C 0 km/h
533 02-09-2008 04:00:00 13.72 C 9.41 g/m*3 13.72 C 0 km/h
534 02-09-2008 05:00:00 13.24 C 9.37 g/m*3 13.24 C 0 km/h
535 02-09-2008 06:00:00 12.64 C 9.25 g/m*3 12.64 C 0 km/h
536 02-09-2008 07:00:00 12.52 C 9.25 g/m*3 12.52 C 0 km/h
537 02-09-2008 08:00:00 13.88 C 9.89 g/m*3 13.88 C 0 km/h
538 02-09-2008 09:00:00 15.68 C 9.86 g/m*3 15.68 C 0 km/h
539 02-09-2008 10:00:00 18.64 C 10.02 g/m*3 18.64 C 0 km/h
540 02-09-2008 11:00:00 20.92 C 9.15 g/m*3 20.92 C 0 km/h
541 02-09-2008 12:00:00 22.6 C 8.52 g/m*3 22.6 C 0 km/h
542 02-09-2008 13:00:00 23.56 C 7.68 g/m*3 23.56 C 0 km/h
543 02-09-2008 14:00:00 24.88 C 7.36 g/m*3 24.88 C 0 km/h
544 02-09-2008 15:00:00 25.26 C 7.29 g/m*3 25.26 C 0 km/h
545 02-09-2008 16:00:00 24.48 C 7.15 g/m*3 24.48 C 0 km/h
546 02-09-2008 17:00:00 24.4 C 7.48 g/m*3 24.4 C 0 km/h
547 02-09-2008 18:00:00 23.92 C 7.93 g/m*3 23.92 C 0 km/h
548 02-09-2008 19:00:00 23.24 C 8.08 g/m*3 23.24 C 0 km/h
549 02-09-2008 20:00:00 21.96 C 8.37 g/m*3 21.96 C 0 km/h
550 02-09-2008 21:00:00 21.08 C 8.83 g/m*3 21.08 C 0 km/h
Sensor: Nr:Datum:Temp:Abs-Feuchte:Windchill:Wind:
Aussen-T/F 551 02-09-2008 22:00:00 20.24 C 9.08 g/m*3 20.24 C 0 km/h
552 02-09-2008 23:00:00 20.22 C 9.35 g/m*3 20.22 C 0 km/h
553 03-09-2008 00:00:00 19.66 C 10.4 g/m*3 19.66 C 0 km/h
554 03-09-2008 01:00:00 18.26 C 12.45 g/m*3 18.26 C 0 km/h
555 03-09-2008 02:00:00 18.4 C 11.99 g/m*3 18.4 C 0 km/h
556 03-09-2008 03:00:00 18.02 C 12.03 g/m*3 18.02 C 0 km/h
557 03-09-2008 04:00:00 16.28 C 12.33 g/m*3 16.28 C 0 km/h
558 03-09-2008 05:00:00 15.82 C 12.37 g/m*3 15.82 C 0 km/h
559 03-09-2008 06:00:00 15.5 C 12.29 g/m*3 15.5 C 0 km/h
560 03-09-2008 07:00:00 14.88 C 11.58 g/m*3 14.88 C 0 km/h
561 03-09-2008 08:00:00 15.08 C 10.44 g/m*3 15.08 C 0 km/h
562 03-09-2008 09:00:00 15.9 C 9.97 g/m*3 15.9 C 0 km/h
563 03-09-2008 10:00:00 16.42 C 9.14 g/m*3 16.42 C 0 km/h
564 03-09-2008 11:00:00 16.66 C 8.85 g/m*3 16.66 C 0 km/h
565 03-09-2008 12:00:00 17.06 C 9 g/m*3 17.06 C 0 km/h
566 03-09-2008 13:00:00 17.06 C 8.57 g/m*3 17.06 C 0 km/h
567 03-09-2008 14:00:00 14.28 C 9.87 g/m*3 14.28 C 0 km/h
568 03-09-2008 15:00:00 13.8 C 10.15 g/m*3 13.8 C 0 km/h
569 03-09-2008 16:00:00 13.78 C 10.31 g/m*3 13.78 C 0 km/h
570 03-09-2008 17:00:00 13.82 C 10.52 g/m*3 13.82 C 0 km/h
571 03-09-2008 18:00:00 13.64 C 10.5 g/m*3 13.64 C 0 km/h
572 03-09-2008 19:00:00 12.92 C 9.98 g/m*3 12.92 C 0 km/h
573 03-09-2008 20:00:00 12.56 C 9.62 g/m*3 12.56 C 0 km/h
574 03-09-2008 21:00:00 12.18 C 9.25 g/m*3 12.18 C 0 km/h
575 03-09-2008 22:00:00 11.72 C 8.86 g/m*3 11.72 C 0 km/h
Sensor: Nr:Datum:Temp:Abs-Feuchte:Windchill:Wind:
Aussen-T/F 576 03-09-2008 23:00:00 11.36 C 8.76 g/m*3 11.36 C 0 km/h
577 04-09-2008 00:00:00 10.92 C 8.45 g/m*3 10.92 C 0 km/h
578 04-09-2008 01:00:00 10.14 C 8.3 g/m*3 10.14 C 0 km/h
579 04-09-2008 02:00:00 10.24 C 8.34 g/m*3 10.24 C 0 km/h
580 04-09-2008 03:00:00 9.54 C 8.16 g/m*3 9.54 C 0 km/h
581 04-09-2008 04:00:00 9.34 C 8.11 g/m*3 9.34 C 0 km/h
582 04-09-2008 05:00:00 9.08 C 8.08 g/m*3 9.08 C 0 km/h
583 04-09-2008 06:00:00 8.64 C 7.94 g/m*3 8.64 C 0 km/h
584 04-09-2008 07:00:00 9.36 C 8.28 g/m*3 9.36 C 0 km/h
585 04-09-2008 08:00:00 9.94 C 8.44 g/m*3 9.94 C 0 km/h
586 04-09-2008 09:00:00 11.44 C 8.89 g/m*3 11.44 C 0 km/h
587 04-09-2008 10:00:00 14.3 C 8.21 g/m*3 14.3 C 0 km/h
588 04-09-2008 11:00:00 14.9 C 7.65 g/m*3 14.9 C 0 km/h
589 04-09-2008 12:00:00 16.62 C 7.52 g/m*3 16.62 C 0 km/h
590 04-09-2008 13:00:00 17.54 C 7.2 g/m*3 17.54 C 0 km/h
591 04-09-2008 14:00:00 17.16 C 6.66 g/m*3 17.16 C 0 km/h
592 04-09-2008 15:00:00 17.9 C 6.63 g/m*3 17.9 C 0 km/h
593 04-09-2008 16:00:00 19.1 C 6.2 g/m*3 19.1 C 0 km/h
594 04-09-2008 17:00:00 19.7 C 5.84 g/m*3 19.7 C 0 km/h
595 04-09-2008 18:00:00 18.66 C 6.04 g/m*3 18.66 C 0 km/h
596 04-09-2008 19:00:00 16.88 C 6.64 g/m*3 16.88 C 0 km/h
597 04-09-2008 20:00:00 14.94 C 7.33 g/m*3 14.94 C 0 km/h
598 04-09-2008 21:00:00 14.5 C 7.01 g/m*3 14.5 C 0 km/h
599 04-09-2008 22:00:00 14.18 C 7.56 g/m*3 14.18 C 0 km/h
600 04-09-2008 23:00:00 13.84 C 8.24 g/m*3 13.84 C 0 km/h
Sensor: Nr:Datum:Temp:Abs-Feuchte:Windchill:Wind:
Aussen-T/F 601 05-09-2008 00:00:00 13.6 C 8.4 g/m*3 13.6 C 0 km/h
602 05-09-2008 01:00:00 13.24 C 8.93 g/m*3 13.24 C 0 km/h
603 05-09-2008 02:00:00 13.18 C 8.9 g/m*3 13.18 C 0 km/h
604 05-09-2008 03:00:00 12.84 C 9.3 g/m*3 12.84 C 0 km/h
605 05-09-2008 04:00:00 12.48 C 9.36 g/m*3 12.48 C 0 km/h
606 05-09-2008 05:00:00 12.24 C 9.33 g/m*3 12.24 C 0 km/h
607 05-09-2008 06:00:00 12.6 C 9.4 g/m*3 12.6 C 0 km/h
608 05-09-2008 07:00:00 13.18 C 9.5 g/m*3 13.18 C 0 km/h
609 05-09-2008 08:00:00 13.48 C 9.58 g/m*3 13.48 C 0 km/h
610 05-09-2008 09:00:00 15.08 C 10.1 g/m*3 15.08 C 0 km/h
611 05-09-2008 10:00:00 17.48 C 9.77 g/m*3 17.48 C 0 km/h
612 05-09-2008 11:00:00 18.86 C 9.6 g/m*3 18.86 C 0 km/h
613 05-09-2008 12:00:00 20.74 C 9.56 g/m*3 20.74 C 0 km/h
614 05-09-2008 13:00:00 22.04 C 9.69 g/m*3 22.04 C 0 km/h
615 05-09-2008 14:00:00 22.02 C 9.95 g/m*3 22.02 C 0 km/h
616 05-09-2008 15:00:00 20.92 C 10.47 g/m*3 20.92 C 0 km/h
617 05-09-2008 16:00:00 22.1 C 10.54 g/m*3 22.1 C 0 km/h
618 05-09-2008 17:00:00 21.9 C 10.69 g/m*3 21.9 C 0 km/h
619 05-09-2008 18:00:00 21.52 C 10.87 g/m*3 21.52 C 0 km/h
620 05-09-2008 19:00:00 20.02 C 11.66 g/m*3 20.02 C 0 km/h
621 05-09-2008 20:00:00 16.98 C 12.57 g/m*3 16.98 C 0 km/h
622 05-09-2008 21:00:00 16.98 C 13.15 g/m*3 16.98 C 0 km/h
623 05-09-2008 22:00:00 17.14 C 13.51 g/m*3 17.14 C 0 km/h
624 05-09-2008 23:00:00 16.84 C 13.44 g/m*3 16.84 C 0 km/h
625 06-09-2008 00:00:00 16.42 C 13.16 g/m*3 16.42 C 0 km/h
Sensor: Nr:Datum:Temp:Abs-Feuchte:Windchill:Wind:
Aussen-T/F 626 06-09-2008 01:00:00 15.86 C 12.78 g/m*3 15.86 C 0 km/h
627 06-09-2008 02:00:00 15.68 C 12.7 g/m*3 15.68 C 0 km/h
628 06-09-2008 03:00:00 15.58 C 12.51 g/m*3 15.58 C 0 km/h
629 06-09-2008 04:00:00 15.4 C 12.48 g/m*3 15.4 C 0 km/h
630 06-09-2008 05:00:00 15.28 C 12.39 g/m*3 15.28 C 0 km/h
631 06-09-2008 06:00:00 15.72 C 12.73 g/m*3 15.72 C 0 km/h
632 06-09-2008 07:00:00 16 C 12.75 g/m*3 16 C 0 km/h
633 06-09-2008 08:00:00 16.66 C 12.39 g/m*3 16.66 C 0 km/h
634 06-09-2008 09:00:00 18.3 C 11.98 g/m*3 18.3 C 0 km/h
635 06-09-2008 10:00:00 19.92 C 10.87 g/m*3 19.92 C 0 km/h
636 06-09-2008 11:00:00 21.04 C 10.43 g/m*3 21.04 C 0 km/h
637 06-09-2008 12:00:00 21.02 C 10.12 g/m*3 21.02 C 0 km/h
638 06-09-2008 13:00:00 20.78 C 9.73 g/m*3 20.78 C 0 km/h
639 06-09-2008 14:00:00 20.14 C 9.62 g/m*3 20.14 C 0 km/h
640 06-09-2008 15:00:00 19.72 C 8.23 g/m*3 19.72 C 0 km/h
641 06-09-2008 16:00:00 19.28 C 8.91 g/m*3 19.28 C 0 km/h
642 06-09-2008 17:00:00 18.22 C 10.74 g/m*3 18.22 C 0 km/h
643 06-09-2008 18:00:00 18.34 C 10.81 g/m*3 18.34 C 0 km/h
644 06-09-2008 19:00:00 17.6 C 10.95 g/m*3 17.6 C 0 km/h
645 06-09-2008 20:00:00 16.96 C 10.86 g/m*3 16.96 C 0 km/h
646 06-09-2008 21:00:00 16.38 C 10.34 g/m*3 16.38 C 0 km/h
647 06-09-2008 22:00:00 15.72 C 10.53 g/m*3 15.72 C 0 km/h
648 06-09-2008 23:00:00 15.48 C 10.46 g/m*3 15.48 C 0 km/h
649 07-09-2008 00:00:00 15.26 C 10.27 g/m*3 15.26 C 0 km/h
650 07-09-2008 01:00:00 15.26 C 10.16 g/m*3 15.26 C 0 km/h
Sensor: Nr:Datum:Temp:Abs-Feuchte:Windchill:Wind:
Aussen-T/F 651 07-09-2008 02:00:00 15.08 C 9.9 g/m*3 15.08 C 0 km/h
652 07-09-2008 03:00:00 14.3 C 9.63 g/m*3 14.3 C 0 km/h
653 07-09-2008 04:00:00 14.06 C 9.56 g/m*3 14.06 C 0 km/h
654 07-09-2008 05:00:00 13.48 C 9.46 g/m*3 13.48 C 0 km/h
655 07-09-2008 06:00:00 13.32 C 9.49 g/m*3 13.32 C 0 km/h
656 07-09-2008 07:00:00 13.96 C 9.14 g/m*3 13.96 C 0 km/h
657 07-09-2008 08:00:00 14.68 C 9.18 g/m*3 14.68 C 0 km/h
658 07-09-2008 09:00:00 16.04 C 8.66 g/m*3 16.04 C 0 km/h
659 07-09-2008 10:00:00 17.84 C 8.37 g/m*3 17.84 C 0 km/h
660 07-09-2008 11:00:00 17.54 C 8.43 g/m*3 17.54 C 0 km/h
661 07-09-2008 12:00:00 18.82 C 8.13 g/m*3 18.82 C 0 km/h
662 07-09-2008 13:00:00 19.62 C 8.32 g/m*3 19.62 C 0 km/h
663 07-09-2008 14:00:00 20.32 C 8.17 g/m*3 20.32 C 0 km/h
664 07-09-2008 15:00:00 19.54 C 8.58 g/m*3 19.54 C 0 km/h
665 07-09-2008 16:00:00 18.22 C 10.92 g/m*3 18.22 C 0 km/h
666 07-09-2008 17:00:00 19.94 C 9.27 g/m*3 19.94 C 0 km/h
667 07-09-2008 18:00:00 21.14 C 8.53 g/m*3 21.14 C 0 km/h
668 07-09-2008 19:00:00 19.12 C 8.8 g/m*3 19.12 C 0 km/h
669 07-09-2008 20:00:00 17.8 C 9.14 g/m*3 17.8 C 0 km/h
670 07-09-2008 21:00:00 16.78 C 9.22 g/m*3 16.78 C 0 km/h
671 07-09-2008 22:00:00 16.12 C 9.5 g/m*3 16.12 C 0 km/h
672 07-09-2008 23:00:00 15.82 C 9.6 g/m*3 15.82 C 0 km/h
673 08-09-2008 00:00:00 15.64 C 9.47 g/m*3 15.64 C 0 km/h
674 08-09-2008 01:00:00 15.38 C 9.4 g/m*3 15.38 C 0 km/h
675 08-09-2008 02:00:00 14.94 C 9.48 g/m*3 14.94 C 0 km/h
Sensor: Nr:Datum:Temp:Abs-Feuchte:Windchill:Wind:
Aussen-T/F 676 08-09-2008 03:00:00 14.28 C 9.35 g/m*3 14.28 C 0 km/h
677 08-09-2008 04:00:00 14.34 C 9.41 g/m*3 14.34 C 0 km/h
678 08-09-2008 05:00:00 14.1 C 8.98 g/m*3 14.1 C 0 km/h
679 08-09-2008 06:00:00 13.12 C 9 g/m*3 13.12 C 0 km/h
680 08-09-2008 07:00:00 13.32 C 9.44 g/m*3 13.32 C 0 km/h
681 08-09-2008 08:00:00 14.66 C 9.57 g/m*3 14.66 C 0 km/h
682 08-09-2008 09:00:00 15.58 C 9.4 g/m*3 15.58 C 0 km/h
683 08-09-2008 10:00:00 16.84 C 8.89 g/m*3 16.84 C 0 km/h
684 08-09-2008 11:00:00 17.88 C 8.33 g/m*3 17.88 C 0 km/h
685 08-09-2008 12:00:00 19.48 C 7.68 g/m*3 19.48 C 0 km/h
686 08-09-2008 13:00:00 20.86 C 7.41 g/m*3 20.86 C 0 km/h
687 08-09-2008 14:00:00 22.26 C 6.82 g/m*3 22.26 C 0 km/h
688 08-09-2008 15:00:00 23.425 C 6.48 g/m*3 23.43 C 0 km/h
689 08-09-2008 16:00:00 23.92 C 6.19 g/m*3 23.92 C 0 km/h
690 08-09-2008 17:00:00 23.75 C 5.9 g/m*3 23.75 C 0 km/h
691 08-09-2008 18:00:00 23.20833 C 6.45 g/m*3 23.21 C 0 km/h
692 08-09-2008 19:00:00 21.5 C 7.28 g/m*3 21.5 C 0 km/h
693 08-09-2008 20:00:00 18.23333 C 7.59 g/m*3 18.23 C 0 km/h
694 08-09-2008 21:00:00 16.89167 C 8.05 g/m*3 16.89 C 0 km/h
695 08-09-2008 22:00:00 15.50833 C 8.22 g/m*3 15.51 C 0 km/h
696 08-09-2008 23:00:00 14.61667 C 8.38 g/m*3 14.62 C 0 km/h
697 09-09-2008 00:00:00 13.55 C 8.53 g/m*3 13.55 C 0 km/h
698 09-09-2008 01:00:00 12.70833 C 8.5 g/m*3 12.71 C 0 km/h
699 09-09-2008 02:00:00 12.10833 C 8.49 g/m*3 12.11 C 0 km/h
700 09-09-2008 03:00:00 11.46667 C 8.37 g/m*3 11.47 C 0 km/h
Sensor: Nr:Datum:Temp:Abs-Feuchte:Windchill:Wind:
Aussen-T/F 701 09-09-2008 04:00:00 10.99167 C 8.25 g/m*3 10.99 C 0 km/h
702 09-09-2008 05:00:00 10.41667 C 8.02 g/m*3 10.42 C 0 km/h
703 09-09-2008 06:00:00 10.05833 C 8 g/m*3 10.06 C 0 km/h
704 09-09-2008 07:00:00 10.13333 C 8.17 g/m*3 10.13 C 0 km/h
705 09-09-2008 08:00:00 10.53333 C 8.42 g/m*3 10.53 C 0 km/h
706 09-09-2008 09:00:00 11.91667 C 8.71 g/m*3 11.92 C 0 km/h
707 09-09-2008 10:00:00 12.96667 C 9.11 g/m*3 12.97 C 0 km/h
708 09-09-2008 11:00:00 16.43333 C 10.17 g/m*3 16.43 C 0 km/h
709 09-09-2008 12:00:00 20.125 C 10.42 g/m*3 20.13 C 0 km/h
710 09-09-2008 13:00:00 23.60833 C 8.39 g/m*3 23.61 C 0 km/h
711 09-09-2008 14:00:00 26.38333 C 7.07 g/m*3 26.38 C 0 km/h
712 09-09-2008 15:00:00 28.06667 C 6.19 g/m*3 28.07 C 0 km/h
713 09-09-2008 16:00:00 29.75833 C 6.34 g/m*3 29.76 C 0 km/h
714 09-09-2008 17:00:00 30 C 6.09 g/m*3 30 C 0 km/h
715 09-09-2008 18:00:00 29.025 C 6.38 g/m*3 29.03 C 0 km/h
716 09-09-2008 19:00:00 24.125 C 7.05 g/m*3 24.13 C 0 km/h
717 09-09-2008 20:00:00 20.9 C 7.35 g/m*3 20.9 C 0 km/h
718 09-09-2008 21:00:00 19.9 C 7.87 g/m*3 19.9 C 0 km/h
719 09-09-2008 22:00:00 19.94167 C 8.38 g/m*3 19.94 C 0 km/h
720 09-09-2008 23:00:00 19.76667 C 9.02 g/m*3 19.77 C 0 km/h
721 10-09-2008 00:00:00 19.1 C 9.54 g/m*3 19.1 C 0 km/h
722 10-09-2008 01:00:00 18.125 C 9.76 g/m*3 18.13 C 0 km/h
723 10-09-2008 02:00:00 17.50833 C 9.63 g/m*3 17.51 C 0 km/h
724 10-09-2008 03:00:00 16.5 C 9.76 g/m*3 16.5 C 0 km/h
725 10-09-2008 04:00:00 15.825 C 10.02 g/m*3 15.83 C 0 km/h
Sensor: Nr:Datum:Temp:Abs-Feuchte:Windchill:Wind:
Aussen-T/F 726 10-09-2008 05:00:00 15.66667 C 10.56 g/m*3 15.67 C 0 km/h
727 10-09-2008 06:00:00 15.84167 C 10.68 g/m*3 15.84 C 0 km/h
728 10-09-2008 07:00:00 16.08333 C 10.94 g/m*3 16.08 C 0 km/h
729 10-09-2008 08:00:00 17.375 C 10.89 g/m*3 17.38 C 0 km/h
730 10-09-2008 09:00:00 18.6 C 11.1 g/m*3 18.6 C 0 km/h
731 10-09-2008 10:00:00 21.175 C 11.15 g/m*3 21.18 C 0 km/h
732 10-09-2008 11:00:00 22.3 C 11.16 g/m*3 22.3 C 0 km/h
733 10-09-2008 12:00:00 23.56667 C 11.11 g/m*3 23.57 C 0 km/h
734 10-09-2008 13:00:00 24.71667 C 10.67 g/m*3 24.72 C 0 km/h
735 10-09-2008 14:00:00 25.75833 C 9.99 g/m*3 25.76 C 0 km/h
736 10-09-2008 15:00:00 26.96667 C 9.38 g/m*3 26.97 C 0 km/h
737 10-09-2008 16:00:00 27.44167 C 9.12 g/m*3 27.44 C 0 km/h
738 10-09-2008 17:00:00 27.8 C 8.79 g/m*3 27.8 C 0 km/h
739 10-09-2008 18:00:00 27.48333 C 8.99 g/m*3 27.48 C 0 km/h
740 10-09-2008 19:00:00 25.26667 C 9.56 g/m*3 25.27 C 0 km/h
741 10-09-2008 20:00:00 22.40833 C 10.6 g/m*3 22.41 C 0 km/h
742 10-09-2008 21:00:00 21.01667 C 11.17 g/m*3 21.02 C 0 km/h
743 10-09-2008 22:00:00 20.275 C 11.24 g/m*3 20.27 C 0 km/h
744 10-09-2008 23:00:00 19.65833 C 11.84 g/m*3 19.66 C 0 km/h
745 11-09-2008 00:00:00 18.65 C 12.01 g/m*3 18.65 C 0 km/h
746 11-09-2008 01:00:00 17.45833 C 11.6 g/m*3 17.46 C 0 km/h
747 11-09-2008 02:00:00 16.58333 C 11.41 g/m*3 16.58 C 0 km/h
748 11-09-2008 03:00:00 15.94167 C 11.08 g/m*3 15.94 C 0 km/h
749 11-09-2008 04:00:00 15.4 C 10.9 g/m*3 15.4 C 0 km/h
750 11-09-2008 05:00:00 15.51667 C 11.1 g/m*3 15.52 C 0 km/h
Sensor: Nr:Datum:Temp:Abs-Feuchte:Windchill:Wind:
Aussen-T/F 751 11-09-2008 06:00:00 15.225 C 11 g/m*3 15.23 C 0 km/h
752 11-09-2008 07:00:00 15.48333 C 11.28 g/m*3 15.48 C 0 km/h
753 11-09-2008 08:00:00 16.21667 C 11.68 g/m*3 16.22 C 0 km/h
754 11-09-2008 09:00:00 17.45 C 12.05 g/m*3 17.45 C 0 km/h
755 11-09-2008 10:00:00 19.45833 C 12.08 g/m*3 19.46 C 0 km/h
756 11-09-2008 11:00:00 20.94167 C 11.81 g/m*3 20.94 C 0 km/h
757 11-09-2008 12:00:00 22.11667 C 12.18 g/m*3 22.12 C 0 km/h
758 11-09-2008 13:00:00 25.21667 C 11.98 g/m*3 25.22 C 0 km/h
759 11-09-2008 14:00:00 27.94167 C 11.27 g/m*3 27.94 C 0 km/h
760 11-09-2008 15:00:00 29.03333 C 10.05 g/m*3 29.03 C 0 km/h
761 11-09-2008 16:00:00 26.6 C 10.91 g/m*3 26.6 C 0 km/h
762 11-09-2008 17:00:00 24.04167 C 12.23 g/m*3 24.04 C 0 km/h
763 11-09-2008 18:00:00 21.51667 C 15.19 g/m*3 21.52 C 0 km/h
764 11-09-2008 19:00:00 21.40833 C 14.93 g/m*3 21.41 C 0 km/h
765 11-09-2008 20:00:00 20.025 C 14.31 g/m*3 20.02 C 0 km/h
766 11-09-2008 21:00:00 19.36667 C 14.04 g/m*3 19.37 C 0 km/h
767 11-09-2008 22:00:00 18.80833 C 13.86 g/m*3 18.81 C 0 km/h
768 11-09-2008 23:00:00 18.275 C 13.6 g/m*3 18.27 C 0 km/h
769 12-09-2008 00:00:00 18.09167 C 13.59 g/m*3 18.09 C 0 km/h
770 12-09-2008 01:00:00 18.21667 C 13.59 g/m*3 18.22 C 0 km/h
771 12-09-2008 02:00:00 18.28333 C 13.43 g/m*3 18.28 C 0 km/h
772 12-09-2008 03:00:00 18.01667 C 13.47 g/m*3 18.02 C 0 km/h
773 12-09-2008 04:00:00 17.79167 C 13.51 g/m*3 17.79 C 0 km/h
774 12-09-2008 05:00:00 17.46667 C 13.3 g/m*3 17.47 C 0 km/h
775 12-09-2008 06:00:00 17.29167 C 13.23 g/m*3 17.29 C 0 km/h
Sensor: Nr:Datum:Temp:Abs-Feuchte:Windchill:Wind:
Aussen-T/F 776 12-09-2008 07:00:00 16.9 C 12.9 g/m*3 16.9 C 0 km/h
777 12-09-2008 08:00:00 17.2 C 12.94 g/m*3 17.2 C 0 km/h
778 12-09-2008 09:00:00 17.03333 C 12.98 g/m*3 17.03 C 0 km/h
779 12-09-2008 10:00:00 17.54167 C 13.56 g/m*3 17.54 C 0 km/h
780 12-09-2008 11:00:00 17.64167 C 13.74 g/m*3 17.64 C 0 km/h
781 12-09-2008 12:00:00 17.85 C 13.97 g/m*3 17.85 C 0 km/h
782 12-09-2008 13:00:00 18.01667 C 14.07 g/m*3 18.02 C 0 km/h
783 12-09-2008 14:00:00 17.39167 C 13.62 g/m*3 17.39 C 0 km/h
784 12-09-2008 15:00:00 15.89167 C 12.51 g/m*3 15.89 C 0 km/h
785 12-09-2008 16:00:00 15.78333 C 12.56 g/m*3 15.78 C 0 km/h
786 12-09-2008 17:00:00 15.65 C 12.54 g/m*3 15.65 C 0 km/h
787 12-09-2008 18:00:00 15.51667 C 12.44 g/m*3 15.52 C 0 km/h
788 12-09-2008 19:00:00 15.10833 C 12.17 g/m*3 15.11 C 0 km/h
789 12-09-2008 20:00:00 14.85833 C 11.97 g/m*3 14.86 C 0 km/h
790 12-09-2008 21:00:00 14.55833 C 11.61 g/m*3 14.56 C 0 km/h
791 12-09-2008 22:00:00 14.33333 C 11.41 g/m*3 14.33 C 0 km/h
792 12-09-2008 23:00:00 14.18333 C 11.22 g/m*3 14.18 C 0 km/h
793 13-09-2008 00:00:00 14.10833 C 11.05 g/m*3 14.11 C 0 km/h
794 13-09-2008 01:00:00 14.11667 C 11.04 g/m*3 14.12 C 0 km/h
795 13-09-2008 02:00:00 13.82727 C 10.95 g/m*3 13.83 C 0 km/h
796 13-09-2008 03:00:00 13.69167 C 11.09 g/m*3 13.69 C 0 km/h
797 13-09-2008 04:00:00 13.8 C 11.2 g/m*3 13.8 C 0 km/h
798 13-09-2008 05:00:00 13.725 C 11.12 g/m*3 13.73 C 0 km/h
799 13-09-2008 06:00:00 13.53333 C 10.95 g/m*3 13.53 C 0 km/h
800 13-09-2008 07:00:00 13.56667 C 11.12 g/m*3 13.57 C 0 km/h
Sensor: Nr:Datum:Temp:Abs-Feuchte:Windchill:Wind:
Aussen-T/F 801 13-09-2008 08:00:00 13.61667 C 11.19 g/m*3 13.62 C 0 km/h
802 13-09-2008 09:00:00 13.175 C 10.89 g/m*3 13.18 C 0 km/h
803 13-09-2008 10:00:00 12.96667 C 10.75 g/m*3 12.97 C 0 km/h
804 13-09-2008 11:00:00 12.4 C 10.38 g/m*3 12.4 C 0 km/h
805 13-09-2008 12:00:00 12.1 C 10.19 g/m*3 12.1 C 0 km/h
806 13-09-2008 13:00:00 11.83333 C 9.99 g/m*3 11.83 C 0 km/h
807 13-09-2008 14:00:00 12.05 C 10 g/m*3 12.05 C 0 km/h
808 13-09-2008 15:00:00 13.95 C 10.86 g/m*3 13.95 C 0 km/h
809 13-09-2008 16:00:00 14.925 C 10.63 g/m*3 14.93 C 0 km/h
810 13-09-2008 17:00:00 14.4 C 10.12 g/m*3 14.4 C 0 km/h
811 13-09-2008 18:00:00 13.30833 C 9.69 g/m*3 13.31 C 0 km/h
812 13-09-2008 19:00:00 12.09167 C 9.29 g/m*3 12.09 C 0 km/h
813 13-09-2008 20:00:00 10.375 C 8.48 g/m*3 10.38 C 0 km/h
814 13-09-2008 21:00:00 9.20833 C 7.88 g/m*3 9.21 C 0 km/h
815 13-09-2008 22:00:00 8.50833 C 7.47 g/m*3 8.51 C 0 km/h
816 13-09-2008 23:00:00 8.16667 C 6.88 g/m*3 8.17 C 0 km/h
817 14-09-2008 00:00:00 8.075 C 6.56 g/m*3 8.07 C 0 km/h
818 14-09-2008 01:00:00 8.2 C 6.21 g/m*3 8.2 C 0 km/h
819 14-09-2008 02:00:00 8.325 C 6.17 g/m*3 8.32 C 0 km/h
820 14-09-2008 03:00:00 8.20833 C 6.03 g/m*3 8.21 C 0 km/h
821 14-09-2008 04:00:00 7.35833 C 6.11 g/m*3 7.36 C 0 km/h
822 14-09-2008 05:00:00 7.09167 C 6.11 g/m*3 7.09 C 0 km/h
823 14-09-2008 06:00:00 6.7 C 6.07 g/m*3 6.7 C 0 km/h
824 14-09-2008 07:00:00 5.9 C 6 g/m*3 5.9 C 0 km/h
825 14-09-2008 08:00:00 5.90833 C 6.22 g/m*3 5.91 C 0 km/h
Sensor: Nr:Datum:Temp:Abs-Feuchte:Windchill:Wind:
Aussen-T/F 826 14-09-2008 09:00:00 7.1 C 6.71 g/m*3 7.1 C 0 km/h
827 14-09-2008 10:00:00 9.725 C 6.87 g/m*3 9.73 C 0 km/h
828 14-09-2008 11:00:00 12.71667 C 5.59 g/m*3 12.72 C 0 km/h
829 14-09-2008 12:00:00 14.51667 C 4.72 g/m*3 14.52 C 0 km/h
830 14-09-2008 13:00:00 15.95833 C 4.82 g/m*3 15.96 C 0 km/h
831 14-09-2008 14:00:00 18.45 C 4.76 g/m*3 18.45 C 0 km/h
832 14-09-2008 15:00:00 18.61667 C 4.77 g/m*3 18.62 C 0 km/h
833 14-09-2008 16:00:00 19.04167 C 4.91 g/m*3 19.04 C 0 km/h
834 14-09-2008 17:00:00 18.975 C 5.21 g/m*3 18.98 C 0 km/h
835 14-09-2008 18:00:00 16.79167 C 5.57 g/m*3 16.79 C 0 km/h
836 14-09-2008 19:00:00 14.63333 C 5.51 g/m*3 14.63 C 0 km/h
837 14-09-2008 20:00:00 12.68333 C 5.54 g/m*3 12.68 C 0 km/h
838 14-09-2008 21:00:00 12.30833 C 6.06 g/m*3 12.31 C 0 km/h
839 14-09-2008 22:00:00 11.85833 C 6.31 g/m*3 11.86 C 0 km/h
840 14-09-2008 23:00:00 10.75 C 6.51 g/m*3 10.75 C 0 km/h
841 15-09-2008 00:00:00 9.60833 C 6.54 g/m*3 9.61 C 0 km/h
842 15-09-2008 01:00:00 8.96667 C 6.51 g/m*3 8.97 C 0 km/h
843 15-09-2008 02:00:00 8.71667 C 6.4 g/m*3 8.72 C 0 km/h
844 15-09-2008 03:00:00 8.24167 C 6.42 g/m*3 8.24 C 0 km/h
845 15-09-2008 04:00:00 7.625 C 6.52 g/m*3 7.63 C 0 km/h
846 15-09-2008 05:00:00 7.20833 C 6.58 g/m*3 7.21 C 0 km/h
847 15-09-2008 06:00:00 6.69167 C 6.57 g/m*3 6.69 C 0 km/h
848 15-09-2008 07:00:00 6.175 C 6.49 g/m*3 6.18 C 0 km/h
849 15-09-2008 08:00:00 6.46667 C 6.65 g/m*3 6.47 C 0 km/h
850 15-09-2008 09:00:00 7.80833 C 6.97 g/m*3 7.81 C 0 km/h
Sensor: Nr:Datum:Temp:Abs-Feuchte:Windchill:Wind:
Aussen-T/F 851 15-09-2008 10:00:00 10.20833 C 6.97 g/m*3 10.21 C 0 km/h
852 15-09-2008 11:00:00 12.15833 C 6.49 g/m*3 12.16 C 0 km/h
853 15-09-2008 12:00:00 13.6 C 5.89 g/m*3 13.6 C 0 km/h
854 15-09-2008 13:00:00 13.76667 C 6.19 g/m*3 13.77 C 0 km/h
855 15-09-2008 14:00:00 13.09167 C 6.97 g/m*3 13.09 C 0 km/h
856 15-09-2008 15:00:00 13.15 C 8.96 g/m*3 13.15 C 0 km/h
857 15-09-2008 16:00:00 14.18333 C 8.83 g/m*3 14.18 C 0 km/h
858 15-09-2008 17:00:00 12.63333 C 7.98 g/m*3 12.63 C 0 km/h
859 15-09-2008 18:00:00 11.875 C 7.62 g/m*3 11.88 C 0 km/h
860 15-09-2008 19:00:00 11.21667 C 7.38 g/m*3 11.22 C 0 km/h
861 15-09-2008 20:00:00 10.975 C 7.54 g/m*3 10.98 C 0 km/h
862 15-09-2008 21:00:00 10.84167 C 7.5 g/m*3 10.84 C 0 km/h
863 15-09-2008 22:00:00 10.79167 C 7.46 g/m*3 10.79 C 0 km/h
864 15-09-2008 23:00:00 10.51667 C 7.53 g/m*3 10.52 C 0 km/h
865 16-09-2008 00:00:00 10.21667 C 7.52 g/m*3 10.22 C 0 km/h
866 16-09-2008 01:00:00 9.95 C 7.59 g/m*3 9.95 C 0 km/h
867 16-09-2008 02:00:00 9.425 C 7.5 g/m*3 9.43 C 0 km/h
868 16-09-2008 03:00:00 8.875 C 7.3 g/m*3 8.88 C 0 km/h
869 16-09-2008 04:00:00 7.575 C 6.96 g/m*3 7.58 C 0 km/h
870 16-09-2008 05:00:00 6.94167 C 6.86 g/m*3 6.94 C 0 km/h
871 16-09-2008 06:00:00 6.64167 C 6.88 g/m*3 6.64 C 0 km/h
872 16-09-2008 07:00:00 7.20833 C 7.23 g/m*3 7.21 C 0 km/h
873 16-09-2008 08:00:00 8.15 C 7.61 g/m*3 8.15 C 0 km/h
874 16-09-2008 09:00:00 9.6 C 7.77 g/m*3 9.6 C 0 km/h
875 16-09-2008 10:00:00 11.075 C 7.56 g/m*3 11.08 C 0 km/h
Sensor: Nr:Datum:Temp:Abs-Feuchte:Windchill:Wind:
Aussen-T/F 876 16-09-2008 11:00:00 12.99167 C 7.36 g/m*3 12.99 C 0 km/h
877 16-09-2008 12:00:00 14.51667 C 6.73 g/m*3 14.52 C 0 km/h
878 16-09-2008 13:00:00 14.08333 C 6.95 g/m*3 14.08 C 0 km/h
879 16-09-2008 14:00:00 15.54167 C 6.68 g/m*3 15.54 C 0 km/h
880 16-09-2008 15:00:00 14.75833 C 7.32 g/m*3 14.76 C 0 km/h
881 16-09-2008 16:00:00 16.06667 C 6.34 g/m*3 16.07 C 0 km/h
882 16-09-2008 17:00:00 14.85 C 6.35 g/m*3 14.85 C 0 km/h
883 16-09-2008 18:00:00 13.51667 C 6.95 g/m*3 13.52 C 0 km/h
884 16-09-2008 19:00:00 12.775 C 6.52 g/m*3 12.78 C 0 km/h
885 16-09-2008 20:00:00 12.225 C 6.03 g/m*3 12.23 C 0 km/h
886 16-09-2008 21:00:00 11.95 C 6.11 g/m*3 11.95 C 0 km/h
887 16-09-2008 22:00:00 11.50833 C 6.35 g/m*3 11.51 C 0 km/h
888 16-09-2008 23:00:00 11.24167 C 6.39 g/m*3 11.24 C 0 km/h
889 17-09-2008 00:00:00 10.95833 C 6.59 g/m*3 10.96 C 0 km/h
890 17-09-2008 01:00:00 10.53333 C 6.26 g/m*3 10.53 C 0 km/h
891 17-09-2008 02:00:00 9.975 C 6.06 g/m*3 9.98 C 0 km/h
892 17-09-2008 03:00:00 8.08333 C 5.81 g/m*3 8.08 C 0 km/h
893 17-09-2008 04:00:00 7.05 C 5.75 g/m*3 7.05 C 0 km/h
894 17-09-2008 05:00:00 6.525 C 5.64 g/m*3 6.53 C 0 km/h
895 17-09-2008 06:00:00 5.88333 C 5.71 g/m*3 5.88 C 0 km/h
896 17-09-2008 07:00:00 5.63333 C 5.76 g/m*3 5.63 C 0 km/h
897 17-09-2008 08:00:00 6.51667 C 6.18 g/m*3 6.52 C 0 km/h
898 17-09-2008 09:00:00 7.95833 C 6.38 g/m*3 7.96 C 0 km/h
899 17-09-2008 10:00:00 10.35 C 6.46 g/m*3 10.35 C 0 km/h
900 17-09-2008 11:00:00 12.91667 C 5.39 g/m*3 12.92 C 0 km/h
Sensor: Nr:Datum:Temp:Abs-Feuchte:Windchill:Wind:
Aussen-T/F 901 17-09-2008 12:00:00 14.51667 C 4.89 g/m*3 14.52 C 0 km/h
902 17-09-2008 13:00:00 16.43333 C 4.96 g/m*3 16.43 C 0 km/h
903 17-09-2008 14:00:00 17.78333 C 4.88 g/m*3 17.78 C 0 km/h
904 17-09-2008 15:00:00 19.125 C 4.57 g/m*3 19.13 C 0 km/h
905 17-09-2008 16:00:00 19.075 C 4.45 g/m*3 19.08 C 0 km/h
906 17-09-2008 17:00:00 18.10833 C 4.52 g/m*3 18.11 C 0 km/h
907 17-09-2008 18:00:00 15.925 C 4.63 g/m*3 15.93 C 0 km/h
908 17-09-2008 19:00:00 12.61667 C 5.11 g/m*3 12.62 C 0 km/h
909 17-09-2008 20:00:00 10.2 C 5.23 g/m*3 10.2 C 0 km/h
910 17-09-2008 21:00:00 9.46667 C 5.23 g/m*3 9.47 C 0 km/h
911 17-09-2008 22:00:00 8.7 C 5.09 g/m*3 8.7 C 0 km/h
912 17-09-2008 23:00:00 7.83333 C 5.09 g/m*3 7.83 C 0 km/h
913 18-09-2008 00:00:00 7.05 C 5.12 g/m*3 7.05 C 0 km/h
914 18-09-2008 01:00:00 6.19167 C 5.24 g/m*3 6.19 C 0 km/h
915 18-09-2008 02:00:00 5.65 C 5.3 g/m*3 5.65 C 0 km/h
916 18-09-2008 03:00:00 5.275 C 5.31 g/m*3 5.28 C 0 km/h
917 18-09-2008 04:00:00 5.18333 C 5.44 g/m*3 5.18 C 0 km/h
918 18-09-2008 05:00:00 5.13333 C 5.32 g/m*3 5.13 C 0 km/h
919 18-09-2008 06:00:00 5.25833 C 5.41 g/m*3 5.26 C 0 km/h
920 18-09-2008 07:00:00 5.16667 C 5.38 g/m*3 5.17 C 0 km/h
921 18-09-2008 08:00:00 6.275 C 5.65 g/m*3 6.28 C 0 km/h
922 18-09-2008 09:00:00 7.73333 C 5.33 g/m*3 7.73 C 0 km/h
923 18-09-2008 10:00:00 10.025 C 4.74 g/m*3 10.03 C 0 km/h
924 18-09-2008 11:00:00 11.74167 C 4.48 g/m*3 11.74 C 0 km/h
925 18-09-2008 12:00:00 13.73333 C 4.22 g/m*3 13.73 C 0 km/h
Sensor: Nr:Datum:Temp:Abs-Feuchte:Windchill:Wind:
Aussen-T/F 926 18-09-2008 13:00:00 14.575 C 3.76 g/m*3 14.58 C 0 km/h
927 18-09-2008 14:00:00 16.73333 C 3.75 g/m*3 16.73 C 0 km/h
928 18-09-2008 15:00:00 18.53333 C 3.77 g/m*3 18.53 C 0 km/h
929 18-09-2008 16:00:00 19.875 C 3.6 g/m*3 19.88 C 0 km/h
930 18-09-2008 17:00:00 20.15833 C 3.5 g/m*3 20.16 C 0 km/h
931 18-09-2008 18:00:00 19 C 4.13 g/m*3 19 C 0 km/h
932 18-09-2008 19:00:00 14.45833 C 4.69 g/m*3 14.46 C 0 km/h
933 18-09-2008 20:00:00 10.975 C 5.14 g/m*3 10.98 C 0 km/h
934 18-09-2008 21:00:00 9.875 C 5.39 g/m*3 9.88 C 0 km/h
935 18-09-2008 22:00:00 8.775 C 5.58 g/m*3 8.78 C 0 km/h
936 18-09-2008 23:00:00 7.80833 C 5.64 g/m*3 7.81 C 0 km/h
937 19-09-2008 00:00:00 7.10833 C 5.83 g/m*3 7.11 C 0 km/h
938 19-09-2008 01:00:00 6.35 C 5.84 g/m*3 6.35 C 0 km/h
939 19-09-2008 02:00:00 5.75 C 5.82 g/m*3 5.75 C 0 km/h
940 19-09-2008 03:00:00 5.225 C 5.72 g/m*3 5.23 C 0 km/h
941 19-09-2008 04:00:00 4.70833 C 5.65 g/m*3 4.71 C 0 km/h
942 19-09-2008 05:00:00 4.25 C 5.54 g/m*3 4.25 C 0 km/h
943 19-09-2008 06:00:00 3.80833 C 5.51 g/m*3 3.81 C 0 km/h
944 19-09-2008 07:00:00 3.45 C 5.45 g/m*3 3.45 C 0 km/h
945 19-09-2008 08:00:00 3.675 C 5.67 g/m*3 3.68 C 0 km/h
946 19-09-2008 09:00:00 4.55833 C 6.03 g/m*3 4.56 C 0 km/h
947 19-09-2008 10:00:00 7.325 C 7.16 g/m*3 7.33 C 0 km/h
948 19-09-2008 11:00:00 10.725 C 6.95 g/m*3 10.73 C 0 km/h
949 19-09-2008 12:00:00 13.7 C 6.4 g/m*3 13.7 C 0 km/h
950 19-09-2008 13:00:00 16.34167 C 5.24 g/m*3 16.34 C 0 km/h
Sensor: Nr:Datum:Temp:Abs-Feuchte:Windchill:Wind:
Aussen-T/F 951 19-09-2008 14:00:00 18.81667 C 4.63 g/m*3 18.82 C 0 km/h
952 19-09-2008 15:00:00 19.91667 C 4.49 g/m*3 19.92 C 0 km/h
953 19-09-2008 16:00:00 21.34167 C 3.92 g/m*3 21.34 C 0 km/h
954 19-09-2008 17:00:00 19.35833 C 4.74 g/m*3 19.36 C 0 km/h
955 19-09-2008 18:00:00 16.725 C 5.35 g/m*3 16.73 C 0 km/h
956 19-09-2008 19:00:00 14.525 C 5.55 g/m*3 14.53 C 0 km/h
957 19-09-2008 20:00:00 13.08333 C 5.56 g/m*3 13.08 C 0 km/h
958 19-09-2008 21:00:00 11.46667 C 5.57 g/m*3 11.47 C 0 km/h
959 19-09-2008 22:00:00 10.25 C 6.04 g/m*3 10.25 C 0 km/h
960 19-09-2008 23:00:00 9.14167 C 6.13 g/m*3 9.14 C 0 km/h
961 20-09-2008 00:00:00 8.23333 C 6.34 g/m*3 8.23 C 0 km/h
962 20-09-2008 01:00:00 7.59167 C 6.33 g/m*3 7.59 C 0 km/h
963 20-09-2008 02:00:00 7.01667 C 6.33 g/m*3 7.02 C 0 km/h
964 20-09-2008 03:00:00 6.39167 C 6.27 g/m*3 6.39 C 0 km/h
965 20-09-2008 04:00:00 6.025 C 6.18 g/m*3 6.03 C 0 km/h
966 20-09-2008 05:00:00 5.475 C 6.16 g/m*3 5.48 C 0 km/h
967 20-09-2008 06:00:00 4.96667 C 5.99 g/m*3 4.97 C 0 km/h
968 20-09-2008 07:00:00 4.55 C 5.89 g/m*3 4.55 C 0 km/h
969 20-09-2008 08:00:00 4.76667 C 6.03 g/m*3 4.77 C 0 km/h
970 20-09-2008 09:00:00 5.59167 C 6.45 g/m*3 5.59 C 0 km/h
971 20-09-2008 10:00:00 8.23333 C 7.39 g/m*3 8.23 C 0 km/h
972 20-09-2008 11:00:00 11.65833 C 7.36 g/m*3 11.66 C 0 km/h
973 20-09-2008 12:00:00 15.20833 C 6.63 g/m*3 15.21 C 0 km/h
974 20-09-2008 13:00:00 17.475 C 4.88 g/m*3 17.48 C 0 km/h
975 20-09-2008 14:00:00 17.50833 C 4.45 g/m*3 17.51 C 0 km/h
Sensor: Nr:Datum:Temp:Abs-Feuchte:Windchill:Wind:
Aussen-T/F 976 20-09-2008 15:00:00 18.01667 C 4.3 g/m*3 18.02 C 0 km/h
977 20-09-2008 16:00:00 18.14167 C 4.48 g/m*3 18.14 C 0 km/h
978 20-09-2008 17:00:00 18.65833 C 4.62 g/m*3 18.66 C 0 km/h
979 20-09-2008 18:00:00 18.5 C 4.72 g/m*3 18.5 C 0 km/h
980 20-09-2008 19:00:00 14.61667 C 5.03 g/m*3 14.62 C 0 km/h
981 20-09-2008 20:00:00 12.525 C 5.29 g/m*3 12.53 C 0 km/h
982 20-09-2008 21:00:00 11.125 C 5.39 g/m*3 11.13 C 0 km/h
983 20-09-2008 22:00:00 10.925 C 5.73 g/m*3 10.93 C 0 km/h
984 20-09-2008 23:00:00 10.93333 C 6.03 g/m*3 10.93 C 0 km/h
985 21-09-2008 00:00:00 10.15 C 6.15 g/m*3 10.15 C 0 km/h
986 21-09-2008 01:00:00 9.69167 C 6.26 g/m*3 9.69 C 0 km/h
987 21-09-2008 02:00:00 8.59167 C 6.31 g/m*3 8.59 C 0 km/h
988 21-09-2008 03:00:00 7.90833 C 6.34 g/m*3 7.91 C 0 km/h
989 21-09-2008 04:00:00 7.95 C 6.5 g/m*3 7.95 C 0 km/h
990 21-09-2008 05:00:00 7.725 C 6.59 g/m*3 7.73 C 0 km/h
991 21-09-2008 06:00:00 7.20833 C 6.51 g/m*3 7.21 C 0 km/h
992 21-09-2008 07:00:00 7.15833 C 6.58 g/m*3 7.16 C 0 km/h
993 21-09-2008 08:00:00 7.78333 C 6.79 g/m*3 7.78 C 0 km/h
994 21-09-2008 09:00:00 8.78333 C 6.98 g/m*3 8.78 C 0 km/h
995 21-09-2008 10:00:00 10.70833 C 6.77 g/m*3 10.71 C 0 km/h
996 21-09-2008 11:00:00 12.54167 C 6.32 g/m*3 12.54 C 0 km/h
997 21-09-2008 12:00:00 14.15 C 6.03 g/m*3 14.15 C 0 km/h
998 21-09-2008 13:00:00 15.61667 C 6.02 g/m*3 15.62 C 0 km/h
999 21-09-2008 14:00:00 16.05833 C 6 g/m*3 16.06 C 0 km/h
1000 21-09-2008 15:00:00 17.16667 C 6.31 g/m*3 17.17 C 0 km/h
Sensor: Nr:Datum:Temp:Abs-Feuchte:Windchill:Wind:
Aussen-T/F 1001 21-09-2008 16:00:00 17.86667 C 6.16 g/m*3 17.87 C 0 km/h
1002 21-09-2008 17:00:00 16.35 C 6.49 g/m*3 16.35 C 0 km/h
1003 21-09-2008 18:00:00 16.50833 C 6.63 g/m*3 16.51 C 0 km/h
1004 21-09-2008 19:00:00 14.11667 C 7.22 g/m*3 14.12 C 0 km/h
1005 21-09-2008 20:00:00 12.31667 C 7.75 g/m*3 12.32 C 0 km/h
1006 21-09-2008 21:00:00 11.6 C 7.93 g/m*3 11.6 C 0 km/h
1007 21-09-2008 22:00:00 11.10833 C 8.04 g/m*3 11.11 C 0 km/h
1008 21-09-2008 23:00:00 11.075 C 8.26 g/m*3 11.08 C 0 km/h
1009 22-09-2008 00:00:00 10.65 C 7.94 g/m*3 10.65 C 0 km/h
1010 22-09-2008 01:00:00 9.90833 C 7.99 g/m*3 9.91 C 0 km/h
1011 22-09-2008 02:00:00 10.60833 C 8.41 g/m*3 10.61 C 0 km/h
1012 22-09-2008 03:00:00 10.83333 C 8.47 g/m*3 10.83 C 0 km/h
1013 22-09-2008 04:00:00 10.81667 C 8.33 g/m*3 10.82 C 0 km/h
1014 22-09-2008 05:00:00 10.46667 C 8.05 g/m*3 10.47 C 0 km/h
1015 22-09-2008 06:00:00 10.6 C 8.09 g/m*3 10.6 C 0 km/h
1016 22-09-2008 07:00:00 10.61667 C 8.01 g/m*3 10.62 C 0 km/h
1017 22-09-2008 08:00:00 10.94167 C 8.08 g/m*3 10.94 C 0 km/h
1018 22-09-2008 09:00:00 11.89167 C 7.97 g/m*3 11.89 C 0 km/h
1019 22-09-2008 10:00:00 13.06667 C 7.55 g/m*3 13.07 C 0 km/h
1020 22-09-2008 11:00:00 13.725 C 7.44 g/m*3 13.73 C 0 km/h
1021 22-09-2008 12:00:00 15.51667 C 6.73 g/m*3 15.52 C 0 km/h
1022 22-09-2008 13:00:00 16.59167 C 6.19 g/m*3 16.59 C 0 km/h
1023 22-09-2008 14:00:00 15.65833 C 6.25 g/m*3 15.66 C 0 km/h
1024 22-09-2008 15:00:00 14.66667 C 6.68 g/m*3 14.67 C 0 km/h
1025 22-09-2008 16:00:00 14.775 C 6.91 g/m*3 14.78 C 0 km/h
Sensor: Nr:Datum:Temp:Abs-Feuchte:Windchill:Wind:
Aussen-T/F 1026 22-09-2008 17:00:00 15.625 C 6.63 g/m*3 15.63 C 0 km/h
1027 22-09-2008 18:00:00 14.975 C 6.5 g/m*3 14.98 C 0 km/h
1028 22-09-2008 19:00:00 13.19167 C 6.71 g/m*3 13.19 C 0 km/h
1029 22-09-2008 20:00:00 12.33333 C 6.96 g/m*3 12.33 C 0 km/h
1030 22-09-2008 21:00:00 11.9 C 7.05 g/m*3 11.9 C 0 km/h
1031 22-09-2008 22:00:00 11.29167 C 7.2 g/m*3 11.29 C 0 km/h
1032 22-09-2008 23:00:00 11 C 7.29 g/m*3 11 C 0 km/h
1033 23-09-2008 00:00:00 10.55833 C 7.36 g/m*3 10.56 C 0 km/h
1034 23-09-2008 01:00:00 10.31667 C 7.51 g/m*3 10.32 C 0 km/h
1035 23-09-2008 02:00:00 9.9 C 7.81 g/m*3 9.9 C 0 km/h
1036 23-09-2008 03:00:00 10.025 C 8.18 g/m*3 10.03 C 0 km/h
1037 23-09-2008 04:00:00 10.43333 C 8.37 g/m*3 10.43 C 0 km/h
1038 23-09-2008 05:00:00 10.65833 C 8.44 g/m*3 10.66 C 0 km/h
1039 23-09-2008 06:00:00 10.44167 C 8.36 g/m*3 10.44 C 0 km/h
1040 23-09-2008 07:00:00 10.69167 C 8.52 g/m*3 10.69 C 0 km/h
1041 23-09-2008 08:00:00 11.58333 C 8.62 g/m*3 11.58 C 0 km/h
1042 23-09-2008 09:00:00 12.51667 C 8.21 g/m*3 12.52 C 0 km/h
1043 23-09-2008 10:00:00 13.14167 C 7.98 g/m*3 13.14 C 0 km/h
1044 23-09-2008 11:00:00 13.36667 C 7.91 g/m*3 13.37 C 0 km/h
1045 23-09-2008 12:00:00 14.325 C 7.78 g/m*3 14.33 C 0 km/h
1046 23-09-2008 13:00:00 14.86667 C 7.36 g/m*3 14.87 C 0 km/h
1047 23-09-2008 14:00:00 15.65833 C 6.84 g/m*3 15.66 C 0 km/h
1048 23-09-2008 15:00:00 15.575 C 6.77 g/m*3 15.58 C 0 km/h
1049 23-09-2008 16:00:00 14.775 C 7.21 g/m*3 14.78 C 0 km/h
1050 23-09-2008 17:00:00 13.24167 C 8.32 g/m*3 13.24 C 0 km/h
Sensor: Nr:Datum:Temp:Abs-Feuchte:Windchill:Wind:
Aussen-T/F 1051 23-09-2008 18:00:00 12.58333 C 9.02 g/m*3 12.58 C 0 km/h
1052 23-09-2008 19:00:00 12.025 C 9.36 g/m*3 12.03 C 0 km/h
1053 23-09-2008 20:00:00 11.71667 C 9.48 g/m*3 11.72 C 0 km/h
1054 23-09-2008 21:00:00 11.675 C 9.6 g/m*3 11.68 C 0 km/h
1055 23-09-2008 22:00:00 11.525 C 9.53 g/m*3 11.53 C 0 km/h
1056 23-09-2008 23:00:00 11.46667 C 9.59 g/m*3 11.47 C 0 km/h
1057 24-09-2008 00:00:00 11.225 C 9.46 g/m*3 11.23 C 0 km/h
1058 24-09-2008 01:00:00 11.45 C 9.68 g/m*3 11.45 C 0 km/h
1059 24-09-2008 02:00:00 11.36667 C 9.63 g/m*3 11.37 C 0 km/h
1060 24-09-2008 03:00:00 11.04167 C 9.43 g/m*3 11.04 C 0 km/h
1061 24-09-2008 04:00:00 10.90833 C 9.36 g/m*3 10.91 C 0 km/h
1062 24-09-2008 05:00:00 10.78333 C 9.38 g/m*3 10.78 C 0 km/h
1063 24-09-2008 06:00:00 10.81667 C 9.4 g/m*3 10.82 C 0 km/h
1064 24-09-2008 07:00:00 10.94167 C 9.47 g/m*3 10.94 C 0 km/h
1065 24-09-2008 08:00:00 11.25 C 9.66 g/m*3 11.25 C 0 km/h
1066 24-09-2008 09:00:00 12.10833 C 10.09 g/m*3 12.11 C 0 km/h
1067 24-09-2008 10:00:00 13.4 C 10.55 g/m*3 13.4 C 0 km/h
1068 24-09-2008 11:00:00 14.3 C 10.28 g/m*3 14.3 C 0 km/h
1069 24-09-2008 12:00:00 15.90833 C 8.86 g/m*3 15.91 C 0 km/h
1070 24-09-2008 13:00:00 17.375 C 8.18 g/m*3 17.38 C 0 km/h
1071 24-09-2008 14:00:00 18.45 C 7.64 g/m*3 18.45 C 0 km/h
1072 24-09-2008 15:00:00 16.48333 C 8.04 g/m*3 16.48 C 0 km/h
1073 24-09-2008 16:00:00 16.14167 C 8.18 g/m*3 16.14 C 0 km/h
1074 24-09-2008 17:00:00 15.70833 C 8.82 g/m*3 15.71 C 0 km/h
1075 24-09-2008 18:00:00 14.85 C 8.85 g/m*3 14.85 C 0 km/h
Sensor: Nr:Datum:Temp:Abs-Feuchte:Windchill:Wind:
Aussen-T/F 1076 24-09-2008 19:00:00 13.525 C 8.91 g/m*3 13.53 C 0 km/h
1077 24-09-2008 20:00:00 12.91667 C 9.2 g/m*3 12.92 C 0 km/h
1078 24-09-2008 21:00:00 12.93333 C 9.11 g/m*3 12.93 C 0 km/h
1079 24-09-2008 22:00:00 12.8 C 8.76 g/m*3 12.8 C 0 km/h
1080 24-09-2008 23:00:00 12.70833 C 8.75 g/m*3 12.71 C 0 km/h
1081 25-09-2008 00:00:00 12.26667 C 8.56 g/m*3 12.27 C 0 km/h
1082 25-09-2008 01:00:00 11.59167 C 8.31 g/m*3 11.59 C 0 km/h
1083 25-09-2008 02:00:00 11.125 C 8.29 g/m*3 11.13 C 0 km/h
1084 25-09-2008 03:00:00 9.98333 C 8.04 g/m*3 9.98 C 0 km/h
1085 25-09-2008 04:00:00 9.19167 C 7.89 g/m*3 9.19 C 0 km/h
1086 25-09-2008 05:00:00 8.68333 C 7.8 g/m*3 8.68 C 0 km/h
1087 25-09-2008 06:00:00 8.66667 C 7.87 g/m*3 8.67 C 0 km/h
1088 25-09-2008 07:00:00 8.08333 C 7.56 g/m*3 8.08 C 0 km/h
1089 25-09-2008 08:00:00 8.56667 C 7.87 g/m*3 8.57 C 0 km/h
1090 25-09-2008 09:00:00 9.99167 C 8.57 g/m*3 9.99 C 0 km/h
1091 25-09-2008 10:00:00 11.15 C 8.7 g/m*3 11.15 C 0 km/h
1092 25-09-2008 11:00:00 13.41667 C 8.77 g/m*3 13.42 C 0 km/h
1093 25-09-2008 12:00:00 16.24167 C 7.65 g/m*3 16.24 C 0 km/h
1094 25-09-2008 13:00:00 16.95833 C 6.63 g/m*3 16.96 C 0 km/h
1095 25-09-2008 14:00:00 18.08333 C 6.64 g/m*3 18.08 C 0 km/h
1096 25-09-2008 15:00:00 18.075 C 6.66 g/m*3 18.08 C 0 km/h
1097 25-09-2008 16:00:00 18.51667 C 6.33 g/m*3 18.52 C 0 km/h
1098 25-09-2008 17:00:00 17.59167 C 6.36 g/m*3 17.59 C 0 km/h
1099 25-09-2008 18:00:00 16.09167 C 6.67 g/m*3 16.09 C 0 km/h
1100 25-09-2008 19:00:00 13.29167 C 7.17 g/m*3 13.29 C 0 km/h
Sensor: Nr:Datum:Temp:Abs-Feuchte:Windchill:Wind:
Aussen-T/F 1101 25-09-2008 20:00:00 11.95 C 6.83 g/m*3 11.95 C 0 km/h
1102 25-09-2008 21:00:00 11.76667 C 6.84 g/m*3 11.77 C 0 km/h
1103 25-09-2008 22:00:00 10.7 C 6.84 g/m*3 10.7 C 0 km/h
1104 25-09-2008 23:00:00 9.63333 C 6.99 g/m*3 9.63 C 0 km/h
1105 26-09-2008 00:00:00 9.025 C 7.02 g/m*3 9.03 C 0 km/h
1106 26-09-2008 01:00:00 8.58333 C 7.12 g/m*3 8.58 C 0 km/h
1107 26-09-2008 02:00:00 8.125 C 7.1 g/m*3 8.13 C 0 km/h
1108 26-09-2008 03:00:00 7.48333 C 6.99 g/m*3 7.48 C 0 km/h
1109 26-09-2008 04:00:00 7.05833 C 6.95 g/m*3 7.06 C 0 km/h
1110 26-09-2008 05:00:00 6.58333 C 6.86 g/m*3 6.58 C 0 km/h
1111 26-09-2008 06:00:00 6.075 C 6.66 g/m*3 6.08 C 0 km/h
1112 26-09-2008 07:00:00 5.73333 C 6.63 g/m*3 5.73 C 0 km/h
1113 26-09-2008 08:00:00 5.875 C 6.69 g/m*3 5.88 C 0 km/h
1114 26-09-2008 09:00:00 6.675 C 7.06 g/m*3 6.68 C 0 km/h
1115 26-09-2008 10:00:00 8.90833 C 8.17 g/m*3 8.91 C 0 km/h
1116 26-09-2008 11:00:00 11.65 C 8.69 g/m*3 11.65 C 0 km/h
1117 26-09-2008 12:00:00 14.95833 C 6.25 g/m*3 14.96 C 0 km/h
1118 26-09-2008 13:00:00 17.15 C 5.3 g/m*3 17.15 C 0 km/h
1119 26-09-2008 14:00:00 19.325 C 4.9 g/m*3 19.33 C 0 km/h
1120 26-09-2008 15:00:00 20.875 C 4.67 g/m*3 20.88 C 0 km/h
1121 26-09-2008 16:00:00 21.65833 C 4.77 g/m*3 21.66 C 0 km/h
1122 26-09-2008 17:00:00 21.53333 C 4.94 g/m*3 21.53 C 0 km/h
1123 26-09-2008 18:00:00 19.16667 C 5.6 g/m*3 19.17 C 0 km/h
1124 26-09-2008 19:00:00 15.44167 C 6.02 g/m*3 15.44 C 0 km/h
1125 26-09-2008 20:00:00 13.09167 C 6.5 g/m*3 13.09 C 0 km/h
Sensor: Nr:Datum:Temp:Abs-Feuchte:Windchill:Wind:
Aussen-T/F 1126 26-09-2008 21:00:00 11.9 C 6.77 g/m*3 11.9 C 0 km/h
1127 26-09-2008 22:00:00 11.025 C 6.93 g/m*3 11.03 C 0 km/h
1128 26-09-2008 23:00:00 10.225 C 6.93 g/m*3 10.23 C 0 km/h
1129 27-09-2008 00:00:00 9.225 C 6.9 g/m*3 9.23 C 0 km/h
1130 27-09-2008 01:00:00 8.45833 C 6.82 g/m*3 8.46 C 0 km/h
1131 27-09-2008 02:00:00 7.55 C 6.68 g/m*3 7.55 C 0 km/h
1132 27-09-2008 03:00:00 7.03333 C 6.6 g/m*3 7.03 C 0 km/h
1133 27-09-2008 04:00:00 6.425 C 6.49 g/m*3 6.43 C 0 km/h
1134 27-09-2008 05:00:00 5.93333 C 6.38 g/m*3 5.93 C 0 km/h
1135 27-09-2008 06:00:00 5.43333 C 6.23 g/m*3 5.43 C 0 km/h
1136 27-09-2008 07:00:00 5.425 C 6.34 g/m*3 5.43 C 0 km/h
1137 27-09-2008 08:00:00 5.90833 C 6.62 g/m*3 5.91 C 0 km/h
1138 27-09-2008 09:00:00 7.2 C 6.95 g/m*3 7.2 C 0 km/h
1139 27-09-2008 10:00:00 9.04167 C 7.31 g/m*3 9.04 C 0 km/h
1140 27-09-2008 11:00:00 10.625 C 7.63 g/m*3 10.63 C 0 km/h
1141 27-09-2008 12:00:00 12.875 C 7.94 g/m*3 12.88 C 0 km/h
1142 27-09-2008 13:00:00 15.7 C 7.72 g/m*3 15.7 C 0 km/h
1143 27-09-2008 14:00:00 19.425 C 6.39 g/m*3 19.43 C 0 km/h
1144 27-09-2008 15:00:00 21.65 C 5.66 g/m*3 21.65 C 0 km/h
1145 27-09-2008 16:00:00 22.98333 C 5.37 g/m*3 22.98 C 0 km/h
1146 27-09-2008 17:00:00 22.71667 C 5.54 g/m*3 22.72 C 0 km/h
1147 27-09-2008 18:00:00 20.3 C 6.26 g/m*3 20.3 C 0 km/h
1148 27-09-2008 19:00:00 15.775 C 6.14 g/m*3 15.78 C 0 km/h
1149 27-09-2008 20:00:00 13.58333 C 6.63 g/m*3 13.58 C 0 km/h
1150 27-09-2008 21:00:00 12.10833 C 6.85 g/m*3 12.11 C 0 km/h
Sensor: Nr:Datum:Temp:Abs-Feuchte:Windchill:Wind:
Aussen-T/F 1151 27-09-2008 22:00:00 10.95455 C 6.97 g/m*3 10.95 C 0 km/h
1152 27-09-2008 23:00:00 10.075 C 7.03 g/m*3 10.07 C 0 km/h
1153 28-09-2008 00:00:00 9.45 C 7.06 g/m*3 9.45 C 0 km/h
1154 28-09-2008 01:00:00 8.63333 C 6.98 g/m*3 8.63 C 0 km/h
1155 28-09-2008 02:00:00 7.90833 C 6.81 g/m*3 7.91 C 0 km/h
1156 28-09-2008 03:00:00 7.25833 C 6.57 g/m*3 7.26 C 0 km/h
1157 28-09-2008 04:00:00 6.625 C 6.45 g/m*3 6.63 C 0 km/h
1158 28-09-2008 05:00:00 6.23333 C 6.44 g/m*3 6.23 C 0 km/h
1159 28-09-2008 06:00:00 6.475 C 6.66 g/m*3 6.48 C 0 km/h
1160 28-09-2008 07:00:00 6.41667 C 6.65 g/m*3 6.42 C 0 km/h
1161 28-09-2008 08:00:00 6.4 C 6.61 g/m*3 6.4 C 0 km/h
1162 28-09-2008 09:00:00 6.275 C 6.63 g/m*3 6.28 C 0 km/h
1163 28-09-2008 10:00:00 7.5 C 6.9 g/m*3 7.5 C 0 km/h
1164 28-09-2008 11:00:00 9.54167 C 7.26 g/m*3 9.54 C 0 km/h
1165 28-09-2008 12:00:00 12.86667 C 7.49 g/m*3 12.87 C 0 km/h
1166 28-09-2008 13:00:00 16.075 C 7.54 g/m*3 16.08 C 0 km/h
1167 28-09-2008 14:00:00 19.325 C 7.27 g/m*3 19.33 C 0 km/h
1168 28-09-2008 15:00:00 21.33333 C 5.84 g/m*3 21.33 C 0 km/h
1169 28-09-2008 16:00:00 22.38333 C 5.59 g/m*3 22.38 C 0 km/h
1170 28-09-2008 17:00:00 22.34167 C 6.04 g/m*3 22.34 C 0 km/h
1171 28-09-2008 18:00:00 19.49167 C 6.32 g/m*3 19.49 C 0 km/h
1172 28-09-2008 19:00:00 15.8 C 6.49 g/m*3 15.8 C 0 km/h
1173 28-09-2008 20:00:00 14.01667 C 6.74 g/m*3 14.02 C 0 km/h
1174 28-09-2008 21:00:00 12.55833 C 7.14 g/m*3 12.56 C 0 km/h
1175 28-09-2008 22:00:00 11.55 C 7.3 g/m*3 11.55 C 0 km/h
Sensor: Nr:Datum:Temp:Abs-Feuchte:Windchill:Wind:
Aussen-T/F 1176 28-09-2008 23:00:00 10.7 C 7.25 g/m*3 10.7 C 0 km/h
1177 29-09-2008 00:00:00 9.91667 C 7.35 g/m*3 9.92 C 0 km/h
1178 29-09-2008 01:00:00 9.65 C 7.38 g/m*3 9.65 C 0 km/h
1179 29-09-2008 02:00:00 8.84167 C 7.13 g/m*3 8.84 C 0 km/h
1180 29-09-2008 03:00:00 8.16667 C 6.95 g/m*3 8.17 C 0 km/h
1181 29-09-2008 04:00:00 7.80833 C 7 g/m*3 7.81 C 0 km/h
1182 29-09-2008 05:00:00 7.45 C 6.85 g/m*3 7.45 C 0 km/h
1183 29-09-2008 06:00:00 6.98333 C 6.64 g/m*3 6.98 C 0 km/h
1184 29-09-2008 07:00:00 6.49167 C 6.53 g/m*3 6.49 C 0 km/h
1185 29-09-2008 08:00:00 7.10833 C 6.81 g/m*3 7.11 C 0 km/h
1186 29-09-2008 09:00:00 8.025 C 7.01 g/m*3 8.03 C 0 km/h
1187 29-09-2008 10:00:00 9.75833 C 7.31 g/m*3 9.76 C 0 km/h
1188 29-09-2008 11:00:00 12.5 C 7.54 g/m*3 12.5 C 0 km/h
1189 29-09-2008 12:00:00 15.175 C 7.42 g/m*3 15.18 C 0 km/h
1190 29-09-2008 13:00:00 16.70833 C 7.45 g/m*3 16.71 C 0 km/h
1191 29-09-2008 14:00:00 16.54167 C 7.59 g/m*3 16.54 C 0 km/h
1192 29-09-2008 15:00:00 16.15 C 7.93 g/m*3 16.15 C 0 km/h
1193 29-09-2008 16:00:00 16.96667 C 7.36 g/m*3 16.97 C 0 km/h
1194 29-09-2008 17:00:00 16.575 C 6.95 g/m*3 16.58 C 0 km/h
1195 29-09-2008 18:00:00 14.09167 C 7.51 g/m*3 14.09 C 0 km/h
1196 29-09-2008 19:00:00 13.03333 C 7.71 g/m*3 13.03 C 0 km/h
1197 29-09-2008 20:00:00 12.90833 C 7.26 g/m*3 12.91 C 0 km/h
1198 29-09-2008 21:00:00 11.51667 C 7.17 g/m*3 11.52 C 0 km/h
1199 29-09-2008 22:00:00 11.66667 C 6.9 g/m*3 11.67 C 0 km/h
1200 29-09-2008 23:00:00 11.34167 C 6.72 g/m*3 11.34 C 0 km/h
Sensor: Nr:Datum:Temp:Abs-Feuchte:Windchill:Wind:
Aussen-T/F 1201 30-09-2008 00:00:00 10.44167 C 6.74 g/m*3 10.44 C 0 km/h
1202 30-09-2008 01:00:00 9.36667 C 6.86 g/m*3 9.37 C 0 km/h
1203 30-09-2008 02:00:00 8.76667 C 6.88 g/m*3 8.77 C 0 km/h
1204 30-09-2008 03:00:00 8.18333 C 6.76 g/m*3 8.18 C 0 km/h
1205 30-09-2008 04:00:00 7.93333 C 6.92 g/m*3 7.93 C 0 km/h
1206 30-09-2008 05:00:00 8.29167 C 6.98 g/m*3 8.29 C 0 km/h
1207 30-09-2008 06:00:00 8.68333 C 6.83 g/m*3 8.68 C 0 km/h
1208 30-09-2008 07:00:00 9.21667 C 6.64 g/m*3 9.22 C 0 km/h
1209 30-09-2008 08:00:00 9.34167 C 6.8 g/m*3 9.34 C 0 km/h
1210 30-09-2008 09:00:00 10.175 C 6.88 g/m*3 10.18 C 0 km/h
1211 30-09-2008 10:00:00 9.61667 C 7.6 g/m*3 9.62 C 0 km/h
1212 30-09-2008 11:00:00 9.76667 C 7.91 g/m*3 9.77 C 0 km/h
1213 30-09-2008 12:00:00 10.48333 C 7.94 g/m*3 10.48 C 0 km/h
1214 30-09-2008 13:00:00 11.65833 C 7.69 g/m*3 11.66 C 0 km/h
1215 30-09-2008 14:00:00 12.16667 C 7.69 g/m*3 12.17 C 0 km/h
1216 30-09-2008 15:00:00 12.35833 C 7.81 g/m*3 12.36 C 0 km/h
1217 30-09-2008 16:00:00 12.225 C 7.94 g/m*3 12.23 C 0 km/h
1218 30-09-2008 17:00:00 12.19167 C 8.15 g/m*3 12.19 C 0 km/h
1219 30-09-2008 18:00:00 11.71667 C 8.52 g/m*3 11.72 C 0 km/h
1220 30-09-2008 19:00:00 11.65 C 8.78 g/m*3 11.65 C 0 km/h
1221 30-09-2008 20:00:00 11.43333 C 8.97 g/m*3 11.43 C 0 km/h
1222 30-09-2008 21:00:00 11.425 C 9.03 g/m*3 11.43 C 0 km/h
1223 30-09-2008 22:00:00 10.96667 C 9.04 g/m*3 10.97 C 0 km/h
1224 30-09-2008 23:00:00 11.20833 C 9.07 g/m*3 11.21 C 0 km/h
1225 01-10-2008 00:00:00 11.6 C 8.52 g/m*3 11.6 C 0 km/h
Sensor: Nr:Datum:Temp:Abs-Feuchte:Windchill:Wind:
Aussen-T/F 1226 01-10-2008 01:00:00 11.70833 C 8.59 g/m*3 11.71 C 0 km/h
1227 01-10-2008 02:00:00 11.88333 C 8.63 g/m*3 11.88 C 0 km/h
1228 01-10-2008 03:00:00 12.18333 C 8.54 g/m*3 12.18 C 0 km/h
1229 01-10-2008 04:00:00 12.35 C 8.55 g/m*3 12.35 C 0 km/h
1230 01-10-2008 05:00:00 12.34167 C 8.63 g/m*3 12.34 C 0 km/h
1231 01-10-2008 06:00:00 12.475 C 8.64 g/m*3 12.48 C 0 km/h
1232 01-10-2008 07:00:00 12.66667 C 8.63 g/m*3 12.67 C 0 km/h
1233 01-10-2008 08:00:00 12.9 C 8.59 g/m*3 12.9 C 0 km/h
1234 01-10-2008 09:00:00 13.44167 C 8.65 g/m*3 13.44 C 0 km/h
1235 01-10-2008 10:00:00 13.94167 C 8.77 g/m*3 13.94 C 0 km/h
1236 01-10-2008 11:00:00 14.825 C 8.72 g/m*3 14.83 C 0 km/h
1237 01-10-2008 12:00:00 14.89167 C 8.91 g/m*3 14.89 C 0 km/h
1238 01-10-2008 13:00:00 14.81667 C 9.08 g/m*3 14.82 C 0 km/h
1239 01-10-2008 14:00:00 15.5 C 8.96 g/m*3 15.5 C 0 km/h
1240 01-10-2008 15:00:00 15.18333 C 8.82 g/m*3 15.18 C 0 km/h
1241 01-10-2008 16:00:00 14.45 C 9.1 g/m*3 14.45 C 0 km/h
1242 01-10-2008 17:00:00 13.11667 C 9.6 g/m*3 13.12 C 0 km/h
1243 01-10-2008 18:00:00 12.85833 C 8.26 g/m*3 12.86 C 0 km/h
1244 01-10-2008 19:00:00 12.675 C 7.8 g/m*3 12.68 C 0 km/h
1245 01-10-2008 20:00:00 12.31667 C 7.38 g/m*3 12.32 C 0 km/h
1246 01-10-2008 21:00:00 11.925 C 7.38 g/m*3 11.93 C 0 km/h
1247 01-10-2008 22:00:00 11.98333 C 7.19 g/m*3 11.98 C 0 km/h
1248 01-10-2008 23:00:00 11.7 C 6.39 g/m*3 11.7 C 0 km/h
1249 02-10-2008 00:00:00 11.01667 C 6.4 g/m*3 11.02 C 0 km/h
1250 02-10-2008 01:00:00 10.33333 C 6.55 g/m*3 10.33 C 0 km/h
Sensor: Nr:Datum:Temp:Abs-Feuchte:Windchill:Wind:
Aussen-T/F 1251 02-10-2008 02:00:00 10.04167 C 6.52 g/m*3 10.04 C 0 km/h
1252 02-10-2008 03:00:00 9.68333 C 6.72 g/m*3 9.68 C 0 km/h
1253 02-10-2008 04:00:00 9.825 C 6.88 g/m*3 9.82 C 0 km/h
1254 02-10-2008 05:00:00 10.19167 C 6.82 g/m*3 10.19 C 0 km/h
1255 02-10-2008 06:00:00 10.24167 C 6.87 g/m*3 10.24 C 0 km/h
1256 02-10-2008 07:00:00 9.69167 C 6.73 g/m*3 9.69 C 0 km/h
1257 02-10-2008 08:00:00 9.50833 C 6.72 g/m*3 9.51 C 0 km/h
1258 02-10-2008 09:00:00 10.26667 C 6.63 g/m*3 10.27 C 0 km/h
1259 02-10-2008 10:00:00 10.65 C 6.72 g/m*3 10.65 C 0 km/h
1260 02-10-2008 11:00:00 12.16667 C 6.29 g/m*3 12.17 C 0 km/h
1261 02-10-2008 12:00:00 13.08333 C 6.16 g/m*3 13.08 C 0 km/h
1262 02-10-2008 13:00:00 13.5 C 6.21 g/m*3 13.5 C 0 km/h
1263 02-10-2008 14:00:00 13.975 C 6.17 g/m*3 13.98 C 0 km/h
1264 02-10-2008 15:00:00 13.575 C 5.83 g/m*3 13.58 C 0 km/h
1265 02-10-2008 16:00:00 11.28333 C 6.67 g/m*3 11.28 C 0 km/h
1266 02-10-2008 17:00:00 12.70833 C 5.57 g/m*3 12.71 C 0 km/h
1267 02-10-2008 18:00:00 11.28333 C 5.6 g/m*3 11.28 C 0 km/h
1268 02-10-2008 19:00:00 10.10833 C 5.99 g/m*3 10.11 C 0 km/h
1269 02-10-2008 20:00:00 9.13333 C 6.09 g/m*3 9.13 C 0 km/h
1270 02-10-2008 21:00:00 8.425 C 6.13 g/m*3 8.43 C 0 km/h
1271 02-10-2008 22:00:00 8.22727 C 5.96 g/m*3 8.23 C 0 km/h
1272 02-10-2008 23:00:00 7.73333 C 6.23 g/m*3 7.73 C 0 km/h
1273 03-10-2008 00:00:00 7.96667 C 6.07 g/m*3 7.97 C 0 km/h
1274 03-10-2008 01:00:00 7.45 C 6.11 g/m*3 7.45 C 0 km/h
1275 03-10-2008 02:00:00 7.15833 C 6.35 g/m*3 7.16 C 0 km/h
Sensor: Nr:Datum:Temp:Abs-Feuchte:Windchill:Wind:
Aussen-T/F 1276 03-10-2008 03:00:00 6.69167 C 6.14 g/m*3 6.69 C 0 km/h
1277 03-10-2008 04:00:00 6.48333 C 6.27 g/m*3 6.48 C 0 km/h
1278 03-10-2008 05:00:00 6.20833 C 5.94 g/m*3 6.21 C 0 km/h
1279 03-10-2008 06:00:00 6.31667 C 5.87 g/m*3 6.32 C 0 km/h
1280 03-10-2008 07:00:00 6.08333 C 5.84 g/m*3 6.08 C 0 km/h
1281 03-10-2008 08:00:00 6.03333 C 5.9 g/m*3 6.03 C 0 km/h
1282 03-10-2008 09:00:00 7.13333 C 5.94 g/m*3 7.13 C 0 km/h
1283 03-10-2008 10:00:00 8.01667 C 5.59 g/m*3 8.02 C 0 km/h
1284 03-10-2008 11:00:00 9.85 C 5.5 g/m*3 9.85 C 0 km/h
1285 03-10-2008 12:00:00 10.84167 C 5.19 g/m*3 10.84 C 0 km/h
1286 03-10-2008 13:00:00 12.18333 C 4.97 g/m*3 12.18 C 0 km/h
1287 03-10-2008 14:00:00 13.60833 C 4.81 g/m*3 13.61 C 0 km/h
1288 03-10-2008 15:00:00 14.25 C 4.82 g/m*3 14.25 C 0 km/h
1289 03-10-2008 16:00:00 12.1 C 5.59 g/m*3 12.1 C 0 km/h
1290 03-10-2008 17:00:00 11.84167 C 5.78 g/m*3 11.84 C 0 km/h
1291 03-10-2008 18:00:00 10.73333 C 5.69 g/m*3 10.73 C 0 km/h
1292 03-10-2008 19:00:00 8.8 C 6.6 g/m*3 8.8 C 0 km/h
1293 03-10-2008 20:00:00 8.53333 C 6.82 g/m*3 8.53 C 0 km/h
1294 03-10-2008 21:00:00 8.875 C 6.77 g/m*3 8.88 C 0 km/h
1295 03-10-2008 22:00:00 8.78333 C 6.7 g/m*3 8.78 C 0 km/h
1296 03-10-2008 23:00:00 8.63333 C 6.76 g/m*3 8.63 C 0 km/h
1297 04-10-2008 00:00:00 8.59167 C 6.78 g/m*3 8.59 C 0 km/h
1298 04-10-2008 01:00:00 8.55 C 6.8 g/m*3 8.55 C 0 km/h
1299 04-10-2008 02:00:00 8.275 C 6.91 g/m*3 8.28 C 0 km/h
1300 04-10-2008 03:00:00 7.46667 C 7.08 g/m*3 7.47 C 0 km/h
Sensor: Nr:Datum:Temp:Abs-Feuchte:Windchill:Wind:
Aussen-T/F 1301 04-10-2008 04:00:00 7.325 C 7.16 g/m*3 7.33 C 0 km/h
1302 04-10-2008 05:00:00 7.575 C 7.29 g/m*3 7.58 C 0 km/h
1303 04-10-2008 06:00:00 7.34167 C 7.16 g/m*3 7.34 C 0 km/h
1304 04-10-2008 07:00:00 7.35833 C 7.14 g/m*3 7.36 C 0 km/h
1305 04-10-2008 08:00:00 7.825 C 7.18 g/m*3 7.83 C 0 km/h
1306 04-10-2008 09:00:00 8.1 C 6.83 g/m*3 8.1 C 0 km/h
1307 04-10-2008 10:00:00 9.225 C 6.27 g/m*3 9.23 C 0 km/h
1308 04-10-2008 11:00:00 10.35833 C 5.18 g/m*3 10.36 C 0 km/h
1309 04-10-2008 12:00:00 11.18333 C 4.44 g/m*3 11.18 C 0 km/h
1310 04-10-2008 13:00:00 11.50833 C 3.45 g/m*3 11.51 C 0 km/h
1311 04-10-2008 14:00:00 13.53333 C 2.98 g/m*3 13.53 C 0 km/h
1312 04-10-2008 15:00:00 13.6 C 3.03 g/m*3 13.6 C 0 km/h
1313 04-10-2008 16:00:00 14.04167 C 2.97 g/m*3 14.04 C 0 km/h
1314 04-10-2008 17:00:00 13.25833 C 3.48 g/m*3 13.26 C 0 km/h
1315 04-10-2008 18:00:00 11.33333 C 4 g/m*3 11.33 C 0 km/h
1316 04-10-2008 19:00:00 10.16667 C 4.28 g/m*3 10.17 C 0 km/h
1317 04-10-2008 20:00:00 9.81667 C 4.48 g/m*3 9.82 C 0 km/h
1318 04-10-2008 21:00:00 9.43333 C 4.81 g/m*3 9.43 C 0 km/h
1319 04-10-2008 22:00:00 9.3 C 5.08 g/m*3 9.3 C 0 km/h
1320 04-10-2008 23:00:00 9.225 C 5.11 g/m*3 9.23 C 0 km/h
1321 05-10-2008 00:00:00 9.11667 C 5.06 g/m*3 9.12 C 0 km/h
1322 05-10-2008 01:00:00 8.96667 C 5.04 g/m*3 8.97 C 0 km/h
1323 05-10-2008 02:00:00 8.56667 C 4.98 g/m*3 8.57 C 0 km/h
1324 05-10-2008 03:00:00 8.55 C 5.08 g/m*3 8.55 C 0 km/h
1325 05-10-2008 04:00:00 9.50833 C 5.27 g/m*3 9.51 C 0 km/h
Sensor: Nr:Datum:Temp:Abs-Feuchte:Windchill:Wind:
Aussen-T/F 1326 05-10-2008 05:00:00 9.975 C 5.54 g/m*3 9.98 C 0 km/h
1327 05-10-2008 06:00:00 10.11667 C 5.75 g/m*3 10.12 C 0 km/h
1328 05-10-2008 07:00:00 10.375 C 5.88 g/m*3 10.38 C 0 km/h
1329 05-10-2008 08:00:00 11.21667 C 6 g/m*3 11.22 C 0 km/h
1330 05-10-2008 09:00:00 11.96667 C 6.03 g/m*3 11.97 C 0 km/h
1331 05-10-2008 10:00:00 12.40833 C 6.09 g/m*3 12.41 C 0 km/h
1332 05-10-2008 11:00:00 12.41667 C 6.17 g/m*3 12.42 C 0 km/h
1333 05-10-2008 12:00:00 12.625 C 6.2 g/m*3 12.63 C 0 km/h
1334 05-10-2008 13:00:00 12.875 C 6.37 g/m*3 12.88 C 0 km/h
1335 05-10-2008 14:00:00 13.3 C 6.21 g/m*3 13.3 C 0 km/h
1336 05-10-2008 15:00:00 13.825 C 5.95 g/m*3 13.83 C 0 km/h
1337 05-10-2008 16:00:00 14.04167 C 5.83 g/m*3 14.04 C 0 km/h
1338 05-10-2008 17:00:00 14.175 C 5.86 g/m*3 14.18 C 0 km/h
1339 05-10-2008 18:00:00 14.09167 C 5.81 g/m*3 14.09 C 0 km/h
1340 05-10-2008 19:00:00 13.65833 C 6.2 g/m*3 13.66 C 0 km/h
1341 05-10-2008 20:00:00 12.75833 C 6.96 g/m*3 12.76 C 0 km/h
1342 05-10-2008 21:00:00 11.65833 C 7.95 g/m*3 11.66 C 0 km/h
1343 05-10-2008 22:00:00 12.075 C 8.06 g/m*3 12.08 C 0 km/h
1344 05-10-2008 23:00:00 12.30833 C 8.27 g/m*3 12.31 C 0 km/h
1345 06-10-2008 00:00:00 12.51667 C 8.74 g/m*3 12.52 C 0 km/h
1346 06-10-2008 01:00:00 13.15 C 9.09 g/m*3 13.15 C 0 km/h
1347 06-10-2008 02:00:00 13.15833 C 9.65 g/m*3 13.16 C 0 km/h
1348 06-10-2008 03:00:00 13.43333 C 10.12 g/m*3 13.43 C 0 km/h
1349 06-10-2008 04:00:00 13.89167 C 10.26 g/m*3 13.89 C 0 km/h
1350 06-10-2008 05:00:00 13.78333 C 10.74 g/m*3 13.78 C 0 km/h
Sensor: Nr:Datum:Temp:Abs-Feuchte:Windchill:Wind:
Aussen-T/F 1351 06-10-2008 06:00:00 13.875 C 10.77 g/m*3 13.88 C 0 km/h
1352 06-10-2008 07:00:00 13.64167 C 10.9 g/m*3 13.64 C 0 km/h
1353 06-10-2008 08:00:00 13.7 C 10.96 g/m*3 13.7 C 0 km/h
1354 06-10-2008 09:00:00 14.61667 C 10.95 g/m*3 14.62 C 0 km/h
1355 06-10-2008 10:00:00 15.7 C 10.44 g/m*3 15.7 C 0 km/h
1356 06-10-2008 11:00:00 16.73333 C 9.8 g/m*3 16.73 C 0 km/h
1357 06-10-2008 12:00:00 16.80833 C 9.75 g/m*3 16.81 C 0 km/h
1358 06-10-2008 13:00:00 17.36667 C 9.71 g/m*3 17.37 C 0 km/h
1359 06-10-2008 14:00:00 17.26667 C 9.73 g/m*3 17.27 C 0 km/h
1360 06-10-2008 15:00:00 17.95 C 10.17 g/m*3 17.95 C 0 km/h
1361 06-10-2008 16:00:00 16.675 C 10.34 g/m*3 16.68 C 0 km/h
1362 06-10-2008 17:00:00 16.05 C 9.76 g/m*3 16.05 C 0 km/h
1363 06-10-2008 18:00:00 14.78333 C 9.81 g/m*3 14.78 C 0 km/h
1364 06-10-2008 19:00:00 14.05 C 10.26 g/m*3 14.05 C 0 km/h
1365 06-10-2008 20:00:00 13.85 C 10.44 g/m*3 13.85 C 0 km/h
1366 06-10-2008 21:00:00 13.9 C 10.43 g/m*3 13.9 C 0 km/h
1367 06-10-2008 22:00:00 14.05833 C 9.99 g/m*3 14.06 C 0 km/h
1368 06-10-2008 23:00:00 14.075 C 9.84 g/m*3 14.08 C 0 km/h
1369 07-10-2008 00:00:00 13.78333 C 9.9 g/m*3 13.78 C 0 km/h
1370 07-10-2008 01:00:00 13.49167 C 9.89 g/m*3 13.49 C 0 km/h
1371 07-10-2008 02:00:00 13.31667 C 9.94 g/m*3 13.32 C 0 km/h
1372 07-10-2008 03:00:00 12.8 C 9.83 g/m*3 12.8 C 0 km/h
1373 07-10-2008 04:00:00 12.90833 C 9.92 g/m*3 12.91 C 0 km/h
1374 07-10-2008 05:00:00 12.725 C 9.83 g/m*3 12.73 C 0 km/h
1375 07-10-2008 06:00:00 12.23333 C 9.7 g/m*3 12.23 C 0 km/h
Sensor: Nr:Datum:Temp:Abs-Feuchte:Windchill:Wind:
Aussen-T/F 1376 07-10-2008 07:00:00 12.53333 C 10.03 g/m*3 12.53 C 0 km/h
1377 07-10-2008 08:00:00 12.55833 C 9.98 g/m*3 12.56 C 0 km/h
1378 07-10-2008 09:00:00 13.58333 C 10.48 g/m*3 13.58 C 0 km/h
1379 07-10-2008 10:00:00 14.36667 C 10.33 g/m*3 14.37 C 0 km/h
1380 07-10-2008 11:00:00 15.98333 C 10.63 g/m*3 15.98 C 0 km/h
1381 07-10-2008 12:00:00 17.84167 C 9.43 g/m*3 17.84 C 0 km/h
1382 07-10-2008 13:00:00 18.51667 C 9.62 g/m*3 18.52 C 0 km/h
1383 07-10-2008 14:00:00 19.5 C 9.06 g/m*3 19.5 C 0 km/h
1384 07-10-2008 15:00:00 19.4 C 9.37 g/m*3 19.4 C 0 km/h
1385 07-10-2008 16:00:00 18.56667 C 10.06 g/m*3 18.57 C 0 km/h
1386 07-10-2008 17:00:00 18.175 C 9.64 g/m*3 18.18 C 0 km/h
1387 07-10-2008 18:00:00 17.26667 C 10.16 g/m*3 17.27 C 0 km/h
1388 07-10-2008 19:00:00 16.50833 C 10.23 g/m*3 16.51 C 0 km/h
1389 07-10-2008 20:00:00 15.04167 C 10.77 g/m*3 15.04 C 0 km/h
1390 07-10-2008 21:00:00 14.59167 C 11.2 g/m*3 14.59 C 0 km/h
1391 07-10-2008 22:00:00 14.44545 C 11.28 g/m*3 14.45 C 0 km/h
1392 07-10-2008 23:00:00 14.09167 C 11.16 g/m*3 14.09 C 0 km/h
1393 08-10-2008 00:00:00 13.93333 C 11.12 g/m*3 13.93 C 0 km/h
1394 08-10-2008 01:00:00 13.74167 C 11.1 g/m*3 13.74 C 0 km/h
1395 08-10-2008 02:00:00 13.475 C 10.98 g/m*3 13.48 C 0 km/h
1396 08-10-2008 03:00:00 13.09167 C 10.72 g/m*3 13.09 C 0 km/h
1397 08-10-2008 04:00:00 12.95 C 10.68 g/m*3 12.95 C 0 km/h
1398 08-10-2008 05:00:00 12.93333 C 10.72 g/m*3 12.93 C 0 km/h
1399 08-10-2008 06:00:00 12.9 C 10.71 g/m*3 12.9 C 0 km/h
1400 08-10-2008 07:00:00 12.675 C 10.56 g/m*3 12.68 C 0 km/h
Sensor: Nr:Datum:Temp:Abs-Feuchte:Windchill:Wind:
Aussen-T/F 1401 08-10-2008 08:00:00 12.80833 C 10.65 g/m*3 12.81 C 0 km/h
1402 08-10-2008 09:00:00 13.09167 C 10.84 g/m*3 13.09 C 0 km/h
1403 08-10-2008 10:00:00 13.45833 C 11.08 g/m*3 13.46 C 0 km/h
1404 08-10-2008 11:00:00 14.58333 C 11.83 g/m*3 14.58 C 0 km/h
1405 08-10-2008 12:00:00 15.71667 C 12.56 g/m*3 15.72 C 0 km/h
1406 08-10-2008 13:00:00 16.28333 C 12.62 g/m*3 16.28 C 0 km/h
1407 08-10-2008 14:00:00 15.65833 C 11.42 g/m*3 15.66 C 0 km/h
1408 08-10-2008 15:00:00 13.46667 C 9.92 g/m*3 13.47 C 0 km/h
1409 08-10-2008 16:00:00 12.95833 C 9.84 g/m*3 12.96 C 0 km/h
1410 08-10-2008 17:00:00 12.575 C 9.29 g/m*3 12.58 C 0 km/h
1411 08-10-2008 18:00:00 12.1 C 8.99 g/m*3 12.1 C 0 km/h
1412 08-10-2008 19:00:00 11.51667 C 9.35 g/m*3 11.52 C 0 km/h
1413 08-10-2008 20:00:00 11.725 C 9.73 g/m*3 11.73 C 0 km/h
1414 08-10-2008 21:00:00 12.00833 C 9.92 g/m*3 12.01 C 0 km/h
1415 08-10-2008 22:00:00 12.25 C 10.07 g/m*3 12.25 C 0 km/h
1416 08-10-2008 23:00:00 12.43333 C 10.19 g/m*3 12.43 C 0 km/h
1417 09-10-2008 00:00:00 12.475 C 10.09 g/m*3 12.48 C 0 km/h
1418 09-10-2008 01:00:00 12.34167 C 9.9 g/m*3 12.34 C 0 km/h
1419 09-10-2008 02:00:00 12.2 C 9.71 g/m*3 12.2 C 0 km/h
1420 09-10-2008 03:00:00 12.24167 C 9.7 g/m*3 12.24 C 0 km/h
1421 09-10-2008 04:00:00 12.19167 C 9.52 g/m*3 12.19 C 0 km/h
1422 09-10-2008 05:00:00 12.05833 C 9.33 g/m*3 12.06 C 0 km/h
1423 09-10-2008 06:00:00 11.71667 C 9.11 g/m*3 11.72 C 0 km/h
1424 09-10-2008 07:00:00 11.15833 C 8.85 g/m*3 11.16 C 0 km/h
1425 09-10-2008 08:00:00 11.50833 C 9.03 g/m*3 11.51 C 0 km/h
Sensor: Nr:Datum:Temp:Abs-Feuchte:Windchill:Wind:
Aussen-T/F 1426 09-10-2008 09:00:00 12.35 C 9.16 g/m*3 12.35 C 0 km/h
1427 09-10-2008 10:00:00 13.2 C 8.93 g/m*3 13.2 C 0 km/h
1428 09-10-2008 11:00:00 14.16667 C 8.63 g/m*3 14.17 C 0 km/h
1429 09-10-2008 12:00:00 14.625 C 8.46 g/m*3 14.63 C 0 km/h
1430 09-10-2008 13:00:00 15.10833 C 8.38 g/m*3 15.11 C 0 km/h
1431 09-10-2008 14:00:00 16.08333 C 7.52 g/m*3 16.08 C 0 km/h
1432 09-10-2008 15:00:00 17.125 C 7.14 g/m*3 17.13 C 0 km/h
1433 09-10-2008 16:00:00 16.975 C 7.28 g/m*3 16.98 C 0 km/h
1434 09-10-2008 17:00:00 15.69167 C 7.54 g/m*3 15.69 C 0 km/h
1435 09-10-2008 18:00:00 13.95 C 8.17 g/m*3 13.95 C 0 km/h
1436 09-10-2008 19:00:00 12.18333 C 8.26 g/m*3 12.18 C 0 km/h
1437 09-10-2008 20:00:00 11.88333 C 8.49 g/m*3 11.88 C 0 km/h
1438 09-10-2008 21:00:00 12.1 C 8.58 g/m*3 12.1 C 0 km/h
1439 09-10-2008 22:00:00 11.94167 C 8.57 g/m*3 11.94 C 0 km/h
1440 09-10-2008 23:00:00 11.75 C 8.61 g/m*3 11.75 C 0 km/h
1441 10-10-2008 00:00:00 11.31667 C 8.48 g/m*3 11.32 C 0 km/h
1442 10-10-2008 01:00:00 10.875 C 8.37 g/m*3 10.88 C 0 km/h
1443 10-10-2008 02:00:00 9.925 C 8.03 g/m*3 9.93 C 0 km/h
1444 10-10-2008 03:00:00 8.8 C 7.67 g/m*3 8.8 C 0 km/h
1445 10-10-2008 04:00:00 8.225 C 7.49 g/m*3 8.23 C 0 km/h
1446 10-10-2008 05:00:00 8.10833 C 7.61 g/m*3 8.11 C 0 km/h
1447 10-10-2008 06:00:00 8.31667 C 7.83 g/m*3 8.32 C 0 km/h
1448 10-10-2008 07:00:00 8.25833 C 7.77 g/m*3 8.26 C 0 km/h
1449 10-10-2008 08:00:00 8.3 C 7.82 g/m*3 8.3 C 0 km/h
1450 10-10-2008 09:00:00 9.00833 C 8.13 g/m*3 9.01 C 0 km/h
Sensor: Nr:Datum:Temp:Abs-Feuchte:Windchill:Wind:
Aussen-T/F 1451 10-10-2008 10:00:00 10.21667 C 8.48 g/m*3 10.22 C 0 km/h
1452 10-10-2008 11:00:00 12.14167 C 8.5 g/m*3 12.14 C 0 km/h
1453 10-10-2008 12:00:00 13.30833 C 8.75 g/m*3 13.31 C 0 km/h
1454 10-10-2008 13:00:00 16.19167 C 9.11 g/m*3 16.19 C 0 km/h
1455 10-10-2008 14:00:00 18.25 C 8.99 g/m*3 18.25 C 0 km/h
1456 10-10-2008 15:00:00 21.05833 C 8.76 g/m*3 21.06 C 0 km/h
1457 10-10-2008 16:00:00 22.00833 C 7.51 g/m*3 22.01 C 0 km/h
1458 10-10-2008 17:00:00 20.575 C 7.98 g/m*3 20.58 C 0 km/h
1459 10-10-2008 18:00:00 17.58333 C 8.74 g/m*3 17.58 C 0 km/h
1460 10-10-2008 19:00:00 16.00833 C 9.2 g/m*3 16.01 C 0 km/h
1461 10-10-2008 20:00:00 14.75833 C 9.31 g/m*3 14.76 C 0 km/h
1462 10-10-2008 21:00:00 14.00833 C 9.22 g/m*3 14.01 C 0 km/h
1463 10-10-2008 22:00:00 12.95833 C 9.17 g/m*3 12.96 C 0 km/h
1464 10-10-2008 23:00:00 12.23333 C 9.05 g/m*3 12.23 C 0 km/h
1465 11-10-2008 00:00:00 11.38333 C 8.72 g/m*3 11.38 C 0 km/h
1466 11-10-2008 01:00:00 10.475 C 8.33 g/m*3 10.48 C 0 km/h
1467 11-10-2008 02:00:00 9.90833 C 8.13 g/m*3 9.91 C 0 km/h
1468 11-10-2008 03:00:00 9.38333 C 8 g/m*3 9.38 C 0 km/h
1469 11-10-2008 04:00:00 9.15 C 8 g/m*3 9.15 C 0 km/h
1470 11-10-2008 05:00:00 9.35 C 8.24 g/m*3 9.35 C 0 km/h
1471 11-10-2008 06:00:00 9.20833 C 8.13 g/m*3 9.21 C 0 km/h
1472 11-10-2008 07:00:00 9.11667 C 8.08 g/m*3 9.12 C 0 km/h
1473 11-10-2008 08:00:00 9.13333 C 8.09 g/m*3 9.13 C 0 km/h
1474 11-10-2008 09:00:00 9.43333 C 8.29 g/m*3 9.43 C 0 km/h
1475 11-10-2008 10:00:00 10.9 C 8.6 g/m*3 10.9 C 0 km/h
Sensor: Nr:Datum:Temp:Abs-Feuchte:Windchill:Wind:
Aussen-T/F 1476 11-10-2008 11:00:00 12.525 C 8.78 g/m*3 12.53 C 0 km/h
1477 11-10-2008 12:00:00 13.31667 C 9.07 g/m*3 13.32 C 0 km/h
1478 11-10-2008 13:00:00 16.00833 C 9.59 g/m*3 16.01 C 0 km/h
1479 11-10-2008 14:00:00 19.05 C 9.52 g/m*3 19.05 C 0 km/h
1480 11-10-2008 15:00:00 21.00833 C 9.45 g/m*3 21.01 C 0 km/h
1481 11-10-2008 16:00:00 21.06667 C 9.19 g/m*3 21.07 C 0 km/h
1482 11-10-2008 17:00:00 18.975 C 9.15 g/m*3 18.98 C 0 km/h
1483 11-10-2008 18:00:00 15.84167 C 9.22 g/m*3 15.84 C 0 km/h
1484 11-10-2008 19:00:00 14.08333 C 9.35 g/m*3 14.08 C 0 km/h
1485 11-10-2008 20:00:00 14.35833 C 9.6 g/m*3 14.36 C 0 km/h
1486 11-10-2008 21:00:00 14.6 C 9.66 g/m*3 14.6 C 0 km/h
1487 11-10-2008 22:00:00 14.51667 C 9.71 g/m*3 14.52 C 0 km/h
1488 11-10-2008 23:00:00 14.30833 C 9.59 g/m*3 14.31 C 0 km/h
1489 12-10-2008 00:00:00 13.70833 C 9.25 g/m*3 13.71 C 0 km/h
1490 12-10-2008 01:00:00 12.7 C 8.91 g/m*3 12.7 C 0 km/h
1491 12-10-2008 02:00:00 12.33333 C 9.11 g/m*3 12.33 C 0 km/h
1492 12-10-2008 03:00:00 12.94167 C 9.22 g/m*3 12.94 C 0 km/h
1493 12-10-2008 04:00:00 12.90833 C 9.32 g/m*3 12.91 C 0 km/h
1494 12-10-2008 05:00:00 12.98333 C 9.32 g/m*3 12.98 C 0 km/h
1495 12-10-2008 06:00:00 12.85833 C 9.31 g/m*3 12.86 C 0 km/h
1496 12-10-2008 07:00:00 12.74167 C 9.28 g/m*3 12.74 C 0 km/h
1497 12-10-2008 08:00:00 12.96667 C 9.34 g/m*3 12.97 C 0 km/h
1498 12-10-2008 09:00:00 13.11667 C 9.17 g/m*3 13.12 C 0 km/h
1499 12-10-2008 10:00:00 13.58333 C 9.24 g/m*3 13.58 C 0 km/h
1500 12-10-2008 11:00:00 14.46667 C 9.11 g/m*3 14.47 C 0 km/h
Sensor: Nr:Datum:Temp:Abs-Feuchte:Windchill:Wind:
Aussen-T/F 1501 12-10-2008 12:00:00 15.71667 C 9.32 g/m*3 15.72 C 0 km/h
1502 12-10-2008 13:00:00 18.31667 C 9.51 g/m*3 18.32 C 0 km/h
1503 12-10-2008 14:00:00 20.95 C 9.25 g/m*3 20.95 C 0 km/h
1504 12-10-2008 15:00:00 22.90833 C 9.46 g/m*3 22.91 C 0 km/h
1505 12-10-2008 16:00:00 22.6 C 9.58 g/m*3 22.6 C 0 km/h
1506 12-10-2008 17:00:00 20.90833 C 9.85 g/m*3 20.91 C 0 km/h
1507 12-10-2008 18:00:00 18.45 C 10.21 g/m*3 18.45 C 0 km/h
1508 12-10-2008 19:00:00 16.4 C 10.43 g/m*3 16.4 C 0 km/h
1509 12-10-2008 20:00:00 15.33333 C 10.35 g/m*3 15.33 C 0 km/h
1510 12-10-2008 21:00:00 14.6 C 10.22 g/m*3 14.6 C 0 km/h
1511 12-10-2008 22:00:00 13.525 C 9.81 g/m*3 13.53 C 0 km/h
1512 12-10-2008 23:00:00 12.75833 C 9.47 g/m*3 12.76 C 0 km/h
1513 13-10-2008 00:00:00 11.975 C 9.08 g/m*3 11.98 C 0 km/h
1514 13-10-2008 01:00:00 11.3 C 8.82 g/m*3 11.3 C 0 km/h
1515 13-10-2008 02:00:00 11.55833 C 8.96 g/m*3 11.56 C 0 km/h
1516 13-10-2008 03:00:00 11.475 C 8.87 g/m*3 11.48 C 0 km/h
1517 13-10-2008 04:00:00 11.19167 C 8.81 g/m*3 11.19 C 0 km/h
1518 13-10-2008 05:00:00 10.69167 C 8.73 g/m*3 10.69 C 0 km/h
1519 13-10-2008 06:00:00 10.55 C 8.76 g/m*3 10.55 C 0 km/h
1520 13-10-2008 07:00:00 10.03333 C 8.55 g/m*3 10.03 C 0 km/h
1521 13-10-2008 08:00:00 10.19167 C 8.66 g/m*3 10.19 C 0 km/h
1522 13-10-2008 09:00:00 10.43333 C 8.74 g/m*3 10.43 C 0 km/h
1523 13-10-2008 10:00:00 11.94167 C 9.06 g/m*3 11.94 C 0 km/h
1524 13-10-2008 11:00:00 13.69167 C 9.18 g/m*3 13.69 C 0 km/h
1525 13-10-2008 12:00:00 15.875 C 9.94 g/m*3 15.88 C 0 km/h
Sensor: Nr:Datum:Temp:Abs-Feuchte:Windchill:Wind:
Aussen-T/F 1526 13-10-2008 13:00:00 18.26667 C 10.29 g/m*3 18.27 C 0 km/h
1527 13-10-2008 14:00:00 19.25833 C 9.73 g/m*3 19.26 C 0 km/h
1528 13-10-2008 15:00:00 21.15 C 9.09 g/m*3 21.15 C 0 km/h
1529 13-10-2008 16:00:00 20.11667 C 9.16 g/m*3 20.12 C 0 km/h
1530 13-10-2008 17:00:00 19.10833 C 9.42 g/m*3 19.11 C 0 km/h
1531 13-10-2008 18:00:00 17.89167 C 9.16 g/m*3 17.89 C 0 km/h
1532 13-10-2008 19:00:00 17.275 C 9.54 g/m*3 17.27 C 0 km/h
1533 13-10-2008 20:00:00 16.36667 C 10.1 g/m*3 16.37 C 0 km/h
1534 13-10-2008 21:00:00 15.93636 C 10.18 g/m*3 15.94 C 0 km/h
1535 13-10-2008 22:00:00 15.05 C 10.14 g/m*3 15.05 C 0 km/h
1536 13-10-2008 23:00:00 14.63333 C 10.48 g/m*3 14.63 C 0 km/h
1537 14-10-2008 00:00:00 14.73333 C 10.58 g/m*3 14.73 C 0 km/h
1538 14-10-2008 01:00:00 14.85833 C 10.8 g/m*3 14.86 C 0 km/h
1539 14-10-2008 02:00:00 15.08333 C 10.88 g/m*3 15.08 C 0 km/h
1540 14-10-2008 03:00:00 15.31667 C 10.95 g/m*3 15.32 C 0 km/h
1541 14-10-2008 04:00:00 15.38333 C 11.06 g/m*3 15.38 C 0 km/h
1542 14-10-2008 05:00:00 14.83333 C 10.63 g/m*3 14.83 C 0 km/h
1543 14-10-2008 06:00:00 14.33333 C 10.52 g/m*3 14.33 C 0 km/h
1544 14-10-2008 07:00:00 14.41667 C 10.63 g/m*3 14.42 C 0 km/h
1545 14-10-2008 08:00:00 14.025 C 10.06 g/m*3 14.03 C 0 km/h
1546 14-10-2008 09:00:00 15.09167 C 10.01 g/m*3 15.09 C 0 km/h
1547 14-10-2008 10:00:00 16.425 C 9.19 g/m*3 16.43 C 0 km/h
1548 14-10-2008 11:00:00 17.24167 C 9.03 g/m*3 17.24 C 0 km/h
1549 14-10-2008 12:00:00 18.48333 C 8.18 g/m*3 18.48 C 0 km/h
1550 14-10-2008 13:00:00 17.39167 C 8.57 g/m*3 17.39 C 0 km/h
Sensor: Nr:Datum:Temp:Abs-Feuchte:Windchill:Wind:
Aussen-T/F 1551 14-10-2008 14:00:00 17.4 C 8.66 g/m*3 17.4 C 0 km/h
1552 14-10-2008 15:00:00 17.61667 C 8.12 g/m*3 17.62 C 0 km/h
1553 14-10-2008 16:00:00 18.49167 C 7.64 g/m*3 18.49 C 0 km/h
1554 14-10-2008 17:00:00 18.18333 C 7.36 g/m*3 18.18 C 0 km/h
1555 14-10-2008 18:00:00 15.7 C 7.96 g/m*3 15.7 C 0 km/h
1556 14-10-2008 19:00:00 14.925 C 8.2 g/m*3 14.93 C 0 km/h
1557 14-10-2008 20:00:00 14.64167 C 8.35 g/m*3 14.64 C 0 km/h
1558 14-10-2008 21:00:00 14.25833 C 8.18 g/m*3 14.26 C 0 km/h
1559 14-10-2008 22:00:00 13.6 C 8.28 g/m*3 13.6 C 0 km/h
1560 14-10-2008 23:00:00 12.79167 C 8.4 g/m*3 12.79 C 0 km/h
1561 15-10-2008 00:00:00 12.43333 C 8.43 g/m*3 12.43 C 0 km/h
1562 15-10-2008 01:00:00 12.11667 C 8.44 g/m*3 12.12 C 0 km/h
1563 15-10-2008 02:00:00 11.86667 C 8.34 g/m*3 11.87 C 0 km/h
1564 15-10-2008 03:00:00 11.49167 C 8.23 g/m*3 11.49 C 0 km/h
1565 15-10-2008 04:00:00 11.4 C 8.24 g/m*3 11.4 C 0 km/h
1566 15-10-2008 05:00:00 11.46667 C 8.2 g/m*3 11.47 C 0 km/h
1567 15-10-2008 06:00:00 11.225 C 8.18 g/m*3 11.23 C 0 km/h
1568 15-10-2008 07:00:00 11.15833 C 8.24 g/m*3 11.16 C 0 km/h
1569 15-10-2008 08:00:00 11.46667 C 8.43 g/m*3 11.47 C 0 km/h
1570 15-10-2008 09:00:00 12.29167 C 8.62 g/m*3 12.29 C 0 km/h
1571 15-10-2008 10:00:00 13.03333 C 8.77 g/m*3 13.03 C 0 km/h
1572 15-10-2008 11:00:00 14.61667 C 9.07 g/m*3 14.62 C 0 km/h
1573 15-10-2008 12:00:00 14.90833 C 9.04 g/m*3 14.91 C 0 km/h
1574 15-10-2008 13:00:00 15.36667 C 8.96 g/m*3 15.37 C 0 km/h
1575 15-10-2008 14:00:00 15.725 C 8.86 g/m*3 15.73 C 0 km/h
Sensor: Nr:Datum:Temp:Abs-Feuchte:Windchill:Wind:
Aussen-T/F 1576 15-10-2008 15:00:00 15.56667 C 8.7 g/m*3 15.57 C 0 km/h
1577 15-10-2008 16:00:00 15.60833 C 8.7 g/m*3 15.61 C 0 km/h
1578 15-10-2008 17:00:00 15.53333 C 8.7 g/m*3 15.53 C 0 km/h
1579 15-10-2008 18:00:00 15.19167 C 8.99 g/m*3 15.19 C 0 km/h
1580 15-10-2008 19:00:00 13.94167 C 9.98 g/m*3 13.94 C 0 km/h
1581 15-10-2008 20:00:00 14.53333 C 9.96 g/m*3 14.53 C 0 km/h
1582 15-10-2008 21:00:00 14.83333 C 9.92 g/m*3 14.83 C 0 km/h
1583 15-10-2008 22:00:00 15.1 C 9.83 g/m*3 15.1 C 0 km/h
1584 15-10-2008 23:00:00 14.89167 C 9.97 g/m*3 14.89 C 0 km/h
1585 16-10-2008 00:00:00 14.925 C 9.82 g/m*3 14.93 C 0 km/h
1586 16-10-2008 01:00:00 14.99167 C 9.75 g/m*3 14.99 C 0 km/h
1587 16-10-2008 02:00:00 14.89167 C 9.77 g/m*3 14.89 C 0 km/h
1588 16-10-2008 03:00:00 14.86667 C 9.41 g/m*3 14.87 C 0 km/h
1589 16-10-2008 04:00:00 14.33333 C 9.27 g/m*3 14.33 C 0 km/h
1590 16-10-2008 05:00:00 13.28333 C 9.46 g/m*3 13.28 C 0 km/h
1591 16-10-2008 06:00:00 13.15833 C 9.33 g/m*3 13.16 C 0 km/h
1592 16-10-2008 07:00:00 13.16667 C 8.14 g/m*3 13.17 C 0 km/h
1593 16-10-2008 08:00:00 12.95 C 8.14 g/m*3 12.95 C 0 km/h
1594 16-10-2008 09:00:00 13.03333 C 8.12 g/m*3 13.03 C 0 km/h
1595 16-10-2008 10:00:00 12.175 C 8.71 g/m*3 12.18 C 0 km/h
1596 16-10-2008 11:00:00 12.025 C 9.12 g/m*3 12.03 C 0 km/h
1597 16-10-2008 12:00:00 12.24167 C 9.41 g/m*3 12.24 C 0 km/h
1598 16-10-2008 13:00:00 12.09167 C 9.28 g/m*3 12.09 C 0 km/h
1599 16-10-2008 14:00:00 10.925 C 8.85 g/m*3 10.93 C 0 km/h
1600 16-10-2008 15:00:00 9.65833 C 8.45 g/m*3 9.66 C 0 km/h
Sensor: Nr:Datum:Temp:Abs-Feuchte:Windchill:Wind:
Aussen-T/F 1601 16-10-2008 16:00:00 9.51667 C 8.41 g/m*3 9.52 C 0 km/h
1602 16-10-2008 17:00:00 10.05833 C 8.07 g/m*3 10.06 C 0 km/h
1603 16-10-2008 18:00:00 9.86667 C 7.49 g/m*3 9.87 C 0 km/h
1604 16-10-2008 19:00:00 8.75 C 7.5 g/m*3 8.75 C 0 km/h
1605 16-10-2008 20:00:00 8.425 C 6.89 g/m*3 8.43 C 0 km/h
1606 16-10-2008 21:00:00 8.29167 C 6.64 g/m*3 8.29 C 0 km/h
1607 16-10-2008 22:00:00 7.65833 C 6.6 g/m*3 7.66 C 0 km/h
1608 16-10-2008 23:00:00 6.98333 C 6.52 g/m*3 6.98 C 0 km/h
1609 17-10-2008 00:00:00 6.825 C 6.29 g/m*3 6.83 C 0 km/h
1610 17-10-2008 01:00:00 6.55833 C 6.19 g/m*3 6.56 C 0 km/h
1611 17-10-2008 02:00:00 6.16667 C 6.18 g/m*3 6.17 C 0 km/h
1612 17-10-2008 03:00:00 5.84167 C 6.18 g/m*3 5.84 C 0 km/h
1613 17-10-2008 04:00:00 5.89167 C 6.16 g/m*3 5.89 C 0 km/h
1614 17-10-2008 05:00:00 6.4 C 6.1 g/m*3 6.4 C 0 km/h
1615 17-10-2008 06:00:00 5.95833 C 6.02 g/m*3 5.96 C 0 km/h
1616 17-10-2008 07:00:00 5.375 C 6.01 g/m*3 5.38 C 0 km/h
1617 17-10-2008 08:00:00 5.28333 C 6.07 g/m*3 5.28 C 0 km/h
1618 17-10-2008 09:00:00 6.38333 C 6.29 g/m*3 6.38 C 0 km/h
1619 17-10-2008 10:00:00 7.81667 C 6.3 g/m*3 7.82 C 0 km/h
1620 17-10-2008 11:00:00 8.325 C 6.37 g/m*3 8.32 C 0 km/h
1621 17-10-2008 12:00:00 10.20833 C 6.54 g/m*3 10.21 C 0 km/h
1622 17-10-2008 13:00:00 12.45833 C 5.83 g/m*3 12.46 C 0 km/h
1623 17-10-2008 14:00:00 12.48333 C 5.38 g/m*3 12.48 C 0 km/h
1624 17-10-2008 15:00:00 13.14167 C 5.16 g/m*3 13.14 C 0 km/h
1625 17-10-2008 16:00:00 12.36667 C 5.43 g/m*3 12.37 C 0 km/h
Sensor: Nr:Datum:Temp:Abs-Feuchte:Windchill:Wind:
Aussen-T/F 1626 17-10-2008 17:00:00 11.86667 C 6.17 g/m*3 11.87 C 0 km/h
1627 17-10-2008 18:00:00 10.04167 C 6.16 g/m*3 10.04 C 0 km/h
1628 17-10-2008 19:00:00 8.21667 C 6.09 g/m*3 8.22 C 0 km/h
1629 17-10-2008 20:00:00 7.175 C 6.03 g/m*3 7.18 C 0 km/h
1630 17-10-2008 21:00:00 6.475 C 6.03 g/m*3 6.48 C 0 km/h
1631 17-10-2008 22:00:00 5.69167 C 5.96 g/m*3 5.69 C 0 km/h
1632 17-10-2008 23:00:00 5.125 C 5.9 g/m*3 5.13 C 0 km/h
1633 18-10-2008 00:00:00 4.575 C 5.85 g/m*3 4.58 C 0 km/h
1634 18-10-2008 01:00:00 4.075 C 5.75 g/m*3 4.08 C 0 km/h
1635 18-10-2008 02:00:00 3.49167 C 5.59 g/m*3 3.49 C 0 km/h
1636 18-10-2008 03:00:00 3.475 C 5.64 g/m*3 3.48 C 0 km/h
1637 18-10-2008 04:00:00 3.8 C 5.83 g/m*3 3.8 C 0 km/h
1638 18-10-2008 05:00:00 3.66667 C 5.78 g/m*3 3.67 C 0 km/h
1639 18-10-2008 06:00:00 3.33333 C 5.57 g/m*3 3.33 C 0 km/h
1640 18-10-2008 07:00:00 2.73333 C 5.4 g/m*3 2.73 C 0 km/h
1641 18-10-2008 08:00:00 2.8 C 5.44 g/m*3 2.8 C 0 km/h
1642 18-10-2008 09:00:00 3.08333 C 5.48 g/m*3 3.08 C 0 km/h
1643 18-10-2008 10:00:00 3.775 C 5.71 g/m*3 3.78 C 0 km/h
1644 18-10-2008 11:00:00 4.9 C 5.84 g/m*3 4.9 C 0 km/h
1645 18-10-2008 12:00:00 6.85833 C 6.26 g/m*3 6.86 C 0 km/h
1646 18-10-2008 13:00:00 10.225 C 6.7 g/m*3 10.23 C 0 km/h
1647 18-10-2008 14:00:00 14.24167 C 6.77 g/m*3 14.24 C 0 km/h
1648 18-10-2008 15:00:00 15.84167 C 5.08 g/m*3 15.84 C 0 km/h
1649 18-10-2008 16:00:00 15.65 C 4.69 g/m*3 15.65 C 0 km/h
1650 18-10-2008 17:00:00 13.70833 C 4.87 g/m*3 13.71 C 0 km/h
Sensor: Nr:Datum:Temp:Abs-Feuchte:Windchill:Wind:
Aussen-T/F 1651 18-10-2008 18:00:00 11.41667 C 5.22 g/m*3 11.42 C 0 km/h
1652 18-10-2008 19:00:00 9.81667 C 5.62 g/m*3 9.82 C 0 km/h
1653 18-10-2008 20:00:00 8.55 C 5.79 g/m*3 8.55 C 0 km/h
1654 18-10-2008 21:00:00 7.7 C 5.82 g/m*3 7.7 C 0 km/h
1655 18-10-2008 22:00:00 6.79091 C 5.84 g/m*3 6.79 C 0 km/h
1656 18-10-2008 23:00:00 5.98333 C 5.86 g/m*3 5.98 C 0 km/h
1657 19-10-2008 00:00:00 5.60833 C 5.92 g/m*3 5.61 C 0 km/h
1658 19-10-2008 01:00:00 4.96667 C 5.82 g/m*3 4.97 C 0 km/h
1659 19-10-2008 02:00:00 4.56667 C 5.89 g/m*3 4.57 C 0 km/h
1660 19-10-2008 03:00:00 4.50833 C 5.94 g/m*3 4.51 C 0 km/h
1661 19-10-2008 04:00:00 4.50833 C 5.94 g/m*3 4.51 C 0 km/h
1662 19-10-2008 05:00:00 4.76667 C 5.98 g/m*3 4.77 C 0 km/h
1663 19-10-2008 06:00:00 3.83333 C 5.71 g/m*3 3.83 C 0 km/h
1664 19-10-2008 07:00:00 3.16667 C 5.53 g/m*3 3.17 C 0 km/h
1665 19-10-2008 08:00:00 3.19167 C 5.57 g/m*3 3.19 C 0 km/h
1666 19-10-2008 09:00:00 3.95 C 5.89 g/m*3 3.95 C 0 km/h
1667 19-10-2008 10:00:00 5.44167 C 6.51 g/m*3 5.44 C 0 km/h
1668 19-10-2008 11:00:00 8.33333 C 7.19 g/m*3 8.33 C 0 km/h
1669 19-10-2008 12:00:00 10.61667 C 6.42 g/m*3 10.62 C 0 km/h
1670 19-10-2008 13:00:00 13.10833 C 5.96 g/m*3 13.11 C 0 km/h
1671 19-10-2008 14:00:00 14.43333 C 5.74 g/m*3 14.43 C 0 km/h
1672 19-10-2008 15:00:00 15.4 C 5.35 g/m*3 15.4 C 0 km/h
1673 19-10-2008 16:00:00 16.19167 C 5.21 g/m*3 16.19 C 0 km/h
1674 19-10-2008 17:00:00 14.70833 C 5.75 g/m*3 14.71 C 0 km/h
1675 19-10-2008 18:00:00 12.14167 C 6.1 g/m*3 12.14 C 0 km/h
Sensor: Nr:Datum:Temp:Abs-Feuchte:Windchill:Wind:
Aussen-T/F 1676 19-10-2008 19:00:00 10.275 C 6.38 g/m*3 10.28 C 0 km/h
1677 19-10-2008 20:00:00 9.19167 C 6.49 g/m*3 9.19 C 0 km/h
1678 19-10-2008 21:00:00 8.1 C 6.41 g/m*3 8.1 C 0 km/h
1679 19-10-2008 22:00:00 7.15833 C 6.34 g/m*3 7.16 C 0 km/h
1680 19-10-2008 23:00:00 6.35833 C 6.28 g/m*3 6.36 C 0 km/h
1681 20-10-2008 00:00:00 5.68333 C 6.18 g/m*3 5.68 C 0 km/h
1682 20-10-2008 01:00:00 5.00833 C 6.01 g/m*3 5.01 C 0 km/h
1683 20-10-2008 02:00:00 4.35833 C 5.8 g/m*3 4.36 C 0 km/h
1684 20-10-2008 03:00:00 3.83333 C 5.68 g/m*3 3.83 C 0 km/h
1685 20-10-2008 04:00:00 3.30833 C 5.52 g/m*3 3.31 C 0 km/h
1686 20-10-2008 05:00:00 2.91667 C 5.41 g/m*3 2.92 C 0 km/h
1687 20-10-2008 06:00:00 2.68333 C 5.41 g/m*3 2.68 C 0 km/h
1688 20-10-2008 07:00:00 2.65833 C 5.42 g/m*3 2.66 C 0 km/h
1689 20-10-2008 08:00:00 2.63333 C 5.4 g/m*3 2.63 C 0 km/h
1690 20-10-2008 09:00:00 3.05 C 5.57 g/m*3 3.05 C 0 km/h
1691 20-10-2008 10:00:00 3.59167 C 5.75 g/m*3 3.59 C 0 km/h
1692 20-10-2008 11:00:00 5.825 C 6.73 g/m*3 5.83 C 0 km/h
1693 20-10-2008 12:00:00 9.98333 C 8.14 g/m*3 9.98 C 0 km/h
1694 20-10-2008 13:00:00 14.05 C 7.49 g/m*3 14.05 C 0 km/h
1695 20-10-2008 14:00:00 17.69167 C 7.68 g/m*3 17.69 C 0 km/h
1696 20-10-2008 15:00:00 19.71667 C 7.52 g/m*3 19.72 C 0 km/h
1697 20-10-2008 16:00:00 20.275 C 7.61 g/m*3 20.27 C 0 km/h
1698 20-10-2008 17:00:00 20.04167 C 7.67 g/m*3 20.04 C 0 km/h
1699 20-10-2008 18:00:00 17.35833 C 8.13 g/m*3 17.36 C 0 km/h
1700 20-10-2008 19:00:00 15.76667 C 8.8 g/m*3 15.77 C 0 km/h
Sensor: Nr:Datum:Temp:Abs-Feuchte:Windchill:Wind:
Aussen-T/F 1701 20-10-2008 20:00:00 15.25833 C 9.12 g/m*3 15.26 C 0 km/h
1702 20-10-2008 21:00:00 14.19167 C 9.35 g/m*3 14.19 C 0 km/h
1703 20-10-2008 22:00:00 13.26667 C 9.31 g/m*3 13.27 C 0 km/h
1704 20-10-2008 23:00:00 12.925 C 9.48 g/m*3 12.93 C 0 km/h
1705 21-10-2008 00:00:00 13.925 C 10.11 g/m*3 13.93 C 0 km/h
1706 21-10-2008 01:00:00 14.01667 C 9.77 g/m*3 14.02 C 0 km/h
1707 21-10-2008 02:00:00 13.25 C 9.88 g/m*3 13.25 C 0 km/h
1708 21-10-2008 03:00:00 13.325 C 9.97 g/m*3 13.33 C 0 km/h
1709 21-10-2008 04:00:00 13.9 C 10.09 g/m*3 13.9 C 0 km/h
1710 21-10-2008 05:00:00 14.975 C 10.4 g/m*3 14.98 C 0 km/h
1711 21-10-2008 06:00:00 16.29167 C 10.16 g/m*3 16.29 C 0 km/h
1712 21-10-2008 07:00:00 16.60833 C 9.96 g/m*3 16.61 C 0 km/h
1713 21-10-2008 08:00:00 17.05 C 9.48 g/m*3 17.05 C 0 km/h
1714 21-10-2008 09:00:00 17.20833 C 8.97 g/m*3 17.21 C 0 km/h
1715 21-10-2008 10:00:00 17.49167 C 8.74 g/m*3 17.49 C 0 km/h
1716 21-10-2008 11:00:00 17.95833 C 8.48 g/m*3 17.96 C 0 km/h
1717 21-10-2008 12:00:00 15.59167 C 8.16 g/m*3 15.59 C 0 km/h
1718 21-10-2008 13:00:00 11.775 C 8.85 g/m*3 11.78 C 0 km/h
1719 21-10-2008 14:00:00 11.45833 C 9.12 g/m*3 11.46 C 0 km/h
1720 21-10-2008 15:00:00 11.46667 C 9.21 g/m*3 11.47 C 0 km/h
1721 21-10-2008 16:00:00 11 C 9 g/m*3 11 C 0 km/h
1722 21-10-2008 17:00:00 10.95833 C 9.15 g/m*3 10.96 C 0 km/h
1723 21-10-2008 18:00:00 10.35 C 8.84 g/m*3 10.35 C 0 km/h
1724 21-10-2008 19:00:00 9.81667 C 8.71 g/m*3 9.82 C 0 km/h
1725 21-10-2008 20:00:00 9.51667 C 8.57 g/m*3 9.52 C 0 km/h
Sensor: Nr:Datum:Temp:Abs-Feuchte:Windchill:Wind:
Aussen-T/F 1726 21-10-2008 21:00:00 9.46667 C 8.63 g/m*3 9.47 C 0 km/h
1727 21-10-2008 22:00:00 9.03333 C 8.33 g/m*3 9.03 C 0 km/h
1728 21-10-2008 23:00:00 8.68333 C 8.21 g/m*3 8.68 C 0 km/h
1729 22-10-2008 00:00:00 8.775 C 8.24 g/m*3 8.78 C 0 km/h
1730 22-10-2008 01:00:00 8.73333 C 8.15 g/m*3 8.73 C 0 km/h
1731 22-10-2008 02:00:00 8.6 C 8.08 g/m*3 8.6 C 0 km/h
1732 22-10-2008 03:00:00 8.5 C 8.1 g/m*3 8.5 C 0 km/h
1733 22-10-2008 04:00:00 8.41667 C 8.07 g/m*3 8.42 C 0 km/h
1734 22-10-2008 05:00:00 8.25833 C 7.99 g/m*3 8.26 C 0 km/h
1735 22-10-2008 06:00:00 8.14167 C 7.93 g/m*3 8.14 C 0 km/h
1736 22-10-2008 07:00:00 8.00833 C 7.86 g/m*3 8.01 C 0 km/h
1737 22-10-2008 08:00:00 8.04167 C 7.88 g/m*3 8.04 C 0 km/h
1738 22-10-2008 09:00:00 8.475 C 8.1 g/m*3 8.48 C 0 km/h
1739 22-10-2008 10:00:00 8.78333 C 8.11 g/m*3 8.78 C 0 km/h
1740 22-10-2008 11:00:00 9.55833 C 8.07 g/m*3 9.56 C 0 km/h
1741 22-10-2008 12:00:00 10.83333 C 7.71 g/m*3 10.83 C 0 km/h
1742 22-10-2008 13:00:00 11.73333 C 7.35 g/m*3 11.73 C 0 km/h
1743 22-10-2008 14:00:00 12.30833 C 6.75 g/m*3 12.31 C 0 km/h
1744 22-10-2008 15:00:00 12.23333 C 6.44 g/m*3 12.23 C 0 km/h
1745 22-10-2008 16:00:00 11.80833 C 6.2 g/m*3 11.81 C 0 km/h
1746 22-10-2008 17:00:00 11.275 C 6.37 g/m*3 11.28 C 0 km/h
1747 22-10-2008 18:00:00 10.39167 C 6.57 g/m*3 10.39 C 0 km/h
1748 22-10-2008 19:00:00 9.7 C 6.71 g/m*3 9.7 C 0 km/h
1749 22-10-2008 20:00:00 9.15833 C 6.69 g/m*3 9.16 C 0 km/h
1750 22-10-2008 21:00:00 8.45 C 6.83 g/m*3 8.45 C 0 km/h
Sensor: Nr:Datum:Temp:Abs-Feuchte:Windchill:Wind:
Aussen-T/F 1751 22-10-2008 22:00:00 7.59167 C 6.89 g/m*3 7.59 C 0 km/h
1752 22-10-2008 23:00:00 6.99167 C 6.87 g/m*3 6.99 C 0 km/h
1753 23-10-2008 00:00:00 6.35833 C 6.81 g/m*3 6.36 C 0 km/h
1754 23-10-2008 01:00:00 5.93333 C 6.78 g/m*3 5.93 C 0 km/h
1755 23-10-2008 02:00:00 6.225 C 6.98 g/m*3 6.23 C 0 km/h
1756 23-10-2008 03:00:00 6.95833 C 7.26 g/m*3 6.96 C 0 km/h
1757 23-10-2008 04:00:00 7.25833 C 7.27 g/m*3 7.26 C 0 km/h
1758 23-10-2008 05:00:00 7.34167 C 7 g/m*3 7.34 C 0 km/h
1759 23-10-2008 06:00:00 7.45 C 6.73 g/m*3 7.45 C 0 km/h
1760 23-10-2008 07:00:00 7.4 C 6.75 g/m*3 7.4 C 0 km/h
1761 23-10-2008 08:00:00 7.425 C 6.78 g/m*3 7.43 C 0 km/h
1762 23-10-2008 09:00:00 8.05 C 6.55 g/m*3 8.05 C 0 km/h
1763 23-10-2008 10:00:00 8.825 C 6.3 g/m*3 8.82 C 0 km/h
1764 23-10-2008 11:00:00 9.4 C 6.14 g/m*3 9.4 C 0 km/h
1765 23-10-2008 12:00:00 10.68333 C 6.28 g/m*3 10.68 C 0 km/h
1766 23-10-2008 13:00:00 12.51667 C 6.12 g/m*3 12.52 C 0 km/h
1767 23-10-2008 14:00:00 13.89167 C 5.79 g/m*3 13.89 C 0 km/h
1768 23-10-2008 15:00:00 15.73333 C 5.27 g/m*3 15.73 C 0 km/h
1769 23-10-2008 16:00:00 15.31667 C 5.21 g/m*3 15.32 C 0 km/h
1770 23-10-2008 17:00:00 14.85 C 5.75 g/m*3 14.85 C 0 km/h
1771 23-10-2008 18:00:00 10.79167 C 5.66 g/m*3 10.79 C 0 km/h
1772 23-10-2008 19:00:00 9.05833 C 5.85 g/m*3 9.06 C 0 km/h
1773 23-10-2008 20:00:00 8.38333 C 5.95 g/m*3 8.38 C 0 km/h
1774 23-10-2008 21:00:00 7.66667 C 6.01 g/m*3 7.67 C 0 km/h
1775 23-10-2008 22:00:00 7.11818 C 5.98 g/m*3 7.12 C 0 km/h
Sensor: Nr:Datum:Temp:Abs-Feuchte:Windchill:Wind:
Aussen-T/F 1776 23-10-2008 23:00:00 6.26667 C 5.96 g/m*3 6.27 C 0 km/h
1777 24-10-2008 00:00:00 5.35833 C 5.82 g/m*3 5.36 C 0 km/h
1778 24-10-2008 01:00:00 4.65 C 5.74 g/m*3 4.65 C 0 km/h
1779 24-10-2008 02:00:00 4.08333 C 5.6 g/m*3 4.08 C 0 km/h
1780 24-10-2008 03:00:00 3.7 C 5.59 g/m*3 3.7 C 0 km/h
1781 24-10-2008 04:00:00 3.975 C 5.75 g/m*3 3.98 C 0 km/h
1782 24-10-2008 05:00:00 3.54167 C 5.61 g/m*3 3.54 C 0 km/h
1783 24-10-2008 06:00:00 3.175 C 5.45 g/m*3 3.18 C 0 km/h
1784 24-10-2008 07:00:00 3.025 C 5.37 g/m*3 3.03 C 0 km/h
1785 24-10-2008 08:00:00 2.96667 C 5.46 g/m*3 2.97 C 0 km/h
1786 24-10-2008 09:00:00 4.08333 C 5.75 g/m*3 4.08 C 0 km/h
1787 24-10-2008 10:00:00 5.25 C 5.77 g/m*3 5.25 C 0 km/h
1788 24-10-2008 11:00:00 5.95833 C 5.92 g/m*3 5.96 C 0 km/h
1789 24-10-2008 12:00:00 8.10833 C 6.39 g/m*3 8.11 C 0 km/h
1790 24-10-2008 13:00:00 11.13333 C 6.03 g/m*3 11.13 C 0 km/h
1791 24-10-2008 14:00:00 12.85 C 5.55 g/m*3 12.85 C 0 km/h
1792 24-10-2008 15:00:00 13.23333 C 5.39 g/m*3 13.23 C 0 km/h
1793 24-10-2008 16:00:00 13.03333 C 5.52 g/m*3 13.03 C 0 km/h
1794 24-10-2008 17:00:00 11.79167 C 5.98 g/m*3 11.79 C 0 km/h
1795 24-10-2008 18:00:00 10.6 C 6.12 g/m*3 10.6 C 0 km/h
1796 24-10-2008 19:00:00 10.24167 C 6.46 g/m*3 10.24 C 0 km/h
1797 24-10-2008 20:00:00 9.94167 C 7.04 g/m*3 9.94 C 0 km/h
1798 24-10-2008 21:00:00 9.79167 C 6.85 g/m*3 9.79 C 0 km/h
1799 24-10-2008 22:00:00 9.39167 C 6.7 g/m*3 9.39 C 0 km/h
1800 24-10-2008 23:00:00 8.75833 C 6.77 g/m*3 8.76 C 0 km/h
Sensor: Nr:Datum:Temp:Abs-Feuchte:Windchill:Wind:
Aussen-T/F 1801 25-10-2008 00:00:00 9.20833 C 6.95 g/m*3 9.21 C 0 km/h
1802 25-10-2008 01:00:00 9.85833 C 6.91 g/m*3 9.86 C 0 km/h
1803 25-10-2008 02:00:00 9.98333 C 6.95 g/m*3 9.98 C 0 km/h
1804 25-10-2008 03:00:00 9.925 C 7.12 g/m*3 9.93 C 0 km/h
1805 25-10-2008 04:00:00 9.94167 C 7.21 g/m*3 9.94 C 0 km/h
1806 25-10-2008 05:00:00 9.91667 C 7.27 g/m*3 9.92 C 0 km/h
1807 25-10-2008 06:00:00 9.725 C 7.53 g/m*3 9.73 C 0 km/h
1808 25-10-2008 07:00:00 9.58333 C 7.78 g/m*3 9.58 C 0 km/h
1809 25-10-2008 08:00:00 9.79167 C 7.77 g/m*3 9.79 C 0 km/h
1810 25-10-2008 09:00:00 10.24 C 7.77 g/m*3 10.24 C 0 km/h
1811 25-10-2008 10:00:00 11.35 C 7.78 g/m*3 11.35 C 0 km/h
1812 25-10-2008 11:00:00 12.23333 C 7.75 g/m*3 12.23 C 0 km/h
1813 25-10-2008 12:00:00 13.35 C 7.94 g/m*3 13.35 C 0 km/h
1814 25-10-2008 13:00:00 14.66667 C 7.58 g/m*3 14.67 C 0 km/h
1815 25-10-2008 14:00:00 15.15 C 7.51 g/m*3 15.15 C 0 km/h
1816 25-10-2008 15:00:00 15.25 C 7.42 g/m*3 15.25 C 0 km/h
1817 25-10-2008 16:00:00 17.03333 C 7.39 g/m*3 17.03 C 0 km/h
1818 25-10-2008 17:00:00 16.15 C 7.42 g/m*3 16.15 C 0 km/h
1819 25-10-2008 18:00:00 12.83333 C 7.71 g/m*3 12.83 C 0 km/h
1820 25-10-2008 19:00:00 12.2 C 7.88 g/m*3 12.2 C 0 km/h
1821 25-10-2008 20:00:00 11.35 C 7.57 g/m*3 11.35 C 0 km/h
1822 25-10-2008 21:00:00 9.93333 C 7.42 g/m*3 9.93 C 0 km/h
1823 25-10-2008 22:00:00 8.95 C 7.29 g/m*3 8.95 C 0 km/h
1824 25-10-2008 23:00:00 8.15 C 7.05 g/m*3 8.15 C 0 km/h
1825 26-10-2008 00:00:00 7.5 C 6.96 g/m*3 7.5 C 0 km/h
Sensor: Nr:Datum:Temp:Abs-Feuchte:Windchill:Wind:
Aussen-T/F 1826 26-10-2008 01:00:00 6.96667 C 6.8 g/m*3 6.97 C 0 km/h
1827 26-10-2008 02:00:00 6.5 C 6.67 g/m*3 6.5 C 0 km/h
1828 26-10-2008 03:00:00 6 C 6.56 g/m*3 6 C 0 km/h
1829 26-10-2008 04:00:00 5.775 C 6.56 g/m*3 5.78 C 0 km/h
1830 26-10-2008 05:00:00 5.6 C 6.53 g/m*3 5.6 C 0 km/h
1831 26-10-2008 06:00:00 6.05 C 6.77 g/m*3 6.05 C 0 km/h
1832 26-10-2008 07:00:00 6.76667 C 6.84 g/m*3 6.77 C 0 km/h
1833 26-10-2008 08:00:00 6.55 C 6.7 g/m*3 6.55 C 0 km/h
1834 26-10-2008 09:00:00 8.1 C 7.32 g/m*3 8.1 C 0 km/h
1835 26-10-2008 10:00:00 10.7 C 7.33 g/m*3 10.7 C 0 km/h
1836 26-10-2008 11:00:00 12.5 C 6.6 g/m*3 12.5 C 0 km/h
1837 26-10-2008 12:00:00 14.33333 C 5.99 g/m*3 14.33 C 0 km/h
1838 26-10-2008 13:00:00 16.4 C 5.09 g/m*3 16.4 C 0 km/h
1839 26-10-2008 14:00:00 15.4 C 4.86 g/m*3 15.4 C 0 km/h
1840 26-10-2008 15:00:00 15.16667 C 4.88 g/m*3 15.17 C 0 km/h
1841 26-10-2008 16:00:00 14.9 C 5.1 g/m*3 14.9 C 0 km/h
1842 26-10-2008 17:00:00 14.43333 C 5.16 g/m*3 14.43 C 0 km/h
1843 26-10-2008 18:00:00 14.4 C 5.01 g/m*3 14.4 C 0 km/h
1844 26-10-2008 19:00:00 14.1 C 5.1 g/m*3 14.1 C 0 km/h
1845 26-10-2008 20:00:00 13.8 C 5.6 g/m*3 13.8 C 0 km/h
1846 26-10-2008 21:00:00 13.6 C 6.18 g/m*3 13.6 C 0 km/h
1847 26-10-2008 22:00:00 13.46667 C 6.54 g/m*3 13.47 C 0 km/h
1848 26-10-2008 23:00:00 13.35 C 6.84 g/m*3 13.35 C 0 km/h
1849 27-10-2008 00:00:00 13.2 C 6.95 g/m*3 13.2 C 0 km/h
1850 27-10-2008 01:00:00 11.46667 C 8.21 g/m*3 11.47 C 0 km/h
Sensor: Nr:Datum:Temp:Abs-Feuchte:Windchill:Wind:
Aussen-T/F 1851 27-10-2008 02:00:00 11.1 C 8.46 g/m*3 11.1 C 0 km/h
1852 27-10-2008 03:00:00 10.96667 C 8.52 g/m*3 10.97 C 0 km/h
1853 27-10-2008 04:00:00 10.65 C 8.76 g/m*3 10.65 C 0 km/h
1854 27-10-2008 05:00:00 10.5 C 8.87 g/m*3 10.5 C 0 km/h
1855 27-10-2008 06:00:00 10.3 C 8.81 g/m*3 10.3 C 0 km/h
1856 27-10-2008 07:00:00 10.15 C 8.82 g/m*3 10.15 C 0 km/h
1857 27-10-2008 08:00:00 10.2 C 8.91 g/m*3 10.2 C 0 km/h
1858 27-10-2008 09:00:00 10.4 C 9.06 g/m*3 10.4 C 0 km/h
1859 27-10-2008 10:00:00 10.5 C 9.12 g/m*3 10.5 C 0 km/h
1860 27-10-2008 11:00:00 9.7 C 8.64 g/m*3 9.7 C 0 km/h
1861 27-10-2008 12:00:00 10.35 C 8.93 g/m*3 10.35 C 0 km/h
1862 27-10-2008 13:00:00 10.5 C 8.47 g/m*3 10.5 C 0 km/h
1863 27-10-2008 14:00:00 11.95 C 8.18 g/m*3 11.95 C 0 km/h
1864 27-10-2008 15:00:00 13.75 C 8.14 g/m*3 13.75 C 0 km/h
1865 27-10-2008 16:00:00 12.03333 C 7.26 g/m*3 12.03 C 0 km/h
1866 27-10-2008 17:00:00 10.45 C 7.06 g/m*3 10.45 C 0 km/h
1867 27-10-2008 18:00:00 9.73333 C 6.84 g/m*3 9.73 C 0 km/h
1868 27-10-2008 19:00:00 8.95 C 6.94 g/m*3 8.95 C 0 km/h
1869 27-10-2008 20:00:00 8.6 C 6.96 g/m*3 8.6 C 0 km/h
1870 27-10-2008 21:00:00 7.7 C 6.73 g/m*3 7.7 C 0 km/h
1871 27-10-2008 22:00:00 7.25 C 6.73 g/m*3 7.25 C 0 km/h
1872 27-10-2008 23:00:00 6.4 C 6.56 g/m*3 6.4 C 0 km/h
1873 28-10-2008 00:00:00 5.95 C 6.51 g/m*3 5.95 C 0 km/h
1874 28-10-2008 01:00:00 5.95 C 6.58 g/m*3 5.95 C 0 km/h
1875 28-10-2008 02:00:00 6.23333 C 6.73 g/m*3 6.23 C 0 km/h
Sensor: Nr:Datum:Temp:Abs-Feuchte:Windchill:Wind:
Aussen-T/F 1876 28-10-2008 03:00:00 6.5 C 6.82 g/m*3 6.5 C 0 km/h
1877 28-10-2008 04:00:00 6.5 C 6.85 g/m*3 6.5 C 0 km/h
1878 28-10-2008 05:00:00 6.45 C 6.91 g/m*3 6.45 C 0 km/h
1879 28-10-2008 06:00:00 6.4 C 6.93 g/m*3 6.4 C 0 km/h
1880 28-10-2008 07:00:00 6.06667 C 6.78 g/m*3 6.07 C 0 km/h
1881 28-10-2008 08:00:00 6.4 C 7 g/m*3 6.4 C 0 km/h
1882 28-10-2008 09:00:00 7.36667 C 7.12 g/m*3 7.37 C 0 km/h
1883 28-10-2008 10:00:00 8.2 C 6.78 g/m*3 8.2 C 0 km/h
1884 28-10-2008 11:00:00 9.65 C 6.8 g/m*3 9.65 C 0 km/h
1885 28-10-2008 12:00:00 10.43333 C 5.7 g/m*3 10.43 C 0 km/h
1886 28-10-2008 13:00:00 10.55 C 5.4 g/m*3 10.55 C 0 km/h
1887 28-10-2008 14:00:00 10.23333 C 5.34 g/m*3 10.23 C 0 km/h
1888 28-10-2008 15:00:00 10 C 5.31 g/m*3 10 C 0 km/h
1889 28-10-2008 16:00:00 8.7 C 5.97 g/m*3 8.7 C 0 km/h
1890 28-10-2008 17:00:00 7.1 C 6.01 g/m*3 7.1 C 0 km/h
1891 28-10-2008 18:00:00 5.85 C 5.86 g/m*3 5.85 C 0 km/h
1892 28-10-2008 19:00:00 5.2 C 5.74 g/m*3 5.2 C 0 km/h
1893 28-10-2008 20:00:00 4.8 C 5.77 g/m*3 4.8 C 0 km/h
1894 28-10-2008 21:00:00 4.3 C 5.61 g/m*3 4.3 C 0 km/h
1895 28-10-2008 22:00:00 3.76667 C 5.53 g/m*3 3.77 C 0 km/h
1896 28-10-2008 23:00:00 3.3 C 5.4 g/m*3 3.3 C 0 km/h
1897 29-10-2008 00:00:00 3.03333 C 5.38 g/m*3 3.03 C 0 km/h
1898 29-10-2008 01:00:00 2.85 C 5.41 g/m*3 2.85 C 0 km/h
1899 29-10-2008 02:00:00 2.95 C 5.48 g/m*3 2.95 C 0 km/h
1900 29-10-2008 03:00:00 3.36667 C 5.65 g/m*3 3.37 C 0 km/h
Sensor: Nr:Datum:Temp:Abs-Feuchte:Windchill:Wind:
Aussen-T/F 1901 29-10-2008 04:00:00 3.5 C 5.66 g/m*3 3.5 C 0 km/h
1902 29-10-2008 05:00:00 3.63333 C 5.71 g/m*3 3.63 C 0 km/h
1903 29-10-2008 06:00:00 3.7 C 5.7 g/m*3 3.7 C 0 km/h
1904 29-10-2008 07:00:00 3.65 C 5.65 g/m*3 3.65 C 0 km/h
1905 29-10-2008 08:00:00 3.8 C 5.69 g/m*3 3.8 C 0 km/h
1906 29-10-2008 09:00:00 4.5 C 5.72 g/m*3 4.5 C 0 km/h
1907 29-10-2008 10:00:00 5.4 C 5.6 g/m*3 5.4 C 0 km/h
1908 29-10-2008 11:00:00 6.85 C 5.72 g/m*3 6.85 C 0 km/h
1909 29-10-2008 12:00:00 7.3 C 5.65 g/m*3 7.3 C 0 km/h
1910 29-10-2008 13:00:00 8.53333 C 5.5 g/m*3 8.53 C 0 km/h
1911 29-10-2008 14:00:00 9.65 C 5.42 g/m*3 9.65 C 0 km/h
1912 29-10-2008 15:00:00 9.96667 C 5.19 g/m*3 9.97 C 0 km/h
1913 29-10-2008 16:00:00 8.15 C 5.43 g/m*3 8.15 C 0 km/h
1914 29-10-2008 17:00:00 6.9 C 5.43 g/m*3 6.9 C 0 km/h
1915 29-10-2008 18:00:00 6.2 C 5.54 g/m*3 6.2 C 0 km/h
1916 29-10-2008 19:00:00 5.9 C 5.66 g/m*3 5.9 C 0 km/h
1917 29-10-2008 20:00:00 5.43333 C 5.59 g/m*3 5.43 C 0 km/h
1918 29-10-2008 21:00:00 5.2 C 5.51 g/m*3 5.2 C 0 km/h
1919 29-10-2008 22:00:00 5.2 C 5.54 g/m*3 5.2 C 0 km/h
1920 29-10-2008 23:00:00 5.13333 C 5.64 g/m*3 5.13 C 0 km/h
1921 30-10-2008 00:00:00 4.95 C 5.72 g/m*3 4.95 C 0 km/h
1922 30-10-2008 01:00:00 4.76667 C 5.8 g/m*3 4.77 C 0 km/h
1923 30-10-2008 02:00:00 4.9 C 5.84 g/m*3 4.9 C 0 km/h
1924 30-10-2008 03:00:00 4.75 C 5.91 g/m*3 4.75 C 0 km/h
1925 30-10-2008 04:00:00 4.56667 C 5.99 g/m*3 4.57 C 0 km/h
Sensor: Nr:Datum:Temp:Abs-Feuchte:Windchill:Wind:
Aussen-T/F 1926 30-10-2008 05:00:00 4.5 C 6.05 g/m*3 4.5 C 0 km/h
1927 30-10-2008 06:00:00 4.16667 C 5.91 g/m*3 4.17 C 0 km/h
1928 30-10-2008 07:00:00 3.9 C 5.91 g/m*3 3.9 C 0 km/h
1929 30-10-2008 08:00:00 4.1 C 6.02 g/m*3 4.1 C 0 km/h
1930 30-10-2008 09:00:00 4.73333 C 6.25 g/m*3 4.73 C 0 km/h
1931 30-10-2008 10:00:00 4.7 C 5.96 g/m*3 4.7 C 0 km/h
1932 30-10-2008 11:00:00 5.4 C 6.12 g/m*3 5.4 C 0 km/h
1933 30-10-2008 12:00:00 5.65 C 6.06 g/m*3 5.65 C 0 km/h
1934 30-10-2008 13:00:00 5.5 C 5.97 g/m*3 5.5 C 0 km/h
1935 30-10-2008 14:00:00 5.56667 C 6.04 g/m*3 5.57 C 0 km/h
1936 30-10-2008 15:00:00 5.75 C 6.1 g/m*3 5.75 C 0 km/h
1937 30-10-2008 16:00:00 5.6 C 6.13 g/m*3 5.6 C 0 km/h
1938 30-10-2008 17:00:00 4.75 C 5.88 g/m*3 4.75 C 0 km/h
1939 30-10-2008 18:00:00 4.7 C 5.93 g/m*3 4.7 C 0 km/h
1940 30-10-2008 19:00:00 4.6 C 6.04 g/m*3 4.6 C 0 km/h
1941 30-10-2008 20:00:00 4.45 C 6.06 g/m*3 4.45 C 0 km/h
1942 30-10-2008 21:00:00 4.33333 C 6.05 g/m*3 4.33 C 0 km/h
1943 30-10-2008 22:00:00 4.3 C 6.1 g/m*3 4.3 C 0 km/h
1944 30-10-2008 23:00:00 4 C 5.98 g/m*3 4 C 0 km/h
1945 31-10-2008 00:00:00 3.63333 C 5.89 g/m*3 3.63 C 0 km/h
1946 31-10-2008 01:00:00 3 C 5.65 g/m*3 3 C 0 km/h
1947 31-10-2008 02:00:00 2.93333 C 5.62 g/m*3 2.93 C 0 km/h
1948 31-10-2008 03:00:00 3.05 C 5.67 g/m*3 3.05 C 0 km/h
1949 31-10-2008 04:00:00 3.15 C 5.71 g/m*3 3.15 C 0 km/h
1950 31-10-2008 05:00:00 3.53333 C 5.85 g/m*3 3.53 C 0 km/h
Sensor: Nr:Datum:Temp:Abs-Feuchte:Windchill:Wind:
Aussen-T/F 1951 31-10-2008 06:00:00 3.9 C 6 g/m*3 3.9 C 0 km/h
1952 31-10-2008 07:00:00 4.03333 C 6.05 g/m*3 4.03 C 0 km/h
1953 31-10-2008 08:00:00 4.4 C 6.2 g/m*3 4.4 C 0 km/h
1954 31-10-2008 09:00:00 5.15 C 6.52 g/m*3 5.15 C 0 km/h
1955 31-10-2008 10:00:00 6.2 C 6.72 g/m*3 6.2 C 0 km/h
1956 31-10-2008 11:00:00 7.05 C 6.53 g/m*3 7.05 C 0 km/h
1957 31-10-2008 12:00:00 7.6 C 6.79 g/m*3 7.6 C 0 km/h
1958 31-10-2008 13:00:00 8.4 C 6.7 g/m*3 8.4 C 0 km/h
1959 31-10-2008 14:00:00 9.75 C 6.75 g/m*3 9.75 C 0 km/h
1960 31-10-2008 15:00:00 10.83333 C 6.57 g/m*3 10.83 C 0 km/h
1961 31-10-2008 16:00:00 9.25 C 6.49 g/m*3 9.25 C 0 km/h
1962 31-10-2008 17:00:00 8.13333 C 6.39 g/m*3 8.13 C 0 km/h
1963 31-10-2008 18:00:00 7.05 C 6.37 g/m*3 7.05 C 0 km/h
1964 31-10-2008 19:00:00 6.9 C 6.5 g/m*3 6.9 C 0 km/h
1965 31-10-2008 20:00:00 6.53333 C 6.54 g/m*3 6.53 C 0 km/h
1966 31-10-2008 21:00:00 6.2 C 6.51 g/m*3 6.2 C 0 km/h
1967 31-10-2008 22:00:00 6.23333 C 6.58 g/m*3 6.23 C 0 km/h
1968 31-10-2008 23:00:00 6.5 C 6.71 g/m*3 6.5 C 0 km/h
1969 01-11-2008 00:00:00 6.35 C 6.65 g/m*3 6.35 C 0 km/h
1970 01-11-2008 01:00:00 6.4 C 6.78 g/m*3 6.4 C 0 km/h
1971 01-11-2008 02:00:00 6.25 C 6.82 g/m*3 6.25 C 0 km/h
1972 01-11-2008 03:00:00 6.03333 C 6.86 g/m*3 6.03 C 0 km/h
1973 01-11-2008 04:00:00 5.95 C 6.87 g/m*3 5.95 C 0 km/h
1974 01-11-2008 05:00:00 6 C 6.9 g/m*3 6 C 0 km/h
1975 01-11-2008 06:00:00 5.83333 C 6.82 g/m*3 5.83 C 0 km/h
Sensor: Nr:Datum:Temp:Abs-Feuchte:Windchill:Wind:
Aussen-T/F 1976 01-11-2008 07:00:00 5.4 C 6.63 g/m*3 5.4 C 0 km/h
1977 01-11-2008 08:00:00 6 C 6.9 g/m*3 6 C 0 km/h
1978 01-11-2008 09:00:00 7.25 C 7.48 g/m*3 7.25 C 0 km/h
1979 01-11-2008 10:00:00 8.05 C 7.38 g/m*3 8.05 C 0 km/h
1980 01-11-2008 11:00:00 8.83333 C 6.95 g/m*3 8.83 C 0 km/h
1981 01-11-2008 12:00:00 9.8 C 6.68 g/m*3 9.8 C 0 km/h
1982 01-11-2008 13:00:00 10.2 C 6.69 g/m*3 10.2 C 0 km/h
1983 01-11-2008 14:00:00 10.45 C 6.86 g/m*3 10.45 C 0 km/h
1984 01-11-2008 15:00:00 10.65 C 7.05 g/m*3 10.65 C 0 km/h
1985 01-11-2008 16:00:00 9.8 C 7.45 g/m*3 9.8 C 0 km/h
1986 01-11-2008 17:00:00 9.45 C 7.67 g/m*3 9.45 C 0 km/h
1987 01-11-2008 18:00:00 9.26667 C 7.65 g/m*3 9.27 C 0 km/h
1988 01-11-2008 19:00:00 9.2 C 7.68 g/m*3 9.2 C 0 km/h
1989 01-11-2008 20:00:00 8.95 C 7.47 g/m*3 8.95 C 0 km/h
1990 01-11-2008 21:00:00 8.46667 C 7.44 g/m*3 8.47 C 0 km/h
1991 01-11-2008 22:00:00 8.6 C 7.69 g/m*3 8.6 C 0 km/h
1992 01-11-2008 23:00:00 8.43333 C 7.68 g/m*3 8.43 C 0 km/h
1993 02-11-2008 00:00:00 8.5 C 7.81 g/m*3 8.5 C 0 km/h
1994 02-11-2008 01:00:00 9.7 C 7.61 g/m*3 9.7 C 0 km/h
1995 02-11-2008 02:00:00 9.23333 C 7.46 g/m*3 9.23 C 0 km/h
1996 02-11-2008 03:00:00 8.7 C 7.48 g/m*3 8.7 C 0 km/h
1997 02-11-2008 04:00:00 8.1 C 7.49 g/m*3 8.1 C 0 km/h
1998 02-11-2008 05:00:00 7.6 C 7.41 g/m*3 7.6 C 0 km/h
1999 02-11-2008 06:00:00 7.45 C 7.46 g/m*3 7.45 C 0 km/h
2000 02-11-2008 07:00:00 7.26667 C 7.41 g/m*3 7.27 C 0 km/h
Sensor: Nr:Datum:Temp:Abs-Feuchte:Windchill:Wind:
Aussen-T/F 2001 02-11-2008 08:00:00 7.45 C 7.54 g/m*3 7.45 C 0 km/h
2002 02-11-2008 09:00:00 8.13333 C 7.87 g/m*3 8.13 C 0 km/h
2003 02-11-2008 10:00:00 9.8 C 8.44 g/m*3 9.8 C 0 km/h
2004 02-11-2008 11:00:00 11.15 C 8.13 g/m*3 11.15 C 0 km/h
2005 02-11-2008 12:00:00 13.13333 C 8.04 g/m*3 13.13 C 0 km/h
2006 02-11-2008 13:00:00 13.95 C 7.82 g/m*3 13.95 C 0 km/h
2007 02-11-2008 14:00:00 14.86667 C 7.84 g/m*3 14.87 C 0 km/h
2008 02-11-2008 15:00:00 14.1 C 8.01 g/m*3 14.1 C 0 km/h
2009 02-11-2008 16:00:00 13.05 C 8.19 g/m*3 13.05 C 0 km/h
2010 02-11-2008 17:00:00 11.2 C 8.04 g/m*3 11.2 C 0 km/h
2011 02-11-2008 18:00:00 10.4 C 8 g/m*3 10.4 C 0 km/h
2012 02-11-2008 19:00:00 9.76667 C 7.9 g/m*3 9.77 C 0 km/h
2013 02-11-2008 20:00:00 9.3 C 7.86 g/m*3 9.3 C 0 km/h
2014 02-11-2008 21:00:00 9.1 C 7.85 g/m*3 9.1 C 0 km/h
2015 02-11-2008 22:00:00 8.96667 C 7.83 g/m*3 8.97 C 0 km/h
2016 02-11-2008 23:00:00 8.4 C 7.68 g/m*3 8.4 C 0 km/h
2017 03-11-2008 00:00:00 7.93333 C 7.52 g/m*3 7.93 C 0 km/h
2018 03-11-2008 01:00:00 7.9 C 7.64 g/m*3 7.9 C 0 km/h
2019 03-11-2008 02:00:00 8 C 7.69 g/m*3 8 C 0 km/h
2020 03-11-2008 03:00:00 8.8 C 8.12 g/m*3 8.8 C 0 km/h
2021 03-11-2008 04:00:00 9.1 C 8.03 g/m*3 9.1 C 0 km/h
2022 03-11-2008 05:00:00 9.16667 C 7.87 g/m*3 9.17 C 0 km/h
2023 03-11-2008 06:00:00 9.2 C 7.81 g/m*3 9.2 C 0 km/h
2024 03-11-2008 07:00:00 9.2 C 7.77 g/m*3 9.2 C 0 km/h
2025 03-11-2008 08:00:00 9.56667 C 7.95 g/m*3 9.57 C 0 km/h
Sensor: Nr:Datum:Temp:Abs-Feuchte:Windchill:Wind:
Aussen-T/F 2026 03-11-2008 09:00:00 10.15 C 7.92 g/m*3 10.15 C 0 km/h
2027 03-11-2008 10:00:00 10.66667 C 7.84 g/m*3 10.67 C 0 km/h
2028 03-11-2008 11:00:00 11.55 C 7.82 g/m*3 11.55 C 0 km/h
2029 03-11-2008 12:00:00 12.9 C 8.11 g/m*3 12.9 C 0 km/h
2030 03-11-2008 13:00:00 13.43333 C 7.84 g/m*3 13.43 C 0 km/h
2031 03-11-2008 14:00:00 14 C 7.78 g/m*3 14 C 0 km/h
2032 03-11-2008 15:00:00 13.5 C 8.07 g/m*3 13.5 C 0 km/h
2033 03-11-2008 16:00:00 12.5 C 8.25 g/m*3 12.5 C 0 km/h
2034 03-11-2008 17:00:00 11.15 C 8.03 g/m*3 11.15 C 0 km/h
2035 03-11-2008 18:00:00 9.7 C 7.87 g/m*3 9.7 C 0 km/h
2036 03-11-2008 19:00:00 8.75 C 7.68 g/m*3 8.75 C 0 km/h
2037 03-11-2008 20:00:00 8.13333 C 7.56 g/m*3 8.13 C 0 km/h
2038 03-11-2008 21:00:00 7.3 C 7.27 g/m*3 7.3 C 0 km/h
2039 03-11-2008 22:00:00 6.7 C 7.07 g/m*3 6.7 C 0 km/h
2040 03-11-2008 23:00:00 6.73333 C 7.13 g/m*3 6.73 C 0 km/h
2041 04-11-2008 00:00:00 6.8 C 7.27 g/m*3 6.8 C 0 km/h
2042 04-11-2008 01:00:00 6.73333 C 7.23 g/m*3 6.73 C 0 km/h
2043 04-11-2008 02:00:00 6.6 C 7.17 g/m*3 6.6 C 0 km/h
2044 04-11-2008 03:00:00 6.8 C 7.27 g/m*3 6.8 C 0 km/h
2045 04-11-2008 04:00:00 6.76667 C 7.25 g/m*3 6.77 C 0 km/h
2046 04-11-2008 05:00:00 6.35 C 7.06 g/m*3 6.35 C 0 km/h
2047 04-11-2008 06:00:00 6.3 C 7.03 g/m*3 6.3 C 0 km/h
2048 04-11-2008 07:00:00 6.45 C 7.1 g/m*3 6.45 C 0 km/h
2049 04-11-2008 08:00:00 6.6 C 7.17 g/m*3 6.6 C 0 km/h
2050 04-11-2008 09:00:00 7.33333 C 7.52 g/m*3 7.33 C 0 km/h
Sensor: Nr:Datum:Temp:Abs-Feuchte:Windchill:Wind:
Aussen-T/F 2051 04-11-2008 10:00:00 7.95 C 7.83 g/m*3 7.95 C 0 km/h
2052 04-11-2008 11:00:00 8.83333 C 8.02 g/m*3 8.83 C 0 km/h
2053 04-11-2008 12:00:00 9.4 C 7.96 g/m*3 9.4 C 0 km/h
2054 04-11-2008 13:00:00 12.85 C 8.48 g/m*3 12.85 C 0 km/h
2055 04-11-2008 14:00:00 14.43333 C 8.42 g/m*3 14.43 C 0 km/h
2056 04-11-2008 15:00:00 13.65 C 8.5 g/m*3 13.65 C 0 km/h
2057 04-11-2008 16:00:00 12.23333 C 8.33 g/m*3 12.23 C 0 km/h
2058 04-11-2008 17:00:00 11.5 C 8.21 g/m*3 11.5 C 0 km/h
2059 04-11-2008 18:00:00 10.85 C 8.33 g/m*3 10.85 C 0 km/h
2060 04-11-2008 19:00:00 10.4 C 8.32 g/m*3 10.4 C 0 km/h
2061 04-11-2008 20:00:00 9.9 C 8.26 g/m*3 9.9 C 0 km/h
2062 04-11-2008 21:00:00 9.16667 C 8.05 g/m*3 9.17 C 0 km/h
2063 04-11-2008 22:00:00 8.9 C 8.1 g/m*3 8.9 C 0 km/h
2064 04-11-2008 23:00:00 8.7 C 8.04 g/m*3 8.7 C 0 km/h
2065 05-11-2008 00:00:00 8.66667 C 8.03 g/m*3 8.67 C 0 km/h
2066 05-11-2008 01:00:00 8.75 C 7.98 g/m*3 8.75 C 0 km/h
2067 05-11-2008 02:00:00 8.53333 C 7.62 g/m*3 8.53 C 0 km/h
2068 05-11-2008 03:00:00 8.35 C 7.53 g/m*3 8.35 C 0 km/h
2069 05-11-2008 04:00:00 8.05 C 7.38 g/m*3 8.05 C 0 km/h
2070 05-11-2008 05:00:00 8.33333 C 7.52 g/m*3 8.33 C 0 km/h
2071 05-11-2008 06:00:00 8.45 C 7.36 g/m*3 8.45 C 0 km/h
2072 05-11-2008 07:00:00 8.43333 C 7.23 g/m*3 8.43 C 0 km/h
2073 05-11-2008 08:00:00 8.8 C 7.4 g/m*3 8.8 C 0 km/h
2074 05-11-2008 09:00:00 9.5 C 7.65 g/m*3 9.5 C 0 km/h
2075 05-11-2008 10:00:00 10.46667 C 7.45 g/m*3 10.47 C 0 km/h
Sensor: Nr:Datum:Temp:Abs-Feuchte:Windchill:Wind:
Aussen-T/F 2076 05-11-2008 11:00:00 10.95 C 7.48 g/m*3 10.95 C 0 km/h
2077 05-11-2008 12:00:00 10.96667 C 7.46 g/m*3 10.97 C 0 km/h
2078 05-11-2008 13:00:00 11.1 C 7.6 g/m*3 11.1 C 0 km/h
2079 05-11-2008 14:00:00 11.3 C 7.75 g/m*3 11.3 C 0 km/h
2080 05-11-2008 15:00:00 11.46667 C 7.66 g/m*3 11.47 C 0 km/h
2081 05-11-2008 16:00:00 11 C 7.71 g/m*3 11 C 0 km/h
2082 05-11-2008 17:00:00 10.56667 C 7.69 g/m*3 10.57 C 0 km/h
2083 05-11-2008 18:00:00 10.4 C 7.81 g/m*3 10.4 C 0 km/h
2084 05-11-2008 19:00:00 10.35 C 7.88 g/m*3 10.35 C 0 km/h
2085 05-11-2008 20:00:00 10.26667 C 7.9 g/m*3 10.27 C 0 km/h
2086 05-11-2008 21:00:00 10.2 C 7.9 g/m*3 10.2 C 0 km/h
2087 05-11-2008 22:00:00 10.2 C 7.96 g/m*3 10.2 C 0 km/h
2088 05-11-2008 23:00:00 10.1 C 7.99 g/m*3 10.1 C 0 km/h
2089 06-11-2008 00:00:00 10 C 7.99 g/m*3 10 C 0 km/h
2090 06-11-2008 01:00:00 9.9 C 8.06 g/m*3 9.9 C 0 km/h
2091 06-11-2008 02:00:00 9.75 C 7.91 g/m*3 9.75 C 0 km/h
2092 06-11-2008 03:00:00 9.23333 C 7.7 g/m*3 9.23 C 0 km/h
2093 06-11-2008 04:00:00 8.55 C 7.45 g/m*3 8.55 C 0 km/h
2094 06-11-2008 05:00:00 8.95 C 7.65 g/m*3 8.95 C 0 km/h
2095 06-11-2008 06:00:00 9.2 C 7.56 g/m*3 9.2 C 0 km/h
2096 06-11-2008 07:00:00 9.2 C 7.41 g/m*3 9.2 C 0 km/h
2097 06-11-2008 08:00:00 9.7 C 7.5 g/m*3 9.7 C 0 km/h
2098 06-11-2008 09:00:00 10.45 C 7.3 g/m*3 10.45 C 0 km/h
2099 06-11-2008 10:00:00 11.15 C 7.02 g/m*3 11.15 C 0 km/h
2100 06-11-2008 11:00:00 12.23333 C 7.06 g/m*3 12.23 C 0 km/h
Sensor: Nr:Datum:Temp:Abs-Feuchte:Windchill:Wind:
Aussen-T/F 2101 06-11-2008 12:00:00 12.15 C 6.94 g/m*3 12.15 C 0 km/h
2102 06-11-2008 13:00:00 12.56667 C 7.07 g/m*3 12.57 C 0 km/h
2103 06-11-2008 14:00:00 13.05 C 7.05 g/m*3 13.05 C 0 km/h
2104 06-11-2008 15:00:00 12.8 C 6.94 g/m*3 12.8 C 0 km/h
2105 06-11-2008 16:00:00 11.86667 C 6.98 g/m*3 11.87 C 0 km/h
2106 06-11-2008 17:00:00 11 C 7.01 g/m*3 11 C 0 km/h
2107 06-11-2008 18:00:00 10.13333 C 6.98 g/m*3 10.13 C 0 km/h
2108 06-11-2008 19:00:00 10.35 C 7.11 g/m*3 10.35 C 0 km/h
2109 06-11-2008 20:00:00 10.25 C 7.21 g/m*3 10.25 C 0 km/h
2110 06-11-2008 21:00:00 10.3 C 7.21 g/m*3 10.3 C 0 km/h
2111 06-11-2008 22:00:00 10.2 C 7.33 g/m*3 10.2 C 0 km/h
2112 06-11-2008 23:00:00 10.16667 C 7.25 g/m*3 10.17 C 0 km/h
2113 07-11-2008 00:00:00 10.1 C 7.19 g/m*3 10.1 C 0 km/h
2114 07-11-2008 01:00:00 10 C 7.24 g/m*3 10 C 0 km/h
2115 07-11-2008 02:00:00 9.96667 C 7.19 g/m*3 9.97 C 0 km/h
2116 07-11-2008 03:00:00 9.95 C 7.17 g/m*3 9.95 C 0 km/h
2117 07-11-2008 04:00:00 10.2 C 7.2 g/m*3 10.2 C 0 km/h
2118 07-11-2008 05:00:00 10.25 C 7.26 g/m*3 10.25 C 0 km/h
2119 07-11-2008 06:00:00 10.05 C 7.16 g/m*3 10.05 C 0 km/h
2120 07-11-2008 07:00:00 10 C 7.05 g/m*3 10 C 0 km/h
2121 07-11-2008 08:00:00 9.95 C 7.07 g/m*3 9.95 C 0 km/h
2122 07-11-2008 09:00:00 10.96667 C 6.96 g/m*3 10.97 C 0 km/h
2123 07-11-2008 10:00:00 11.25 C 6.97 g/m*3 11.25 C 0 km/h
2124 07-11-2008 11:00:00 11.9 C 6.94 g/m*3 11.9 C 0 km/h
2125 07-11-2008 12:00:00 13 C 6.84 g/m*3 13 C 0 km/h
Sensor: Nr:Datum:Temp:Abs-Feuchte:Windchill:Wind:
Aussen-T/F 2126 07-11-2008 13:00:00 13.7 C 6.81 g/m*3 13.7 C 0 km/h
2127 07-11-2008 14:00:00 14.1 C 7.04 g/m*3 14.1 C 0 km/h
2128 07-11-2008 15:00:00 13.65 C 7.32 g/m*3 13.65 C 0 km/h
2129 07-11-2008 16:00:00 12.9 C 7.44 g/m*3 12.9 C 0 km/h
2130 07-11-2008 17:00:00 11.76667 C 7.28 g/m*3 11.77 C 0 km/h
2131 07-11-2008 18:00:00 10.4 C 7.32 g/m*3 10.4 C 0 km/h
2132 07-11-2008 19:00:00 10.43333 C 7.4 g/m*3 10.43 C 0 km/h
2133 07-11-2008 20:00:00 9.7 C 7.47 g/m*3 9.7 C 0 km/h
2134 07-11-2008 21:00:00 8.9 C 7.4 g/m*3 8.9 C 0 km/h
2135 07-11-2008 22:00:00 7.93333 C 7.27 g/m*3 7.93 C 0 km/h
2136 07-11-2008 23:00:00 7.3 C 7.07 g/m*3 7.3 C 0 km/h
2137 08-11-2008 00:00:00 7.1 C 7.15 g/m*3 7.1 C 0 km/h
2138 08-11-2008 01:00:00 7.1 C 7.21 g/m*3 7.1 C 0 km/h
2139 08-11-2008 02:00:00 7.4 C 7.4 g/m*3 7.4 C 0 km/h
2140 08-11-2008 03:00:00 7.93333 C 7.57 g/m*3 7.93 C 0 km/h
2141 08-11-2008 04:00:00 8.25 C 7.65 g/m*3 8.25 C 0 km/h
2142 08-11-2008 05:00:00 8.3 C 7.61 g/m*3 8.3 C 0 km/h
2143 08-11-2008 06:00:00 8.55 C 7.62 g/m*3 8.55 C 0 km/h
2144 08-11-2008 07:00:00 8.25 C 7.65 g/m*3 8.25 C 0 km/h
2145 08-11-2008 08:00:00 7.46667 C 7.4 g/m*3 7.47 C 0 km/h
2146 08-11-2008 09:00:00 7.9 C 7.72 g/m*3 7.9 C 0 km/h
2147 08-11-2008 10:00:00 8.96667 C 7.77 g/m*3 8.97 C 0 km/h
2148 08-11-2008 11:00:00 10 C 6.2 g/m*3 10 C 0 km/h
2149 08-11-2008 12:00:00 11.3 C 5.92 g/m*3 11.3 C 0 km/h
2150 08-11-2008 13:00:00 12.2 C 5.29 g/m*3 12.2 C 0 km/h
Sensor: Nr:Datum:Temp:Abs-Feuchte:Windchill:Wind:
Aussen-T/F 2151 08-11-2008 14:00:00 11.95 C 5.47 g/m*3 11.95 C 0 km/h
2152 08-11-2008 15:00:00 11.66667 C 5.88 g/m*3 11.67 C 0 km/h
2153 08-11-2008 16:00:00 9.85 C 5.91 g/m*3 9.85 C 0 km/h
2154 08-11-2008 17:00:00 8.5 C 6.06 g/m*3 8.5 C 0 km/h
2155 08-11-2008 18:00:00 7.43333 C 6.08 g/m*3 7.43 C 0 km/h
2156 08-11-2008 19:00:00 6.65 C 6.13 g/m*3 6.65 C 0 km/h
2157 08-11-2008 20:00:00 5.83333 C 6.03 g/m*3 5.83 C 0 km/h
2158 08-11-2008 21:00:00 5.25 C 6.01 g/m*3 5.25 C 0 km/h
2159 08-11-2008 22:00:00 4.9 C 6.01 g/m*3 4.9 C 0 km/h
2160 08-11-2008 23:00:00 5.33333 C 6.39 g/m*3 5.33 C 0 km/h
2161 09-11-2008 00:00:00 6.76 C 6.76 g/m*3 6.76 C 0 km/h
2162 09-11-2008 01:00:00 6.54 C 6.44 g/m*3 6.54 C 0 km/h
2163 09-11-2008 02:00:00 7.4 C 6.49 g/m*3 7.4 C 0 km/h
2164 09-11-2008 03:00:00 8.14 C 6.51 g/m*3 8.14 C 0 km/h
2165 09-11-2008 04:00:00 9.38 C 6.52 g/m*3 9.38 C 0 km/h
2166 09-11-2008 05:00:00 9.56 C 6.6 g/m*3 9.56 C 0 km/h
2167 09-11-2008 06:00:00 9.68 C 6.65 g/m*3 9.68 C 0 km/h
2168 09-11-2008 07:00:00 9.66 C 7.01 g/m*3 9.66 C 0 km/h
2169 09-11-2008 08:00:00 9.3 C 7.82 g/m*3 9.3 C 0 km/h
2170 09-11-2008 09:00:00 9.68 C 8.21 g/m*3 9.68 C 0 km/h
2171 09-11-2008 10:00:00 9.74 C 8.39 g/m*3 9.74 C 0 km/h
2172 09-11-2008 11:00:00 10.08 C 8.69 g/m*3 10.08 C 0 km/h
2173 09-11-2008 12:00:00 10.76 C 9.01 g/m*3 10.76 C 0 km/h
2174 09-11-2008 13:00:00 10.36 C 8.27 g/m*3 10.36 C 0 km/h
2175 09-11-2008 14:00:00 9.6 C 7.33 g/m*3 9.6 C 0 km/h
Sensor: Nr:Datum:Temp:Abs-Feuchte:Windchill:Wind:
Aussen-T/F 2176 09-11-2008 15:00:00 9.98 C 7 g/m*3 9.98 C 0 km/h
2177 09-11-2008 16:00:00 9.42 C 7.17 g/m*3 9.42 C 0 km/h
2178 09-11-2008 17:00:00 8.86 C 7.22 g/m*3 8.86 C 0 km/h
2179 09-11-2008 18:00:00 8.18 C 6.93 g/m*3 8.18 C 0 km/h
2180 09-11-2008 19:00:00 7.42 C 6.74 g/m*3 7.42 C 0 km/h
2181 09-11-2008 20:00:00 7.46 C 6.83 g/m*3 7.46 C 0 km/h
2182 09-11-2008 21:00:00 7.8 C 7.18 g/m*3 7.8 C 0 km/h
2183 09-11-2008 22:00:00 8.1 C 7.51 g/m*3 8.1 C 0 km/h
2184 09-11-2008 23:00:00 9.64 C 8.41 g/m*3 9.64 C 0 km/h
2185 10-11-2008 00:00:00 12.26 C 8.64 g/m*3 12.26 C 0 km/h
2186 10-11-2008 01:00:00 13 C 7.94 g/m*3 13 C 0 km/h
2187 10-11-2008 02:00:00 12.68 C 7.67 g/m*3 12.68 C 0 km/h
2188 10-11-2008 03:00:00 11.4 C 8.52 g/m*3 11.4 C 0 km/h
2189 10-11-2008 04:00:00 12.1 C 8.24 g/m*3 12.1 C 0 km/h
2190 10-11-2008 05:00:00 12.76 C 8.02 g/m*3 12.76 C 0 km/h
2191 10-11-2008 06:00:00 13.02 C 7.79 g/m*3 13.02 C 0 km/h
2192 10-11-2008 07:00:00 13.1 C 7.85 g/m*3 13.1 C 0 km/h
2193 10-11-2008 08:00:00 12.9 C 8.32 g/m*3 12.9 C 0 km/h
2194 10-11-2008 09:00:00 13.22 C 8.21 g/m*3 13.22 C 0 km/h
2195 10-11-2008 10:00:00 13.78 C 7.97 g/m*3 13.78 C 0 km/h
2196 10-11-2008 11:00:00 14.08 C 8.12 g/m*3 14.08 C 0 km/h
2197 10-11-2008 12:00:00 14.98 C 7.89 g/m*3 14.98 C 0 km/h
2198 10-11-2008 13:00:00 14.86 C 7.78 g/m*3 14.86 C 0 km/h
2199 10-11-2008 14:00:00 15.1 C 7.77 g/m*3 15.1 C 0 km/h
2200 10-11-2008 15:00:00 14.82 C 7.74 g/m*3 14.82 C 0 km/h
Sensor: Nr:Datum:Temp:Abs-Feuchte:Windchill:Wind:
Aussen-T/F 2201 10-11-2008 16:00:00 14.68 C 7.77 g/m*3 14.68 C 0 km/h
2202 10-11-2008 17:00:00 14.68 C 7.62 g/m*3 14.68 C 0 km/h
2203 10-11-2008 18:00:00 15.1 C 7.38 g/m*3 15.1 C 0 km/h
2204 10-11-2008 19:00:00 15.12 C 7.1 g/m*3 15.12 C 0 km/h
2205 10-11-2008 20:00:00 15.28 C 7.3 g/m*3 15.28 C 0 km/h
2206 10-11-2008 21:00:00 15.44 C 7.69 g/m*3 15.44 C 0 km/h
2207 10-11-2008 22:00:00 15.5 C 7.85 g/m*3 15.5 C 0 km/h
2208 10-11-2008 23:00:00 15.86 C 7.54 g/m*3 15.86 C 0 km/h

Maximal/Minimal-Werte vom 17.04.2019 - 19.05.2019

Sensor Min Max Avg
Temp
(Aussen-T/F)
2.2 °C
13-05-2019  06:50:00
26.6 °C
24-04-2019  17:05:00
11.51 °C

Die Daten stammen von einer Davis Vantage Pro 2 Wetter-Station und werden unter Linux mit der Software wview2wettercgi und aufbereitet. Alle Angaben erfolgen ohne Gewähr für ihre Vollständigkeit oder Richtigkeit.
Kontakt: Rainer Krienke krienke@uni-koblenz.de . Meine Webseiten an der Uni Koblenz oder privat.
Version: $Revision: 0.78 $